<?xml version="1.0" encoding="UTF-8"?>
<gpx
  version="1.0"
  creator="GPSBabel - http://www.gpsbabel.org"
  xmlns:xsi="http://www.w3.org/2001/XMLSchema-instance"
  xmlns="http://www.topografix.com/GPX/1/0"
  xsi:schemaLocation="http://www.topografix.com/GPX/1/0 http://www.topografix.com/GPX/1/0/gpx.xsd">
<time>2012-06-20T17:55:18Z</time>
<bounds minlat="46.163260000" minlon="6.834230000" maxlat="46.211780000" maxlon="6.892840000"/>
<trk>
  <name>
    </name>
<trkseg>
<trkpt lat="46.183970000" lon="6.834660000">
  <ele>1611.800050</ele>
  <time>2012-06-19T14:39:14Z</time>
</trkpt>
<trkpt lat="46.183970000" lon="6.834530000">
  <ele>1610.750000</ele>
  <time>2012-06-19T14:39:17Z</time>
</trkpt>
<trkpt lat="46.183960000" lon="6.834490000">
  <ele>1610.400020</ele>
  <time>2012-06-19T14:39:18Z</time>
</trkpt>
<trkpt lat="46.183990000" lon="6.834260000">
  <ele>1610.400020</ele>
  <time>2012-06-19T14:39:24Z</time>
</trkpt>
<trkpt lat="46.184030000" lon="6.834230000">
  <ele>1610.157350</ele>
  <time>2012-06-19T14:39:26Z</time>
</trkpt>
<trkpt lat="46.184060000" lon="6.834240000">
  <ele>1610.036130</ele>
  <time>2012-06-19T14:39:27Z</time>
</trkpt>
<trkpt lat="46.184220000" lon="6.834360000">
  <ele>1609.429570</ele>
  <time>2012-06-19T14:39:32Z</time>
</trkpt>
<trkpt lat="46.184350000" lon="6.834510000">
  <ele>1608.823000</ele>
  <time>2012-06-19T14:39:37Z</time>
</trkpt>
<trkpt lat="46.184420000" lon="6.834760000">
  <ele>1608.216430</ele>
  <time>2012-06-19T14:39:42Z</time>
</trkpt>
<trkpt lat="46.184470000" lon="6.835050000">
  <ele>1607.609860</ele>
  <time>2012-06-19T14:39:47Z</time>
</trkpt>
<trkpt lat="46.184490000" lon="6.835170000">
  <ele>1607.367190</ele>
  <time>2012-06-19T14:39:49Z</time>
</trkpt>
<trkpt lat="46.184490000" lon="6.835380000">
  <ele>1607.003300</ele>
  <time>2012-06-19T14:39:52Z</time>
</trkpt>
<trkpt lat="46.184470000" lon="6.835680000">
  <ele>1606.518070</ele>
  <time>2012-06-19T14:39:56Z</time>
</trkpt>
<trkpt lat="46.184540000" lon="6.835940000">
  <ele>1606.032840</ele>
  <time>2012-06-19T14:40:00Z</time>
</trkpt>
<trkpt lat="46.184680000" lon="6.836130000">
  <ele>1605.547610</ele>
  <time>2012-06-19T14:40:04Z</time>
</trkpt>
<trkpt lat="46.184720000" lon="6.836190000">
  <ele>1605.426270</ele>
  <time>2012-06-19T14:40:05Z</time>
</trkpt>
<trkpt lat="46.184900000" lon="6.836440000">
  <ele>1604.941040</ele>
  <time>2012-06-19T14:40:09Z</time>
</trkpt>
<trkpt lat="46.184940000" lon="6.836500000">
  <ele>1604.819700</ele>
  <time>2012-06-19T14:40:10Z</time>
</trkpt>
<trkpt lat="46.185030000" lon="6.836640000">
  <ele>1604.577030</ele>
  <time>2012-06-19T14:40:12Z</time>
</trkpt>
<trkpt lat="46.185080000" lon="6.836710000">
  <ele>1604.455690</ele>
  <time>2012-06-19T14:40:13Z</time>
</trkpt>
<trkpt lat="46.185120000" lon="6.836770000">
  <ele>1604.334470</ele>
  <time>2012-06-19T14:40:14Z</time>
</trkpt>
<trkpt lat="46.185160000" lon="6.836850000">
  <ele>1604.213130</ele>
  <time>2012-06-19T14:40:15Z</time>
</trkpt>
<trkpt lat="46.185200000" lon="6.836940000">
  <ele>1604.091800</ele>
  <time>2012-06-19T14:40:16Z</time>
</trkpt>
<trkpt lat="46.185260000" lon="6.837140000">
  <ele>1603.849240</ele>
  <time>2012-06-19T14:40:18Z</time>
</trkpt>
<trkpt lat="46.185290000" lon="6.837260000">
  <ele>1603.727910</ele>
  <time>2012-06-19T14:40:19Z</time>
</trkpt>
<trkpt lat="46.185300000" lon="6.837380000">
  <ele>1603.606570</ele>
  <time>2012-06-19T14:40:20Z</time>
</trkpt>
<trkpt lat="46.185300000" lon="6.837500000">
  <ele>1603.485230</ele>
  <time>2012-06-19T14:40:21Z</time>
</trkpt>
<trkpt lat="46.185290000" lon="6.837620000">
  <ele>1603.363890</ele>
  <time>2012-06-19T14:40:22Z</time>
</trkpt>
<trkpt lat="46.185270000" lon="6.837730000">
  <ele>1603.242680</ele>
  <time>2012-06-19T14:40:23Z</time>
</trkpt>
<trkpt lat="46.185250000" lon="6.837830000">
  <ele>1603.121340</ele>
  <time>2012-06-19T14:40:24Z</time>
</trkpt>
<trkpt lat="46.185250000" lon="6.837930000">
  <ele>1603.000000</ele>
  <time>2012-06-19T14:40:25Z</time>
</trkpt>
<trkpt lat="46.185280000" lon="6.838030000">
  <ele>1603.000000</ele>
  <time>2012-06-19T14:40:26Z</time>
</trkpt>
<trkpt lat="46.185360000" lon="6.838220000">
  <ele>1601.293460</ele>
  <time>2012-06-19T14:40:28Z</time>
</trkpt>
<trkpt lat="46.185410000" lon="6.838310000">
  <ele>1600.440310</ele>
  <time>2012-06-19T14:40:29Z</time>
</trkpt>
<trkpt lat="46.185470000" lon="6.838410000">
  <ele>1599.587040</ele>
  <time>2012-06-19T14:40:30Z</time>
</trkpt>
<trkpt lat="46.185530000" lon="6.838500000">
  <ele>1598.733760</ele>
  <time>2012-06-19T14:40:31Z</time>
</trkpt>
<trkpt lat="46.185590000" lon="6.838580000">
  <ele>1597.880490</ele>
  <time>2012-06-19T14:40:32Z</time>
</trkpt>
<trkpt lat="46.185670000" lon="6.838650000">
  <ele>1597.027220</ele>
  <time>2012-06-19T14:40:33Z</time>
</trkpt>
<trkpt lat="46.185750000" lon="6.838690000">
  <ele>1596.174070</ele>
  <time>2012-06-19T14:40:34Z</time>
</trkpt>
<trkpt lat="46.185850000" lon="6.838710000">
  <ele>1595.320800</ele>
  <time>2012-06-19T14:40:35Z</time>
</trkpt>
<trkpt lat="46.185940000" lon="6.838730000">
  <ele>1594.467530</ele>
  <time>2012-06-19T14:40:36Z</time>
</trkpt>
<trkpt lat="46.186030000" lon="6.838760000">
  <ele>1593.614260</ele>
  <time>2012-06-19T14:40:37Z</time>
</trkpt>
<trkpt lat="46.186120000" lon="6.838800000">
  <ele>1592.760990</ele>
  <time>2012-06-19T14:40:38Z</time>
</trkpt>
<trkpt lat="46.186210000" lon="6.838840000">
  <ele>1591.907840</ele>
  <time>2012-06-19T14:40:39Z</time>
</trkpt>
<trkpt lat="46.186290000" lon="6.838890000">
  <ele>1591.054570</ele>
  <time>2012-06-19T14:40:40Z</time>
</trkpt>
<trkpt lat="46.186390000" lon="6.838940000">
  <ele>1590.201290</ele>
  <time>2012-06-19T14:40:41Z</time>
</trkpt>
<trkpt lat="46.186470000" lon="6.839000000">
  <ele>1589.348020</ele>
  <time>2012-06-19T14:40:42Z</time>
</trkpt>
<trkpt lat="46.186570000" lon="6.839070000">
  <ele>1588.494750</ele>
  <time>2012-06-19T14:40:43Z</time>
</trkpt>
<trkpt lat="46.186640000" lon="6.839140000">
  <ele>1587.641600</ele>
  <time>2012-06-19T14:40:44Z</time>
</trkpt>
<trkpt lat="46.186710000" lon="6.839230000">
  <ele>1586.788330</ele>
  <time>2012-06-19T14:40:45Z</time>
</trkpt>
<trkpt lat="46.186770000" lon="6.839340000">
  <ele>1585.935060</ele>
  <time>2012-06-19T14:40:46Z</time>
</trkpt>
<trkpt lat="46.186820000" lon="6.839460000">
  <ele>1585.081790</ele>
  <time>2012-06-19T14:40:47Z</time>
</trkpt>
<trkpt lat="46.186880000" lon="6.839570000">
  <ele>1584.228520</ele>
  <time>2012-06-19T14:40:48Z</time>
</trkpt>
<trkpt lat="46.186950000" lon="6.839670000">
  <ele>1583.375370</ele>
  <time>2012-06-19T14:40:49Z</time>
</trkpt>
<trkpt lat="46.187020000" lon="6.839770000">
  <ele>1582.522090</ele>
  <time>2012-06-19T14:40:50Z</time>
</trkpt>
<trkpt lat="46.187060000" lon="6.839860000">
  <ele>1581.668820</ele>
  <time>2012-06-19T14:40:51Z</time>
</trkpt>
<trkpt lat="46.187080000" lon="6.839970000">
  <ele>1580.815550</ele>
  <time>2012-06-19T14:40:52Z</time>
</trkpt>
<trkpt lat="46.187070000" lon="6.840090000">
  <ele>1579.962280</ele>
  <time>2012-06-19T14:40:53Z</time>
</trkpt>
<trkpt lat="46.187050000" lon="6.840210000">
  <ele>1579.109130</ele>
  <time>2012-06-19T14:40:54Z</time>
</trkpt>
<trkpt lat="46.187030000" lon="6.840330000">
  <ele>1578.255860</ele>
  <time>2012-06-19T14:40:55Z</time>
</trkpt>
<trkpt lat="46.187000000" lon="6.840450000">
  <ele>1577.402590</ele>
  <time>2012-06-19T14:40:56Z</time>
</trkpt>
<trkpt lat="46.186980000" lon="6.840580000">
  <ele>1576.549320</ele>
  <time>2012-06-19T14:40:57Z</time>
</trkpt>
<trkpt lat="46.186940000" lon="6.840710000">
  <ele>1575.696040</ele>
  <time>2012-06-19T14:40:58Z</time>
</trkpt>
<trkpt lat="46.186890000" lon="6.840840000">
  <ele>1574.842900</ele>
  <time>2012-06-19T14:40:59Z</time>
</trkpt>
<trkpt lat="46.186850000" lon="6.840970000">
  <ele>1573.989620</ele>
  <time>2012-06-19T14:41:00Z</time>
</trkpt>
<trkpt lat="46.186790000" lon="6.841090000">
  <ele>1573.136350</ele>
  <time>2012-06-19T14:41:01Z</time>
</trkpt>
<trkpt lat="46.186690000" lon="6.841340000">
  <ele>1572.283080</ele>
  <time>2012-06-19T14:41:02Z</time>
</trkpt>
<trkpt lat="46.186650000" lon="6.841470000">
  <ele>1570.576660</ele>
  <time>2012-06-19T14:41:04Z</time>
</trkpt>
<trkpt lat="46.186620000" lon="6.841610000">
  <ele>1569.723390</ele>
  <time>2012-06-19T14:41:05Z</time>
</trkpt>
<trkpt lat="46.186590000" lon="6.841750000">
  <ele>1568.870120</ele>
  <time>2012-06-19T14:41:06Z</time>
</trkpt>
<trkpt lat="46.186570000" lon="6.841900000">
  <ele>1568.016850</ele>
  <time>2012-06-19T14:41:07Z</time>
</trkpt>
<trkpt lat="46.186530000" lon="6.842050000">
  <ele>1567.163570</ele>
  <time>2012-06-19T14:41:08Z</time>
</trkpt>
<trkpt lat="46.186500000" lon="6.842190000">
  <ele>1566.310420</ele>
  <time>2012-06-19T14:41:09Z</time>
</trkpt>
<trkpt lat="46.186460000" lon="6.842330000">
  <ele>1565.457150</ele>
  <time>2012-06-19T14:41:10Z</time>
</trkpt>
<trkpt lat="46.186420000" lon="6.842470000">
  <ele>1564.603880</ele>
  <time>2012-06-19T14:41:11Z</time>
</trkpt>
<trkpt lat="46.186400000" lon="6.842610000">
  <ele>1563.750610</ele>
  <time>2012-06-19T14:41:12Z</time>
</trkpt>
<trkpt lat="46.186380000" lon="6.842760000">
  <ele>1562.897340</ele>
  <time>2012-06-19T14:41:13Z</time>
</trkpt>
<trkpt lat="46.186370000" lon="6.842910000">
  <ele>1562.044190</ele>
  <time>2012-06-19T14:41:14Z</time>
</trkpt>
<trkpt lat="46.186360000" lon="6.843060000">
  <ele>1561.190920</ele>
  <time>2012-06-19T14:41:15Z</time>
</trkpt>
<trkpt lat="46.186350000" lon="6.843200000">
  <ele>1560.337650</ele>
  <time>2012-06-19T14:41:16Z</time>
</trkpt>
<trkpt lat="46.186340000" lon="6.843350000">
  <ele>1559.484380</ele>
  <time>2012-06-19T14:41:17Z</time>
</trkpt>
<trkpt lat="46.186340000" lon="6.843500000">
  <ele>1558.631100</ele>
  <time>2012-06-19T14:41:18Z</time>
</trkpt>
<trkpt lat="46.186330000" lon="6.843660000">
  <ele>1557.777950</ele>
  <time>2012-06-19T14:41:19Z</time>
</trkpt>
<trkpt lat="46.186330000" lon="6.843810000">
  <ele>1556.924680</ele>
  <time>2012-06-19T14:41:20Z</time>
</trkpt>
<trkpt lat="46.186340000" lon="6.843970000">
  <ele>1556.071410</ele>
  <time>2012-06-19T14:41:21Z</time>
</trkpt>
<trkpt lat="46.186340000" lon="6.844130000">
  <ele>1555.218140</ele>
  <time>2012-06-19T14:41:22Z</time>
</trkpt>
<trkpt lat="46.186340000" lon="6.844280000">
  <ele>1554.364870</ele>
  <time>2012-06-19T14:41:23Z</time>
</trkpt>
<trkpt lat="46.186340000" lon="6.844440000">
  <ele>1553.511720</ele>
  <time>2012-06-19T14:41:24Z</time>
</trkpt>
<trkpt lat="46.186350000" lon="6.844600000">
  <ele>1552.658450</ele>
  <time>2012-06-19T14:41:25Z</time>
</trkpt>
<trkpt lat="46.186370000" lon="6.844760000">
  <ele>1551.805180</ele>
  <time>2012-06-19T14:41:26Z</time>
</trkpt>
<trkpt lat="46.186390000" lon="6.844910000">
  <ele>1550.951900</ele>
  <time>2012-06-19T14:41:27Z</time>
</trkpt>
<trkpt lat="46.186410000" lon="6.845080000">
  <ele>1550.098630</ele>
  <time>2012-06-19T14:41:28Z</time>
</trkpt>
<trkpt lat="46.186450000" lon="6.845230000">
  <ele>1549.245480</ele>
  <time>2012-06-19T14:41:29Z</time>
</trkpt>
<trkpt lat="46.186490000" lon="6.845380000">
  <ele>1548.392210</ele>
  <time>2012-06-19T14:41:30Z</time>
</trkpt>
<trkpt lat="46.186540000" lon="6.845520000">
  <ele>1547.538940</ele>
  <time>2012-06-19T14:41:31Z</time>
</trkpt>
<trkpt lat="46.186600000" lon="6.845660000">
  <ele>1546.685670</ele>
  <time>2012-06-19T14:41:32Z</time>
</trkpt>
<trkpt lat="46.186660000" lon="6.845790000">
  <ele>1545.832400</ele>
  <time>2012-06-19T14:41:33Z</time>
</trkpt>
<trkpt lat="46.186730000" lon="6.845930000">
  <ele>1544.979250</ele>
  <time>2012-06-19T14:41:34Z</time>
</trkpt>
<trkpt lat="46.186790000" lon="6.846060000">
  <ele>1544.125980</ele>
  <time>2012-06-19T14:41:35Z</time>
</trkpt>
<trkpt lat="46.186850000" lon="6.846210000">
  <ele>1543.272710</ele>
  <time>2012-06-19T14:41:36Z</time>
</trkpt>
<trkpt lat="46.186910000" lon="6.846340000">
  <ele>1542.419430</ele>
  <time>2012-06-19T14:41:37Z</time>
</trkpt>
<trkpt lat="46.186970000" lon="6.846470000">
  <ele>1541.566160</ele>
  <time>2012-06-19T14:41:38Z</time>
</trkpt>
<trkpt lat="46.187030000" lon="6.846600000">
  <ele>1540.713010</ele>
  <time>2012-06-19T14:41:39Z</time>
</trkpt>
<trkpt lat="46.187080000" lon="6.846730000">
  <ele>1539.859740</ele>
  <time>2012-06-19T14:41:40Z</time>
</trkpt>
<trkpt lat="46.187130000" lon="6.846860000">
  <ele>1539.006470</ele>
  <time>2012-06-19T14:41:41Z</time>
</trkpt>
<trkpt lat="46.187200000" lon="6.846980000">
  <ele>1538.153200</ele>
  <time>2012-06-19T14:41:42Z</time>
</trkpt>
<trkpt lat="46.187260000" lon="6.847090000">
  <ele>1537.300050</ele>
  <time>2012-06-19T14:41:43Z</time>
</trkpt>
<trkpt lat="46.187310000" lon="6.847210000">
  <ele>1536.446780</ele>
  <time>2012-06-19T14:41:44Z</time>
</trkpt>
<trkpt lat="46.187330000" lon="6.847350000">
  <ele>1535.593510</ele>
  <time>2012-06-19T14:41:45Z</time>
</trkpt>
<trkpt lat="46.187350000" lon="6.847490000">
  <ele>1534.740230</ele>
  <time>2012-06-19T14:41:46Z</time>
</trkpt>
<trkpt lat="46.187380000" lon="6.847620000">
  <ele>1533.886960</ele>
  <time>2012-06-19T14:41:47Z</time>
</trkpt>
<trkpt lat="46.187420000" lon="6.847740000">
  <ele>1533.033810</ele>
  <time>2012-06-19T14:41:48Z</time>
</trkpt>
<trkpt lat="46.187470000" lon="6.847860000">
  <ele>1532.180540</ele>
  <time>2012-06-19T14:41:49Z</time>
</trkpt>
<trkpt lat="46.187550000" lon="6.847940000">
  <ele>1531.327270</ele>
  <time>2012-06-19T14:41:50Z</time>
</trkpt>
<trkpt lat="46.187630000" lon="6.848010000">
  <ele>1530.474000</ele>
  <time>2012-06-19T14:41:51Z</time>
</trkpt>
<trkpt lat="46.187710000" lon="6.848070000">
  <ele>1529.620730</ele>
  <time>2012-06-19T14:41:52Z</time>
</trkpt>
<trkpt lat="46.187790000" lon="6.848130000">
  <ele>1528.767580</ele>
  <time>2012-06-19T14:41:53Z</time>
</trkpt>
<trkpt lat="46.187850000" lon="6.848220000">
  <ele>1527.914310</ele>
  <time>2012-06-19T14:41:54Z</time>
</trkpt>
<trkpt lat="46.187910000" lon="6.848320000">
  <ele>1527.061040</ele>
  <time>2012-06-19T14:41:55Z</time>
</trkpt>
<trkpt lat="46.187950000" lon="6.848420000">
  <ele>1526.207760</ele>
  <time>2012-06-19T14:41:56Z</time>
</trkpt>
<trkpt lat="46.187970000" lon="6.848550000">
  <ele>1525.354490</ele>
  <time>2012-06-19T14:41:57Z</time>
</trkpt>
<trkpt lat="46.187970000" lon="6.848670000">
  <ele>1524.501340</ele>
  <time>2012-06-19T14:41:58Z</time>
</trkpt>
<trkpt lat="46.187960000" lon="6.848820000">
  <ele>1523.648070</ele>
  <time>2012-06-19T14:41:59Z</time>
</trkpt>
<trkpt lat="46.187960000" lon="6.848960000">
  <ele>1522.794800</ele>
  <time>2012-06-19T14:42:00Z</time>
</trkpt>
<trkpt lat="46.187960000" lon="6.849100000">
  <ele>1521.941530</ele>
  <time>2012-06-19T14:42:01Z</time>
</trkpt>
<trkpt lat="46.187950000" lon="6.849260000">
  <ele>1521.088260</ele>
  <time>2012-06-19T14:42:02Z</time>
</trkpt>
<trkpt lat="46.187950000" lon="6.849410000">
  <ele>1520.235110</ele>
  <time>2012-06-19T14:42:03Z</time>
</trkpt>
<trkpt lat="46.187930000" lon="6.849570000">
  <ele>1519.381840</ele>
  <time>2012-06-19T14:42:04Z</time>
</trkpt>
<trkpt lat="46.187940000" lon="6.849730000">
  <ele>1518.528560</ele>
  <time>2012-06-19T14:42:05Z</time>
</trkpt>
<trkpt lat="46.187950000" lon="6.849890000">
  <ele>1517.675290</ele>
  <time>2012-06-19T14:42:06Z</time>
</trkpt>
<trkpt lat="46.187970000" lon="6.850060000">
  <ele>1516.822020</ele>
  <time>2012-06-19T14:42:07Z</time>
</trkpt>
<trkpt lat="46.187980000" lon="6.850220000">
  <ele>1515.968870</ele>
  <time>2012-06-19T14:42:08Z</time>
</trkpt>
<trkpt lat="46.188010000" lon="6.850380000">
  <ele>1515.115600</ele>
  <time>2012-06-19T14:42:09Z</time>
</trkpt>
<trkpt lat="46.188030000" lon="6.850540000">
  <ele>1514.262330</ele>
  <time>2012-06-19T14:42:10Z</time>
</trkpt>
<trkpt lat="46.188050000" lon="6.850690000">
  <ele>1513.409060</ele>
  <time>2012-06-19T14:42:11Z</time>
</trkpt>
<trkpt lat="46.188070000" lon="6.850840000">
  <ele>1512.555790</ele>
  <time>2012-06-19T14:42:12Z</time>
</trkpt>
<trkpt lat="46.188100000" lon="6.850980000">
  <ele>1511.702640</ele>
  <time>2012-06-19T14:42:13Z</time>
</trkpt>
<trkpt lat="46.188130000" lon="6.851130000">
  <ele>1510.849370</ele>
  <time>2012-06-19T14:42:14Z</time>
</trkpt>
<trkpt lat="46.188170000" lon="6.851260000">
  <ele>1509.996090</ele>
  <time>2012-06-19T14:42:15Z</time>
</trkpt>
<trkpt lat="46.188220000" lon="6.851390000">
  <ele>1509.142820</ele>
  <time>2012-06-19T14:42:16Z</time>
</trkpt>
<trkpt lat="46.188290000" lon="6.851500000">
  <ele>1508.289550</ele>
  <time>2012-06-19T14:42:17Z</time>
</trkpt>
<trkpt lat="46.188350000" lon="6.851620000">
  <ele>1507.436400</ele>
  <time>2012-06-19T14:42:18Z</time>
</trkpt>
<trkpt lat="46.188430000" lon="6.851740000">
  <ele>1506.583130</ele>
  <time>2012-06-19T14:42:19Z</time>
</trkpt>
<trkpt lat="46.188500000" lon="6.851860000">
  <ele>1505.729860</ele>
  <time>2012-06-19T14:42:20Z</time>
</trkpt>
<trkpt lat="46.188560000" lon="6.851970000">
  <ele>1504.876590</ele>
  <time>2012-06-19T14:42:21Z</time>
</trkpt>
<trkpt lat="46.188620000" lon="6.852100000">
  <ele>1504.023320</ele>
  <time>2012-06-19T14:42:22Z</time>
</trkpt>
<trkpt lat="46.188660000" lon="6.852230000">
  <ele>1503.170170</ele>
  <time>2012-06-19T14:42:23Z</time>
</trkpt>
<trkpt lat="46.188710000" lon="6.852370000">
  <ele>1502.316890</ele>
  <time>2012-06-19T14:42:24Z</time>
</trkpt>
<trkpt lat="46.188770000" lon="6.852490000">
  <ele>1501.463620</ele>
  <time>2012-06-19T14:42:25Z</time>
</trkpt>
<trkpt lat="46.188830000" lon="6.852600000">
  <ele>1500.610350</ele>
  <time>2012-06-19T14:42:26Z</time>
</trkpt>
<trkpt lat="46.188880000" lon="6.852710000">
  <ele>1499.757080</ele>
  <time>2012-06-19T14:42:27Z</time>
</trkpt>
<trkpt lat="46.188920000" lon="6.852840000">
  <ele>1498.903930</ele>
  <time>2012-06-19T14:42:28Z</time>
</trkpt>
<trkpt lat="46.188930000" lon="6.852980000">
  <ele>1498.050660</ele>
  <time>2012-06-19T14:42:29Z</time>
</trkpt>
<trkpt lat="46.188930000" lon="6.853120000">
  <ele>1497.197390</ele>
  <time>2012-06-19T14:42:30Z</time>
</trkpt>
<trkpt lat="46.188920000" lon="6.853250000">
  <ele>1496.344120</ele>
  <time>2012-06-19T14:42:31Z</time>
</trkpt>
<trkpt lat="46.188930000" lon="6.853380000">
  <ele>1495.490840</ele>
  <time>2012-06-19T14:42:32Z</time>
</trkpt>
<trkpt lat="46.188950000" lon="6.853510000">
  <ele>1494.637700</ele>
  <time>2012-06-19T14:42:33Z</time>
</trkpt>
<trkpt lat="46.188980000" lon="6.853640000">
  <ele>1493.784420</ele>
  <time>2012-06-19T14:42:34Z</time>
</trkpt>
<trkpt lat="46.189030000" lon="6.853750000">
  <ele>1492.931150</ele>
  <time>2012-06-19T14:42:35Z</time>
</trkpt>
<trkpt lat="46.189100000" lon="6.853860000">
  <ele>1492.077880</ele>
  <time>2012-06-19T14:42:36Z</time>
</trkpt>
<trkpt lat="46.189160000" lon="6.853960000">
  <ele>1491.224610</ele>
  <time>2012-06-19T14:42:37Z</time>
</trkpt>
<trkpt lat="46.189220000" lon="6.854060000">
  <ele>1490.371460</ele>
  <time>2012-06-19T14:42:38Z</time>
</trkpt>
<trkpt lat="46.189260000" lon="6.854170000">
  <ele>1489.518190</ele>
  <time>2012-06-19T14:42:39Z</time>
</trkpt>
<trkpt lat="46.189290000" lon="6.854310000">
  <ele>1488.664920</ele>
  <time>2012-06-19T14:42:40Z</time>
</trkpt>
<trkpt lat="46.189280000" lon="6.854460000">
  <ele>1487.811650</ele>
  <time>2012-06-19T14:42:41Z</time>
</trkpt>
<trkpt lat="46.189290000" lon="6.854590000">
  <ele>1486.958370</ele>
  <time>2012-06-19T14:42:42Z</time>
</trkpt>
<trkpt lat="46.189300000" lon="6.854730000">
  <ele>1486.105220</ele>
  <time>2012-06-19T14:42:43Z</time>
</trkpt>
<trkpt lat="46.189330000" lon="6.854860000">
  <ele>1485.251950</ele>
  <time>2012-06-19T14:42:44Z</time>
</trkpt>
<trkpt lat="46.189370000" lon="6.854990000">
  <ele>1484.398680</ele>
  <time>2012-06-19T14:42:45Z</time>
</trkpt>
<trkpt lat="46.189400000" lon="6.855110000">
  <ele>1483.545410</ele>
  <time>2012-06-19T14:42:46Z</time>
</trkpt>
<trkpt lat="46.189420000" lon="6.855250000">
  <ele>1482.692140</ele>
  <time>2012-06-19T14:42:47Z</time>
</trkpt>
<trkpt lat="46.189410000" lon="6.855390000">
  <ele>1481.838990</ele>
  <time>2012-06-19T14:42:48Z</time>
</trkpt>
<trkpt lat="46.189410000" lon="6.855530000">
  <ele>1480.985720</ele>
  <time>2012-06-19T14:42:49Z</time>
</trkpt>
<trkpt lat="46.189410000" lon="6.855660000">
  <ele>1480.132450</ele>
  <time>2012-06-19T14:42:50Z</time>
</trkpt>
<trkpt lat="46.189430000" lon="6.855790000">
  <ele>1479.279170</ele>
  <time>2012-06-19T14:42:51Z</time>
</trkpt>
<trkpt lat="46.189450000" lon="6.855920000">
  <ele>1478.425900</ele>
  <time>2012-06-19T14:42:52Z</time>
</trkpt>
<trkpt lat="46.189480000" lon="6.856040000">
  <ele>1477.572750</ele>
  <time>2012-06-19T14:42:53Z</time>
</trkpt>
<trkpt lat="46.189520000" lon="6.856170000">
  <ele>1476.719480</ele>
  <time>2012-06-19T14:42:54Z</time>
</trkpt>
<trkpt lat="46.189550000" lon="6.856290000">
  <ele>1475.866210</ele>
  <time>2012-06-19T14:42:55Z</time>
</trkpt>
<trkpt lat="46.189590000" lon="6.856410000">
  <ele>1475.012940</ele>
  <time>2012-06-19T14:42:56Z</time>
</trkpt>
<trkpt lat="46.189610000" lon="6.856520000">
  <ele>1474.159670</ele>
  <time>2012-06-19T14:42:57Z</time>
</trkpt>
<trkpt lat="46.189610000" lon="6.856650000">
  <ele>1473.306520</ele>
  <time>2012-06-19T14:42:58Z</time>
</trkpt>
<trkpt lat="46.189590000" lon="6.856770000">
  <ele>1472.453250</ele>
  <time>2012-06-19T14:42:59Z</time>
</trkpt>
<trkpt lat="46.189530000" lon="6.856880000">
  <ele>1471.599980</ele>
  <time>2012-06-19T14:43:00Z</time>
</trkpt>
<trkpt lat="46.189480000" lon="6.856980000">
  <ele>1470.746700</ele>
  <time>2012-06-19T14:43:01Z</time>
</trkpt>
<trkpt lat="46.189430000" lon="6.857080000">
  <ele>1469.893430</ele>
  <time>2012-06-19T14:43:02Z</time>
</trkpt>
<trkpt lat="46.189410000" lon="6.857190000">
  <ele>1469.040280</ele>
  <time>2012-06-19T14:43:03Z</time>
</trkpt>
<trkpt lat="46.189420000" lon="6.857310000">
  <ele>1468.187010</ele>
  <time>2012-06-19T14:43:04Z</time>
</trkpt>
<trkpt lat="46.189430000" lon="6.857440000">
  <ele>1467.333740</ele>
  <time>2012-06-19T14:43:05Z</time>
</trkpt>
<trkpt lat="46.189450000" lon="6.857580000">
  <ele>1466.480470</ele>
  <time>2012-06-19T14:43:06Z</time>
</trkpt>
<trkpt lat="46.189460000" lon="6.857730000">
  <ele>1465.627200</ele>
  <time>2012-06-19T14:43:07Z</time>
</trkpt>
<trkpt lat="46.189480000" lon="6.857880000">
  <ele>1464.774050</ele>
  <time>2012-06-19T14:43:08Z</time>
</trkpt>
<trkpt lat="46.189480000" lon="6.858020000">
  <ele>1463.920780</ele>
  <time>2012-06-19T14:43:09Z</time>
</trkpt>
<trkpt lat="46.189480000" lon="6.858170000">
  <ele>1463.067500</ele>
  <time>2012-06-19T14:43:10Z</time>
</trkpt>
<trkpt lat="46.189490000" lon="6.858320000">
  <ele>1462.214230</ele>
  <time>2012-06-19T14:43:11Z</time>
</trkpt>
<trkpt lat="46.189490000" lon="6.858460000">
  <ele>1461.360960</ele>
  <time>2012-06-19T14:43:12Z</time>
</trkpt>
<trkpt lat="46.189500000" lon="6.858610000">
  <ele>1460.507810</ele>
  <time>2012-06-19T14:43:13Z</time>
</trkpt>
<trkpt lat="46.189500000" lon="6.858760000">
  <ele>1459.654540</ele>
  <time>2012-06-19T14:43:14Z</time>
</trkpt>
<trkpt lat="46.189520000" lon="6.858910000">
  <ele>1458.801270</ele>
  <time>2012-06-19T14:43:15Z</time>
</trkpt>
<trkpt lat="46.189530000" lon="6.859050000">
  <ele>1457.948000</ele>
  <time>2012-06-19T14:43:16Z</time>
</trkpt>
<trkpt lat="46.189560000" lon="6.859180000">
  <ele>1457.094730</ele>
  <time>2012-06-19T14:43:17Z</time>
</trkpt>
<trkpt lat="46.189580000" lon="6.859320000">
  <ele>1456.241580</ele>
  <time>2012-06-19T14:43:18Z</time>
</trkpt>
<trkpt lat="46.189600000" lon="6.859450000">
  <ele>1455.388310</ele>
  <time>2012-06-19T14:43:19Z</time>
</trkpt>
<trkpt lat="46.189590000" lon="6.859580000">
  <ele>1454.535030</ele>
  <time>2012-06-19T14:43:20Z</time>
</trkpt>
<trkpt lat="46.189570000" lon="6.859700000">
  <ele>1453.681760</ele>
  <time>2012-06-19T14:43:21Z</time>
</trkpt>
<trkpt lat="46.189540000" lon="6.859840000">
  <ele>1452.828490</ele>
  <time>2012-06-19T14:43:22Z</time>
</trkpt>
<trkpt lat="46.189520000" lon="6.859970000">
  <ele>1451.975340</ele>
  <time>2012-06-19T14:43:23Z</time>
</trkpt>
<trkpt lat="46.189490000" lon="6.860100000">
  <ele>1451.122070</ele>
  <time>2012-06-19T14:43:24Z</time>
</trkpt>
<trkpt lat="46.189460000" lon="6.860220000">
  <ele>1450.268800</ele>
  <time>2012-06-19T14:43:25Z</time>
</trkpt>
<trkpt lat="46.189440000" lon="6.860350000">
  <ele>1449.415530</ele>
  <time>2012-06-19T14:43:26Z</time>
</trkpt>
<trkpt lat="46.189430000" lon="6.860480000">
  <ele>1448.562260</ele>
  <time>2012-06-19T14:43:27Z</time>
</trkpt>
<trkpt lat="46.189430000" lon="6.860610000">
  <ele>1447.709110</ele>
  <time>2012-06-19T14:43:28Z</time>
</trkpt>
<trkpt lat="46.189440000" lon="6.860750000">
  <ele>1446.855830</ele>
  <time>2012-06-19T14:43:29Z</time>
</trkpt>
<trkpt lat="46.189460000" lon="6.860890000">
  <ele>1446.002560</ele>
  <time>2012-06-19T14:43:30Z</time>
</trkpt>
<trkpt lat="46.189490000" lon="6.861020000">
  <ele>1445.149290</ele>
  <time>2012-06-19T14:43:31Z</time>
</trkpt>
<trkpt lat="46.189520000" lon="6.861150000">
  <ele>1444.296020</ele>
  <time>2012-06-19T14:43:32Z</time>
</trkpt>
<trkpt lat="46.189560000" lon="6.861280000">
  <ele>1443.442870</ele>
  <time>2012-06-19T14:43:33Z</time>
</trkpt>
<trkpt lat="46.189580000" lon="6.861420000">
  <ele>1442.589600</ele>
  <time>2012-06-19T14:43:34Z</time>
</trkpt>
<trkpt lat="46.189590000" lon="6.861550000">
  <ele>1441.736330</ele>
  <time>2012-06-19T14:43:35Z</time>
</trkpt>
<trkpt lat="46.189580000" lon="6.861690000">
  <ele>1440.883060</ele>
  <time>2012-06-19T14:43:36Z</time>
</trkpt>
<trkpt lat="46.189570000" lon="6.861820000">
  <ele>1440.029790</ele>
  <time>2012-06-19T14:43:37Z</time>
</trkpt>
<trkpt lat="46.189550000" lon="6.861950000">
  <ele>1439.176640</ele>
  <time>2012-06-19T14:43:38Z</time>
</trkpt>
<trkpt lat="46.189530000" lon="6.862080000">
  <ele>1438.323360</ele>
  <time>2012-06-19T14:43:39Z</time>
</trkpt>
<trkpt lat="46.189520000" lon="6.862200000">
  <ele>1437.470090</ele>
  <time>2012-06-19T14:43:40Z</time>
</trkpt>
<trkpt lat="46.189520000" lon="6.862330000">
  <ele>1436.616820</ele>
  <time>2012-06-19T14:43:41Z</time>
</trkpt>
<trkpt lat="46.189520000" lon="6.862470000">
  <ele>1435.763550</ele>
  <time>2012-06-19T14:43:42Z</time>
</trkpt>
<trkpt lat="46.189540000" lon="6.862600000">
  <ele>1434.910400</ele>
  <time>2012-06-19T14:43:43Z</time>
</trkpt>
<trkpt lat="46.189550000" lon="6.862740000">
  <ele>1434.057130</ele>
  <time>2012-06-19T14:43:44Z</time>
</trkpt>
<trkpt lat="46.189570000" lon="6.862890000">
  <ele>1433.203860</ele>
  <time>2012-06-19T14:43:45Z</time>
</trkpt>
<trkpt lat="46.189590000" lon="6.863030000">
  <ele>1432.350590</ele>
  <time>2012-06-19T14:43:46Z</time>
</trkpt>
<trkpt lat="46.189610000" lon="6.863170000">
  <ele>1431.497310</ele>
  <time>2012-06-19T14:43:47Z</time>
</trkpt>
<trkpt lat="46.189620000" lon="6.863310000">
  <ele>1430.644170</ele>
  <time>2012-06-19T14:43:48Z</time>
</trkpt>
<trkpt lat="46.189640000" lon="6.863440000">
  <ele>1429.790890</ele>
  <time>2012-06-19T14:43:49Z</time>
</trkpt>
<trkpt lat="46.189640000" lon="6.863580000">
  <ele>1428.937620</ele>
  <time>2012-06-19T14:43:50Z</time>
</trkpt>
<trkpt lat="46.189660000" lon="6.863710000">
  <ele>1428.084350</ele>
  <time>2012-06-19T14:43:51Z</time>
</trkpt>
<trkpt lat="46.189670000" lon="6.863850000">
  <ele>1427.231080</ele>
  <time>2012-06-19T14:43:52Z</time>
</trkpt>
<trkpt lat="46.189690000" lon="6.863990000">
  <ele>1426.377930</ele>
  <time>2012-06-19T14:43:53Z</time>
</trkpt>
<trkpt lat="46.189700000" lon="6.864130000">
  <ele>1425.524660</ele>
  <time>2012-06-19T14:43:54Z</time>
</trkpt>
<trkpt lat="46.189720000" lon="6.864280000">
  <ele>1424.671390</ele>
  <time>2012-06-19T14:43:55Z</time>
</trkpt>
<trkpt lat="46.189750000" lon="6.864430000">
  <ele>1423.818120</ele>
  <time>2012-06-19T14:43:56Z</time>
</trkpt>
<trkpt lat="46.189780000" lon="6.864590000">
  <ele>1422.964840</ele>
  <time>2012-06-19T14:43:57Z</time>
</trkpt>
<trkpt lat="46.189800000" lon="6.864750000">
  <ele>1422.111690</ele>
  <time>2012-06-19T14:43:58Z</time>
</trkpt>
<trkpt lat="46.189830000" lon="6.864920000">
  <ele>1421.258420</ele>
  <time>2012-06-19T14:43:59Z</time>
</trkpt>
<trkpt lat="46.189860000" lon="6.865090000">
  <ele>1420.405150</ele>
  <time>2012-06-19T14:44:00Z</time>
</trkpt>
<trkpt lat="46.189900000" lon="6.865240000">
  <ele>1419.551880</ele>
  <time>2012-06-19T14:44:01Z</time>
</trkpt>
<trkpt lat="46.189950000" lon="6.865390000">
  <ele>1418.698610</ele>
  <time>2012-06-19T14:44:02Z</time>
</trkpt>
<trkpt lat="46.190000000" lon="6.865540000">
  <ele>1417.845460</ele>
  <time>2012-06-19T14:44:03Z</time>
</trkpt>
<trkpt lat="46.190060000" lon="6.865690000">
  <ele>1416.992190</ele>
  <time>2012-06-19T14:44:04Z</time>
</trkpt>
<trkpt lat="46.190110000" lon="6.865840000">
  <ele>1416.138920</ele>
  <time>2012-06-19T14:44:05Z</time>
</trkpt>
<trkpt lat="46.190160000" lon="6.865980000">
  <ele>1415.285640</ele>
  <time>2012-06-19T14:44:06Z</time>
</trkpt>
<trkpt lat="46.190200000" lon="6.866140000">
  <ele>1414.432370</ele>
  <time>2012-06-19T14:44:07Z</time>
</trkpt>
<trkpt lat="46.190250000" lon="6.866280000">
  <ele>1413.579220</ele>
  <time>2012-06-19T14:44:08Z</time>
</trkpt>
<trkpt lat="46.190310000" lon="6.866420000">
  <ele>1412.725950</ele>
  <time>2012-06-19T14:44:09Z</time>
</trkpt>
<trkpt lat="46.190370000" lon="6.866550000">
  <ele>1411.872680</ele>
  <time>2012-06-19T14:44:10Z</time>
</trkpt>
<trkpt lat="46.190440000" lon="6.866660000">
  <ele>1411.019410</ele>
  <time>2012-06-19T14:44:11Z</time>
</trkpt>
<trkpt lat="46.190510000" lon="6.866740000">
  <ele>1410.166140</ele>
  <time>2012-06-19T14:44:12Z</time>
</trkpt>
<trkpt lat="46.190580000" lon="6.866830000">
  <ele>1409.312990</ele>
  <time>2012-06-19T14:44:13Z</time>
</trkpt>
<trkpt lat="46.190640000" lon="6.866950000">
  <ele>1408.459720</ele>
  <time>2012-06-19T14:44:14Z</time>
</trkpt>
<trkpt lat="46.190690000" lon="6.867090000">
  <ele>1407.606450</ele>
  <time>2012-06-19T14:44:15Z</time>
</trkpt>
<trkpt lat="46.190710000" lon="6.867230000">
  <ele>1406.753170</ele>
  <time>2012-06-19T14:44:16Z</time>
</trkpt>
<trkpt lat="46.190720000" lon="6.867380000">
  <ele>1405.899900</ele>
  <time>2012-06-19T14:44:17Z</time>
</trkpt>
<trkpt lat="46.190730000" lon="6.867530000">
  <ele>1405.046750</ele>
  <time>2012-06-19T14:44:18Z</time>
</trkpt>
<trkpt lat="46.190740000" lon="6.867680000">
  <ele>1404.193480</ele>
  <time>2012-06-19T14:44:19Z</time>
</trkpt>
<trkpt lat="46.190760000" lon="6.867840000">
  <ele>1403.340210</ele>
  <time>2012-06-19T14:44:20Z</time>
</trkpt>
<trkpt lat="46.190790000" lon="6.867990000">
  <ele>1402.486940</ele>
  <time>2012-06-19T14:44:21Z</time>
</trkpt>
<trkpt lat="46.190840000" lon="6.868130000">
  <ele>1401.633790</ele>
  <time>2012-06-19T14:44:22Z</time>
</trkpt>
<trkpt lat="46.190900000" lon="6.868260000">
  <ele>1400.780520</ele>
  <time>2012-06-19T14:44:23Z</time>
</trkpt>
<trkpt lat="46.190980000" lon="6.868370000">
  <ele>1399.927250</ele>
  <time>2012-06-19T14:44:24Z</time>
</trkpt>
<trkpt lat="46.191060000" lon="6.868490000">
  <ele>1399.073970</ele>
  <time>2012-06-19T14:44:25Z</time>
</trkpt>
<trkpt lat="46.191150000" lon="6.868600000">
  <ele>1398.220700</ele>
  <time>2012-06-19T14:44:26Z</time>
</trkpt>
<trkpt lat="46.191230000" lon="6.868700000">
  <ele>1397.367550</ele>
  <time>2012-06-19T14:44:27Z</time>
</trkpt>
<trkpt lat="46.191330000" lon="6.868800000">
  <ele>1396.514280</ele>
  <time>2012-06-19T14:44:28Z</time>
</trkpt>
<trkpt lat="46.191420000" lon="6.868910000">
  <ele>1395.661010</ele>
  <time>2012-06-19T14:44:29Z</time>
</trkpt>
<trkpt lat="46.191500000" lon="6.869030000">
  <ele>1394.807740</ele>
  <time>2012-06-19T14:44:30Z</time>
</trkpt>
<trkpt lat="46.191570000" lon="6.869160000">
  <ele>1393.954470</ele>
  <time>2012-06-19T14:44:31Z</time>
</trkpt>
<trkpt lat="46.191630000" lon="6.869310000">
  <ele>1393.101320</ele>
  <time>2012-06-19T14:44:32Z</time>
</trkpt>
<trkpt lat="46.191680000" lon="6.869470000">
  <ele>1392.248050</ele>
  <time>2012-06-19T14:44:33Z</time>
</trkpt>
<trkpt lat="46.191730000" lon="6.869610000">
  <ele>1391.394780</ele>
  <time>2012-06-19T14:44:34Z</time>
</trkpt>
<trkpt lat="46.191810000" lon="6.869740000">
  <ele>1390.541500</ele>
  <time>2012-06-19T14:44:35Z</time>
</trkpt>
<trkpt lat="46.191910000" lon="6.869860000">
  <ele>1389.688230</ele>
  <time>2012-06-19T14:44:36Z</time>
</trkpt>
<trkpt lat="46.191990000" lon="6.869970000">
  <ele>1388.835080</ele>
  <time>2012-06-19T14:44:37Z</time>
</trkpt>
<trkpt lat="46.192070000" lon="6.870090000">
  <ele>1387.981810</ele>
  <time>2012-06-19T14:44:38Z</time>
</trkpt>
<trkpt lat="46.192120000" lon="6.870220000">
  <ele>1387.128540</ele>
  <time>2012-06-19T14:44:39Z</time>
</trkpt>
<trkpt lat="46.192160000" lon="6.870360000">
  <ele>1386.275270</ele>
  <time>2012-06-19T14:44:40Z</time>
</trkpt>
<trkpt lat="46.192210000" lon="6.870510000">
  <ele>1385.422000</ele>
  <time>2012-06-19T14:44:41Z</time>
</trkpt>
<trkpt lat="46.192260000" lon="6.870640000">
  <ele>1384.568850</ele>
  <time>2012-06-19T14:44:42Z</time>
</trkpt>
<trkpt lat="46.192320000" lon="6.870780000">
  <ele>1383.715580</ele>
  <time>2012-06-19T14:44:43Z</time>
</trkpt>
<trkpt lat="46.192380000" lon="6.870920000">
  <ele>1382.862300</ele>
  <time>2012-06-19T14:44:44Z</time>
</trkpt>
<trkpt lat="46.192430000" lon="6.871070000">
  <ele>1382.009030</ele>
  <time>2012-06-19T14:44:45Z</time>
</trkpt>
<trkpt lat="46.192480000" lon="6.871210000">
  <ele>1381.155760</ele>
  <time>2012-06-19T14:44:46Z</time>
</trkpt>
<trkpt lat="46.192550000" lon="6.871330000">
  <ele>1380.302610</ele>
  <time>2012-06-19T14:44:47Z</time>
</trkpt>
<trkpt lat="46.192630000" lon="6.871440000">
  <ele>1379.449340</ele>
  <time>2012-06-19T14:44:48Z</time>
</trkpt>
<trkpt lat="46.192720000" lon="6.871550000">
  <ele>1378.596070</ele>
  <time>2012-06-19T14:44:49Z</time>
</trkpt>
<trkpt lat="46.192810000" lon="6.871650000">
  <ele>1377.742800</ele>
  <time>2012-06-19T14:44:50Z</time>
</trkpt>
<trkpt lat="46.192900000" lon="6.871760000">
  <ele>1376.889530</ele>
  <time>2012-06-19T14:44:51Z</time>
</trkpt>
<trkpt lat="46.193000000" lon="6.871850000">
  <ele>1376.036380</ele>
  <time>2012-06-19T14:44:52Z</time>
</trkpt>
<trkpt lat="46.193100000" lon="6.871910000">
  <ele>1375.183110</ele>
  <time>2012-06-19T14:44:53Z</time>
</trkpt>
<trkpt lat="46.193210000" lon="6.871970000">
  <ele>1374.329830</ele>
  <time>2012-06-19T14:44:54Z</time>
</trkpt>
<trkpt lat="46.193320000" lon="6.872020000">
  <ele>1373.476560</ele>
  <time>2012-06-19T14:44:55Z</time>
</trkpt>
<trkpt lat="46.193440000" lon="6.872070000">
  <ele>1372.623290</ele>
  <time>2012-06-19T14:44:56Z</time>
</trkpt>
<trkpt lat="46.193550000" lon="6.872130000">
  <ele>1371.770140</ele>
  <time>2012-06-19T14:44:57Z</time>
</trkpt>
<trkpt lat="46.193660000" lon="6.872200000">
  <ele>1370.916870</ele>
  <time>2012-06-19T14:44:58Z</time>
</trkpt>
<trkpt lat="46.193760000" lon="6.872290000">
  <ele>1370.063600</ele>
  <time>2012-06-19T14:44:59Z</time>
</trkpt>
<trkpt lat="46.193860000" lon="6.872390000">
  <ele>1369.210330</ele>
  <time>2012-06-19T14:45:00Z</time>
</trkpt>
<trkpt lat="46.193940000" lon="6.872490000">
  <ele>1368.357060</ele>
  <time>2012-06-19T14:45:01Z</time>
</trkpt>
<trkpt lat="46.194030000" lon="6.872580000">
  <ele>1367.503910</ele>
  <time>2012-06-19T14:45:02Z</time>
</trkpt>
<trkpt lat="46.194120000" lon="6.872650000">
  <ele>1366.650630</ele>
  <time>2012-06-19T14:45:03Z</time>
</trkpt>
<trkpt lat="46.194230000" lon="6.872700000">
  <ele>1365.797360</ele>
  <time>2012-06-19T14:45:04Z</time>
</trkpt>
<trkpt lat="46.194340000" lon="6.872730000">
  <ele>1364.944090</ele>
  <time>2012-06-19T14:45:05Z</time>
</trkpt>
<trkpt lat="46.194450000" lon="6.872760000">
  <ele>1364.090820</ele>
  <time>2012-06-19T14:45:06Z</time>
</trkpt>
<trkpt lat="46.194570000" lon="6.872790000">
  <ele>1363.237670</ele>
  <time>2012-06-19T14:45:07Z</time>
</trkpt>
<trkpt lat="46.194690000" lon="6.872820000">
  <ele>1362.384400</ele>
  <time>2012-06-19T14:45:08Z</time>
</trkpt>
<trkpt lat="46.194800000" lon="6.872860000">
  <ele>1361.531130</ele>
  <time>2012-06-19T14:45:09Z</time>
</trkpt>
<trkpt lat="46.194920000" lon="6.872900000">
  <ele>1360.677860</ele>
  <time>2012-06-19T14:45:10Z</time>
</trkpt>
<trkpt lat="46.195030000" lon="6.872940000">
  <ele>1359.824580</ele>
  <time>2012-06-19T14:45:11Z</time>
</trkpt>
<trkpt lat="46.195140000" lon="6.872980000">
  <ele>1358.971440</ele>
  <time>2012-06-19T14:45:12Z</time>
</trkpt>
<trkpt lat="46.195250000" lon="6.872990000">
  <ele>1358.118160</ele>
  <time>2012-06-19T14:45:13Z</time>
</trkpt>
<trkpt lat="46.195350000" lon="6.872970000">
  <ele>1357.264890</ele>
  <time>2012-06-19T14:45:14Z</time>
</trkpt>
<trkpt lat="46.195440000" lon="6.872920000">
  <ele>1356.411620</ele>
  <time>2012-06-19T14:45:15Z</time>
</trkpt>
<trkpt lat="46.195510000" lon="6.872830000">
  <ele>1355.558350</ele>
  <time>2012-06-19T14:45:16Z</time>
</trkpt>
<trkpt lat="46.195590000" lon="6.872730000">
  <ele>1354.705200</ele>
  <time>2012-06-19T14:45:17Z</time>
</trkpt>
<trkpt lat="46.195660000" lon="6.872630000">
  <ele>1353.851930</ele>
  <time>2012-06-19T14:45:18Z</time>
</trkpt>
<trkpt lat="46.195750000" lon="6.872540000">
  <ele>1352.998660</ele>
  <time>2012-06-19T14:45:19Z</time>
</trkpt>
<trkpt lat="46.195840000" lon="6.872470000">
  <ele>1352.145390</ele>
  <time>2012-06-19T14:45:20Z</time>
</trkpt>
<trkpt lat="46.195930000" lon="6.872420000">
  <ele>1351.292110</ele>
  <time>2012-06-19T14:45:21Z</time>
</trkpt>
<trkpt lat="46.196040000" lon="6.872370000">
  <ele>1350.438960</ele>
  <time>2012-06-19T14:45:22Z</time>
</trkpt>
<trkpt lat="46.196140000" lon="6.872340000">
  <ele>1349.585690</ele>
  <time>2012-06-19T14:45:23Z</time>
</trkpt>
<trkpt lat="46.196230000" lon="6.872290000">
  <ele>1348.732420</ele>
  <time>2012-06-19T14:45:24Z</time>
</trkpt>
<trkpt lat="46.196320000" lon="6.872230000">
  <ele>1347.879150</ele>
  <time>2012-06-19T14:45:25Z</time>
</trkpt>
<trkpt lat="46.196400000" lon="6.872140000">
  <ele>1347.025880</ele>
  <time>2012-06-19T14:45:26Z</time>
</trkpt>
<trkpt lat="46.196460000" lon="6.872040000">
  <ele>1346.172730</ele>
  <time>2012-06-19T14:45:27Z</time>
</trkpt>
<trkpt lat="46.196510000" lon="6.871920000">
  <ele>1345.319460</ele>
  <time>2012-06-19T14:45:28Z</time>
</trkpt>
<trkpt lat="46.196560000" lon="6.871810000">
  <ele>1344.466190</ele>
  <time>2012-06-19T14:45:29Z</time>
</trkpt>
<trkpt lat="46.196610000" lon="6.871700000">
  <ele>1343.612920</ele>
  <time>2012-06-19T14:45:30Z</time>
</trkpt>
<trkpt lat="46.196670000" lon="6.871620000">
  <ele>1342.759640</ele>
  <time>2012-06-19T14:45:31Z</time>
</trkpt>
<trkpt lat="46.196740000" lon="6.871580000">
  <ele>1341.906490</ele>
  <time>2012-06-19T14:45:32Z</time>
</trkpt>
<trkpt lat="46.196790000" lon="6.871570000">
  <ele>1341.053220</ele>
  <time>2012-06-19T14:45:33Z</time>
</trkpt>
<trkpt lat="46.196870000" lon="6.871640000">
  <ele>1340.199950</ele>
  <time>2012-06-19T14:45:34Z</time>
</trkpt>
<trkpt lat="46.196940000" lon="6.871720000">
  <ele>1340.199950</ele>
  <time>2012-06-19T14:45:35Z</time>
</trkpt>
<trkpt lat="46.197060000" lon="6.871910000">
  <ele>1338.159300</ele>
  <time>2012-06-19T14:45:37Z</time>
</trkpt>
<trkpt lat="46.197130000" lon="6.871980000">
  <ele>1337.139040</ele>
  <time>2012-06-19T14:45:38Z</time>
</trkpt>
<trkpt lat="46.197200000" lon="6.872030000">
  <ele>1336.118770</ele>
  <time>2012-06-19T14:45:39Z</time>
</trkpt>
<trkpt lat="46.197300000" lon="6.872040000">
  <ele>1335.098390</ele>
  <time>2012-06-19T14:45:40Z</time>
</trkpt>
<trkpt lat="46.197390000" lon="6.872010000">
  <ele>1334.078130</ele>
  <time>2012-06-19T14:45:41Z</time>
</trkpt>
<trkpt lat="46.197480000" lon="6.871960000">
  <ele>1333.057860</ele>
  <time>2012-06-19T14:45:42Z</time>
</trkpt>
<trkpt lat="46.197560000" lon="6.871890000">
  <ele>1332.037480</ele>
  <time>2012-06-19T14:45:43Z</time>
</trkpt>
<trkpt lat="46.197640000" lon="6.871810000">
  <ele>1331.017210</ele>
  <time>2012-06-19T14:45:44Z</time>
</trkpt>
<trkpt lat="46.197710000" lon="6.871740000">
  <ele>1329.996950</ele>
  <time>2012-06-19T14:45:45Z</time>
</trkpt>
<trkpt lat="46.197790000" lon="6.871690000">
  <ele>1328.976560</ele>
  <time>2012-06-19T14:45:46Z</time>
</trkpt>
<trkpt lat="46.197870000" lon="6.871670000">
  <ele>1327.956300</ele>
  <time>2012-06-19T14:45:47Z</time>
</trkpt>
<trkpt lat="46.197950000" lon="6.871690000">
  <ele>1326.936040</ele>
  <time>2012-06-19T14:45:48Z</time>
</trkpt>
<trkpt lat="46.198020000" lon="6.871730000">
  <ele>1325.915650</ele>
  <time>2012-06-19T14:45:49Z</time>
</trkpt>
<trkpt lat="46.198060000" lon="6.871830000">
  <ele>1324.895390</ele>
  <time>2012-06-19T14:45:50Z</time>
</trkpt>
<trkpt lat="46.198100000" lon="6.871940000">
  <ele>1323.875120</ele>
  <time>2012-06-19T14:45:51Z</time>
</trkpt>
<trkpt lat="46.198140000" lon="6.872060000">
  <ele>1322.854740</ele>
  <time>2012-06-19T14:45:52Z</time>
</trkpt>
<trkpt lat="46.198180000" lon="6.872190000">
  <ele>1321.834470</ele>
  <time>2012-06-19T14:45:53Z</time>
</trkpt>
<trkpt lat="46.198230000" lon="6.872310000">
  <ele>1320.814210</ele>
  <time>2012-06-19T14:45:54Z</time>
</trkpt>
<trkpt lat="46.198300000" lon="6.872400000">
  <ele>1319.793820</ele>
  <time>2012-06-19T14:45:55Z</time>
</trkpt>
<trkpt lat="46.198380000" lon="6.872470000">
  <ele>1318.773560</ele>
  <time>2012-06-19T14:45:56Z</time>
</trkpt>
<trkpt lat="46.198470000" lon="6.872520000">
  <ele>1317.753300</ele>
  <time>2012-06-19T14:45:57Z</time>
</trkpt>
<trkpt lat="46.198560000" lon="6.872550000">
  <ele>1316.732910</ele>
  <time>2012-06-19T14:45:58Z</time>
</trkpt>
<trkpt lat="46.198660000" lon="6.872580000">
  <ele>1315.712650</ele>
  <time>2012-06-19T14:45:59Z</time>
</trkpt>
<trkpt lat="46.198760000" lon="6.872590000">
  <ele>1314.692380</ele>
  <time>2012-06-19T14:46:00Z</time>
</trkpt>
<trkpt lat="46.198860000" lon="6.872610000">
  <ele>1313.672000</ele>
  <time>2012-06-19T14:46:01Z</time>
</trkpt>
<trkpt lat="46.198960000" lon="6.872640000">
  <ele>1312.651730</ele>
  <time>2012-06-19T14:46:02Z</time>
</trkpt>
<trkpt lat="46.199050000" lon="6.872700000">
  <ele>1311.631470</ele>
  <time>2012-06-19T14:46:03Z</time>
</trkpt>
<trkpt lat="46.199150000" lon="6.872760000">
  <ele>1310.611080</ele>
  <time>2012-06-19T14:46:04Z</time>
</trkpt>
<trkpt lat="46.199240000" lon="6.872800000">
  <ele>1309.590820</ele>
  <time>2012-06-19T14:46:05Z</time>
</trkpt>
<trkpt lat="46.199330000" lon="6.872840000">
  <ele>1308.570560</ele>
  <time>2012-06-19T14:46:06Z</time>
</trkpt>
<trkpt lat="46.199430000" lon="6.872880000">
  <ele>1307.550170</ele>
  <time>2012-06-19T14:46:07Z</time>
</trkpt>
<trkpt lat="46.199540000" lon="6.872930000">
  <ele>1306.529910</ele>
  <time>2012-06-19T14:46:08Z</time>
</trkpt>
<trkpt lat="46.199630000" lon="6.873000000">
  <ele>1305.509640</ele>
  <time>2012-06-19T14:46:09Z</time>
</trkpt>
<trkpt lat="46.199730000" lon="6.873080000">
  <ele>1304.489260</ele>
  <time>2012-06-19T14:46:10Z</time>
</trkpt>
<trkpt lat="46.199830000" lon="6.873140000">
  <ele>1303.468990</ele>
  <time>2012-06-19T14:46:11Z</time>
</trkpt>
<trkpt lat="46.199930000" lon="6.873190000">
  <ele>1302.448730</ele>
  <time>2012-06-19T14:46:12Z</time>
</trkpt>
<trkpt lat="46.200030000" lon="6.873240000">
  <ele>1301.428340</ele>
  <time>2012-06-19T14:46:13Z</time>
</trkpt>
<trkpt lat="46.200130000" lon="6.873280000">
  <ele>1300.408080</ele>
  <time>2012-06-19T14:46:14Z</time>
</trkpt>
<trkpt lat="46.200230000" lon="6.873320000">
  <ele>1299.387820</ele>
  <time>2012-06-19T14:46:15Z</time>
</trkpt>
<trkpt lat="46.200340000" lon="6.873370000">
  <ele>1298.367430</ele>
  <time>2012-06-19T14:46:16Z</time>
</trkpt>
<trkpt lat="46.200440000" lon="6.873450000">
  <ele>1297.347170</ele>
  <time>2012-06-19T14:46:17Z</time>
</trkpt>
<trkpt lat="46.200510000" lon="6.873540000">
  <ele>1296.326900</ele>
  <time>2012-06-19T14:46:18Z</time>
</trkpt>
<trkpt lat="46.200570000" lon="6.873650000">
  <ele>1295.306520</ele>
  <time>2012-06-19T14:46:19Z</time>
</trkpt>
<trkpt lat="46.200630000" lon="6.873760000">
  <ele>1294.286250</ele>
  <time>2012-06-19T14:46:20Z</time>
</trkpt>
<trkpt lat="46.200700000" lon="6.873860000">
  <ele>1293.265990</ele>
  <time>2012-06-19T14:46:21Z</time>
</trkpt>
<trkpt lat="46.200780000" lon="6.873970000">
  <ele>1292.245610</ele>
  <time>2012-06-19T14:46:22Z</time>
</trkpt>
<trkpt lat="46.200840000" lon="6.874090000">
  <ele>1291.225340</ele>
  <time>2012-06-19T14:46:23Z</time>
</trkpt>
<trkpt lat="46.200920000" lon="6.874230000">
  <ele>1290.205080</ele>
  <time>2012-06-19T14:46:24Z</time>
</trkpt>
<trkpt lat="46.200980000" lon="6.874370000">
  <ele>1289.184690</ele>
  <time>2012-06-19T14:46:25Z</time>
</trkpt>
<trkpt lat="46.201040000" lon="6.874510000">
  <ele>1288.164430</ele>
  <time>2012-06-19T14:46:26Z</time>
</trkpt>
<trkpt lat="46.201090000" lon="6.874640000">
  <ele>1287.144170</ele>
  <time>2012-06-19T14:46:27Z</time>
</trkpt>
<trkpt lat="46.201140000" lon="6.874770000">
  <ele>1286.123780</ele>
  <time>2012-06-19T14:46:28Z</time>
</trkpt>
<trkpt lat="46.201190000" lon="6.874900000">
  <ele>1285.103520</ele>
  <time>2012-06-19T14:46:29Z</time>
</trkpt>
<trkpt lat="46.201240000" lon="6.875040000">
  <ele>1284.083250</ele>
  <time>2012-06-19T14:46:30Z</time>
</trkpt>
<trkpt lat="46.201290000" lon="6.875180000">
  <ele>1283.062870</ele>
  <time>2012-06-19T14:46:31Z</time>
</trkpt>
<trkpt lat="46.201350000" lon="6.875320000">
  <ele>1282.042600</ele>
  <time>2012-06-19T14:46:32Z</time>
</trkpt>
<trkpt lat="46.201400000" lon="6.875460000">
  <ele>1281.022340</ele>
  <time>2012-06-19T14:46:33Z</time>
</trkpt>
<trkpt lat="46.201430000" lon="6.875610000">
  <ele>1280.001950</ele>
  <time>2012-06-19T14:46:34Z</time>
</trkpt>
<trkpt lat="46.201470000" lon="6.875760000">
  <ele>1278.981690</ele>
  <time>2012-06-19T14:46:35Z</time>
</trkpt>
<trkpt lat="46.201490000" lon="6.875910000">
  <ele>1277.961430</ele>
  <time>2012-06-19T14:46:36Z</time>
</trkpt>
<trkpt lat="46.201490000" lon="6.876060000">
  <ele>1276.941040</ele>
  <time>2012-06-19T14:46:37Z</time>
</trkpt>
<trkpt lat="46.201480000" lon="6.876210000">
  <ele>1275.920780</ele>
  <time>2012-06-19T14:46:38Z</time>
</trkpt>
<trkpt lat="46.201460000" lon="6.876370000">
  <ele>1274.900510</ele>
  <time>2012-06-19T14:46:39Z</time>
</trkpt>
<trkpt lat="46.201450000" lon="6.876510000">
  <ele>1273.880130</ele>
  <time>2012-06-19T14:46:40Z</time>
</trkpt>
<trkpt lat="46.201450000" lon="6.876650000">
  <ele>1272.859860</ele>
  <time>2012-06-19T14:46:41Z</time>
</trkpt>
<trkpt lat="46.201460000" lon="6.876780000">
  <ele>1271.839600</ele>
  <time>2012-06-19T14:46:42Z</time>
</trkpt>
<trkpt lat="46.201510000" lon="6.876910000">
  <ele>1270.819210</ele>
  <time>2012-06-19T14:46:43Z</time>
</trkpt>
<trkpt lat="46.201560000" lon="6.877040000">
  <ele>1269.798950</ele>
  <time>2012-06-19T14:46:44Z</time>
</trkpt>
<trkpt lat="46.201610000" lon="6.877180000">
  <ele>1268.778690</ele>
  <time>2012-06-19T14:46:45Z</time>
</trkpt>
<trkpt lat="46.201660000" lon="6.877320000">
  <ele>1267.758300</ele>
  <time>2012-06-19T14:46:46Z</time>
</trkpt>
<trkpt lat="46.201730000" lon="6.877470000">
  <ele>1266.738040</ele>
  <time>2012-06-19T14:46:47Z</time>
</trkpt>
<trkpt lat="46.201770000" lon="6.877620000">
  <ele>1265.717770</ele>
  <time>2012-06-19T14:46:48Z</time>
</trkpt>
<trkpt lat="46.201830000" lon="6.877770000">
  <ele>1264.697390</ele>
  <time>2012-06-19T14:46:49Z</time>
</trkpt>
<trkpt lat="46.201890000" lon="6.877900000">
  <ele>1263.677120</ele>
  <time>2012-06-19T14:46:50Z</time>
</trkpt>
<trkpt lat="46.201960000" lon="6.878030000">
  <ele>1262.656860</ele>
  <time>2012-06-19T14:46:51Z</time>
</trkpt>
<trkpt lat="46.202040000" lon="6.878140000">
  <ele>1261.636470</ele>
  <time>2012-06-19T14:46:52Z</time>
</trkpt>
<trkpt lat="46.202130000" lon="6.878220000">
  <ele>1260.616210</ele>
  <time>2012-06-19T14:46:53Z</time>
</trkpt>
<trkpt lat="46.202220000" lon="6.878270000">
  <ele>1259.595950</ele>
  <time>2012-06-19T14:46:54Z</time>
</trkpt>
<trkpt lat="46.202320000" lon="6.878310000">
  <ele>1258.575560</ele>
  <time>2012-06-19T14:46:55Z</time>
</trkpt>
<trkpt lat="46.202410000" lon="6.878340000">
  <ele>1257.555300</ele>
  <time>2012-06-19T14:46:56Z</time>
</trkpt>
<trkpt lat="46.202510000" lon="6.878360000">
  <ele>1256.535030</ele>
  <time>2012-06-19T14:46:57Z</time>
</trkpt>
<trkpt lat="46.202610000" lon="6.878400000">
  <ele>1255.514650</ele>
  <time>2012-06-19T14:46:58Z</time>
</trkpt>
<trkpt lat="46.202700000" lon="6.878460000">
  <ele>1254.494380</ele>
  <time>2012-06-19T14:46:59Z</time>
</trkpt>
<trkpt lat="46.202790000" lon="6.878530000">
  <ele>1253.474120</ele>
  <time>2012-06-19T14:47:00Z</time>
</trkpt>
<trkpt lat="46.202890000" lon="6.878590000">
  <ele>1252.453740</ele>
  <time>2012-06-19T14:47:01Z</time>
</trkpt>
<trkpt lat="46.202990000" lon="6.878640000">
  <ele>1251.433470</ele>
  <time>2012-06-19T14:47:02Z</time>
</trkpt>
<trkpt lat="46.203080000" lon="6.878690000">
  <ele>1250.413210</ele>
  <time>2012-06-19T14:47:03Z</time>
</trkpt>
<trkpt lat="46.203170000" lon="6.878770000">
  <ele>1249.392820</ele>
  <time>2012-06-19T14:47:04Z</time>
</trkpt>
<trkpt lat="46.203230000" lon="6.878880000">
  <ele>1248.372560</ele>
  <time>2012-06-19T14:47:05Z</time>
</trkpt>
<trkpt lat="46.203290000" lon="6.879010000">
  <ele>1247.352290</ele>
  <time>2012-06-19T14:47:06Z</time>
</trkpt>
<trkpt lat="46.203330000" lon="6.879150000">
  <ele>1246.331910</ele>
  <time>2012-06-19T14:47:07Z</time>
</trkpt>
<trkpt lat="46.203380000" lon="6.879290000">
  <ele>1245.311650</ele>
  <time>2012-06-19T14:47:08Z</time>
</trkpt>
<trkpt lat="46.203450000" lon="6.879420000">
  <ele>1244.291380</ele>
  <time>2012-06-19T14:47:09Z</time>
</trkpt>
<trkpt lat="46.203520000" lon="6.879530000">
  <ele>1243.271000</ele>
  <time>2012-06-19T14:47:10Z</time>
</trkpt>
<trkpt lat="46.203600000" lon="6.879630000">
  <ele>1242.250730</ele>
  <time>2012-06-19T14:47:11Z</time>
</trkpt>
<trkpt lat="46.203690000" lon="6.879710000">
  <ele>1241.230470</ele>
  <time>2012-06-19T14:47:12Z</time>
</trkpt>
<trkpt lat="46.203770000" lon="6.879810000">
  <ele>1240.210080</ele>
  <time>2012-06-19T14:47:13Z</time>
</trkpt>
<trkpt lat="46.203850000" lon="6.879930000">
  <ele>1239.189820</ele>
  <time>2012-06-19T14:47:14Z</time>
</trkpt>
<trkpt lat="46.203900000" lon="6.880050000">
  <ele>1238.169430</ele>
  <time>2012-06-19T14:47:15Z</time>
</trkpt>
<trkpt lat="46.203960000" lon="6.880190000">
  <ele>1237.149170</ele>
  <time>2012-06-19T14:47:16Z</time>
</trkpt>
<trkpt lat="46.204010000" lon="6.880340000">
  <ele>1236.128910</ele>
  <time>2012-06-19T14:47:17Z</time>
</trkpt>
<trkpt lat="46.204070000" lon="6.880470000">
  <ele>1235.108520</ele>
  <time>2012-06-19T14:47:18Z</time>
</trkpt>
<trkpt lat="46.204130000" lon="6.880590000">
  <ele>1234.088260</ele>
  <time>2012-06-19T14:47:19Z</time>
</trkpt>
<trkpt lat="46.204200000" lon="6.880710000">
  <ele>1233.067990</ele>
  <time>2012-06-19T14:47:20Z</time>
</trkpt>
<trkpt lat="46.204290000" lon="6.880800000">
  <ele>1232.047610</ele>
  <time>2012-06-19T14:47:21Z</time>
</trkpt>
<trkpt lat="46.204380000" lon="6.880850000">
  <ele>1231.027340</ele>
  <time>2012-06-19T14:47:22Z</time>
</trkpt>
<trkpt lat="46.204480000" lon="6.880880000">
  <ele>1230.007080</ele>
  <time>2012-06-19T14:47:23Z</time>
</trkpt>
<trkpt lat="46.204580000" lon="6.880900000">
  <ele>1228.986690</ele>
  <time>2012-06-19T14:47:24Z</time>
</trkpt>
<trkpt lat="46.204690000" lon="6.880920000">
  <ele>1227.966430</ele>
  <time>2012-06-19T14:47:25Z</time>
</trkpt>
<trkpt lat="46.204800000" lon="6.880950000">
  <ele>1226.946170</ele>
  <time>2012-06-19T14:47:26Z</time>
</trkpt>
<trkpt lat="46.204890000" lon="6.881010000">
  <ele>1225.925780</ele>
  <time>2012-06-19T14:47:27Z</time>
</trkpt>
<trkpt lat="46.204990000" lon="6.881110000">
  <ele>1224.905520</ele>
  <time>2012-06-19T14:47:28Z</time>
</trkpt>
<trkpt lat="46.205060000" lon="6.881230000">
  <ele>1223.885250</ele>
  <time>2012-06-19T14:47:29Z</time>
</trkpt>
<trkpt lat="46.205110000" lon="6.881370000">
  <ele>1222.864870</ele>
  <time>2012-06-19T14:47:30Z</time>
</trkpt>
<trkpt lat="46.205170000" lon="6.881500000">
  <ele>1221.844600</ele>
  <time>2012-06-19T14:47:31Z</time>
</trkpt>
<trkpt lat="46.205230000" lon="6.881640000">
  <ele>1220.824340</ele>
  <time>2012-06-19T14:47:32Z</time>
</trkpt>
<trkpt lat="46.205280000" lon="6.881770000">
  <ele>1219.803960</ele>
  <time>2012-06-19T14:47:33Z</time>
</trkpt>
<trkpt lat="46.205330000" lon="6.881890000">
  <ele>1218.783690</ele>
  <time>2012-06-19T14:47:34Z</time>
</trkpt>
<trkpt lat="46.205390000" lon="6.882020000">
  <ele>1217.763430</ele>
  <time>2012-06-19T14:47:35Z</time>
</trkpt>
<trkpt lat="46.205450000" lon="6.882150000">
  <ele>1216.743040</ele>
  <time>2012-06-19T14:47:36Z</time>
</trkpt>
<trkpt lat="46.205510000" lon="6.882280000">
  <ele>1215.722780</ele>
  <time>2012-06-19T14:47:37Z</time>
</trkpt>
<trkpt lat="46.205580000" lon="6.882400000">
  <ele>1214.702510</ele>
  <time>2012-06-19T14:47:38Z</time>
</trkpt>
<trkpt lat="46.205650000" lon="6.882520000">
  <ele>1213.682130</ele>
  <time>2012-06-19T14:47:39Z</time>
</trkpt>
<trkpt lat="46.205730000" lon="6.882630000">
  <ele>1212.661870</ele>
  <time>2012-06-19T14:47:40Z</time>
</trkpt>
<trkpt lat="46.205820000" lon="6.882720000">
  <ele>1211.641600</ele>
  <time>2012-06-19T14:47:41Z</time>
</trkpt>
<trkpt lat="46.205910000" lon="6.882820000">
  <ele>1210.621220</ele>
  <time>2012-06-19T14:47:42Z</time>
</trkpt>
<trkpt lat="46.205980000" lon="6.882940000">
  <ele>1209.600950</ele>
  <time>2012-06-19T14:47:43Z</time>
</trkpt>
<trkpt lat="46.206060000" lon="6.883070000">
  <ele>1208.580690</ele>
  <time>2012-06-19T14:47:44Z</time>
</trkpt>
<trkpt lat="46.206130000" lon="6.883190000">
  <ele>1207.560300</ele>
  <time>2012-06-19T14:47:45Z</time>
</trkpt>
<trkpt lat="46.206210000" lon="6.883300000">
  <ele>1206.540040</ele>
  <time>2012-06-19T14:47:46Z</time>
</trkpt>
<trkpt lat="46.206280000" lon="6.883420000">
  <ele>1205.519780</ele>
  <time>2012-06-19T14:47:47Z</time>
</trkpt>
<trkpt lat="46.206340000" lon="6.883540000">
  <ele>1204.499390</ele>
  <time>2012-06-19T14:47:48Z</time>
</trkpt>
<trkpt lat="46.206410000" lon="6.883650000">
  <ele>1203.479130</ele>
  <time>2012-06-19T14:47:49Z</time>
</trkpt>
<trkpt lat="46.206470000" lon="6.883770000">
  <ele>1202.458860</ele>
  <time>2012-06-19T14:47:50Z</time>
</trkpt>
<trkpt lat="46.206550000" lon="6.883870000">
  <ele>1201.438480</ele>
  <time>2012-06-19T14:47:51Z</time>
</trkpt>
<trkpt lat="46.206650000" lon="6.883960000">
  <ele>1200.418210</ele>
  <time>2012-06-19T14:47:52Z</time>
</trkpt>
<trkpt lat="46.206750000" lon="6.884020000">
  <ele>1199.397950</ele>
  <time>2012-06-19T14:47:53Z</time>
</trkpt>
<trkpt lat="46.206860000" lon="6.884090000">
  <ele>1198.377560</ele>
  <time>2012-06-19T14:47:54Z</time>
</trkpt>
<trkpt lat="46.206970000" lon="6.884170000">
  <ele>1197.357300</ele>
  <time>2012-06-19T14:47:55Z</time>
</trkpt>
<trkpt lat="46.207070000" lon="6.884240000">
  <ele>1196.337040</ele>
  <time>2012-06-19T14:47:56Z</time>
</trkpt>
<trkpt lat="46.207160000" lon="6.884320000">
  <ele>1195.316650</ele>
  <time>2012-06-19T14:47:57Z</time>
</trkpt>
<trkpt lat="46.207260000" lon="6.884410000">
  <ele>1194.296390</ele>
  <time>2012-06-19T14:47:58Z</time>
</trkpt>
<trkpt lat="46.207360000" lon="6.884510000">
  <ele>1193.276120</ele>
  <time>2012-06-19T14:47:59Z</time>
</trkpt>
<trkpt lat="46.207440000" lon="6.884630000">
  <ele>1192.255740</ele>
  <time>2012-06-19T14:48:00Z</time>
</trkpt>
<trkpt lat="46.207530000" lon="6.884740000">
  <ele>1191.235470</ele>
  <time>2012-06-19T14:48:01Z</time>
</trkpt>
<trkpt lat="46.207630000" lon="6.884840000">
  <ele>1190.215210</ele>
  <time>2012-06-19T14:48:02Z</time>
</trkpt>
<trkpt lat="46.207730000" lon="6.884940000">
  <ele>1189.194820</ele>
  <time>2012-06-19T14:48:03Z</time>
</trkpt>
<trkpt lat="46.207820000" lon="6.885030000">
  <ele>1188.174560</ele>
  <time>2012-06-19T14:48:04Z</time>
</trkpt>
<trkpt lat="46.207910000" lon="6.885130000">
  <ele>1187.154300</ele>
  <time>2012-06-19T14:48:05Z</time>
</trkpt>
<trkpt lat="46.208010000" lon="6.885220000">
  <ele>1186.133910</ele>
  <time>2012-06-19T14:48:06Z</time>
</trkpt>
<trkpt lat="46.208100000" lon="6.885320000">
  <ele>1185.113650</ele>
  <time>2012-06-19T14:48:07Z</time>
</trkpt>
<trkpt lat="46.208200000" lon="6.885430000">
  <ele>1184.093380</ele>
  <time>2012-06-19T14:48:08Z</time>
</trkpt>
<trkpt lat="46.208290000" lon="6.885530000">
  <ele>1183.073000</ele>
  <time>2012-06-19T14:48:09Z</time>
</trkpt>
<trkpt lat="46.208400000" lon="6.885630000">
  <ele>1182.052730</ele>
  <time>2012-06-19T14:48:10Z</time>
</trkpt>
<trkpt lat="46.208490000" lon="6.885740000">
  <ele>1181.032470</ele>
  <time>2012-06-19T14:48:11Z</time>
</trkpt>
<trkpt lat="46.208570000" lon="6.885870000">
  <ele>1180.012080</ele>
  <time>2012-06-19T14:48:12Z</time>
</trkpt>
<trkpt lat="46.208620000" lon="6.886020000">
  <ele>1178.991820</ele>
  <time>2012-06-19T14:48:13Z</time>
</trkpt>
<trkpt lat="46.208650000" lon="6.886180000">
  <ele>1177.971560</ele>
  <time>2012-06-19T14:48:14Z</time>
</trkpt>
<trkpt lat="46.208680000" lon="6.886340000">
  <ele>1176.951170</ele>
  <time>2012-06-19T14:48:15Z</time>
</trkpt>
<trkpt lat="46.208740000" lon="6.886490000">
  <ele>1175.930910</ele>
  <time>2012-06-19T14:48:16Z</time>
</trkpt>
<trkpt lat="46.208810000" lon="6.886630000">
  <ele>1174.910640</ele>
  <time>2012-06-19T14:48:17Z</time>
</trkpt>
<trkpt lat="46.208880000" lon="6.886780000">
  <ele>1173.890260</ele>
  <time>2012-06-19T14:48:18Z</time>
</trkpt>
<trkpt lat="46.208940000" lon="6.886930000">
  <ele>1172.870000</ele>
  <time>2012-06-19T14:48:19Z</time>
</trkpt>
<trkpt lat="46.209010000" lon="6.887070000">
  <ele>1171.849730</ele>
  <time>2012-06-19T14:48:20Z</time>
</trkpt>
<trkpt lat="46.209090000" lon="6.887220000">
  <ele>1170.829350</ele>
  <time>2012-06-19T14:48:21Z</time>
</trkpt>
<trkpt lat="46.209160000" lon="6.887360000">
  <ele>1169.809080</ele>
  <time>2012-06-19T14:48:22Z</time>
</trkpt>
<trkpt lat="46.209240000" lon="6.887510000">
  <ele>1168.788820</ele>
  <time>2012-06-19T14:48:23Z</time>
</trkpt>
<trkpt lat="46.209320000" lon="6.887640000">
  <ele>1167.768430</ele>
  <time>2012-06-19T14:48:24Z</time>
</trkpt>
<trkpt lat="46.209400000" lon="6.887770000">
  <ele>1166.748170</ele>
  <time>2012-06-19T14:48:25Z</time>
</trkpt>
<trkpt lat="46.209470000" lon="6.887900000">
  <ele>1165.727910</ele>
  <time>2012-06-19T14:48:26Z</time>
</trkpt>
<trkpt lat="46.209550000" lon="6.888010000">
  <ele>1164.707520</ele>
  <time>2012-06-19T14:48:27Z</time>
</trkpt>
<trkpt lat="46.209640000" lon="6.888110000">
  <ele>1163.687260</ele>
  <time>2012-06-19T14:48:28Z</time>
</trkpt>
<trkpt lat="46.209740000" lon="6.888200000">
  <ele>1162.666990</ele>
  <time>2012-06-19T14:48:29Z</time>
</trkpt>
<trkpt lat="46.209850000" lon="6.888260000">
  <ele>1161.646610</ele>
  <time>2012-06-19T14:48:30Z</time>
</trkpt>
<trkpt lat="46.209950000" lon="6.888340000">
  <ele>1160.626340</ele>
  <time>2012-06-19T14:48:31Z</time>
</trkpt>
<trkpt lat="46.210060000" lon="6.888440000">
  <ele>1159.606080</ele>
  <time>2012-06-19T14:48:32Z</time>
</trkpt>
<trkpt lat="46.210150000" lon="6.888540000">
  <ele>1158.585690</ele>
  <time>2012-06-19T14:48:33Z</time>
</trkpt>
<trkpt lat="46.210240000" lon="6.888630000">
  <ele>1157.565430</ele>
  <time>2012-06-19T14:48:34Z</time>
</trkpt>
<trkpt lat="46.210330000" lon="6.888720000">
  <ele>1156.545170</ele>
  <time>2012-06-19T14:48:35Z</time>
</trkpt>
<trkpt lat="46.210420000" lon="6.888830000">
  <ele>1155.524780</ele>
  <time>2012-06-19T14:48:36Z</time>
</trkpt>
<trkpt lat="46.210510000" lon="6.888920000">
  <ele>1154.504520</ele>
  <time>2012-06-19T14:48:37Z</time>
</trkpt>
<trkpt lat="46.210610000" lon="6.889030000">
  <ele>1153.484250</ele>
  <time>2012-06-19T14:48:38Z</time>
</trkpt>
<trkpt lat="46.210700000" lon="6.889140000">
  <ele>1152.463870</ele>
  <time>2012-06-19T14:48:39Z</time>
</trkpt>
<trkpt lat="46.210790000" lon="6.889250000">
  <ele>1151.443600</ele>
  <time>2012-06-19T14:48:40Z</time>
</trkpt>
<trkpt lat="46.210880000" lon="6.889370000">
  <ele>1150.423340</ele>
  <time>2012-06-19T14:48:41Z</time>
</trkpt>
<trkpt lat="46.210960000" lon="6.889500000">
  <ele>1149.402950</ele>
  <time>2012-06-19T14:48:42Z</time>
</trkpt>
<trkpt lat="46.211020000" lon="6.889650000">
  <ele>1148.382690</ele>
  <time>2012-06-19T14:48:43Z</time>
</trkpt>
<trkpt lat="46.211070000" lon="6.889810000">
  <ele>1147.362430</ele>
  <time>2012-06-19T14:48:44Z</time>
</trkpt>
<trkpt lat="46.211130000" lon="6.889960000">
  <ele>1146.342040</ele>
  <time>2012-06-19T14:48:45Z</time>
</trkpt>
<trkpt lat="46.211200000" lon="6.890100000">
  <ele>1145.321780</ele>
  <time>2012-06-19T14:48:46Z</time>
</trkpt>
<trkpt lat="46.211270000" lon="6.890250000">
  <ele>1144.301510</ele>
  <time>2012-06-19T14:48:47Z</time>
</trkpt>
<trkpt lat="46.211330000" lon="6.890400000">
  <ele>1143.281130</ele>
  <time>2012-06-19T14:48:48Z</time>
</trkpt>
<trkpt lat="46.211400000" lon="6.890530000">
  <ele>1142.260860</ele>
  <time>2012-06-19T14:48:49Z</time>
</trkpt>
<trkpt lat="46.211480000" lon="6.890640000">
  <ele>1141.240600</ele>
  <time>2012-06-19T14:48:50Z</time>
</trkpt>
<trkpt lat="46.211560000" lon="6.890710000">
  <ele>1140.220210</ele>
  <time>2012-06-19T14:48:51Z</time>
</trkpt>
<trkpt lat="46.211650000" lon="6.890750000">
  <ele>1139.199950</ele>
  <time>2012-06-19T14:48:52Z</time>
</trkpt>
<trkpt lat="46.211780000" lon="6.890850000">
  <ele>1139.199950</ele>
  <time>2012-06-19T14:48:54Z</time>
</trkpt>
<trkpt lat="46.211760000" lon="6.890990000">
  <ele>1137.373290</ele>
  <time>2012-06-19T14:48:56Z</time>
</trkpt>
<trkpt lat="46.211640000" lon="6.890970000">
  <ele>1135.546630</ele>
  <time>2012-06-19T14:48:58Z</time>
</trkpt>
<trkpt lat="46.211580000" lon="6.890940000">
  <ele>1134.633300</ele>
  <time>2012-06-19T14:48:59Z</time>
</trkpt>
<trkpt lat="46.211500000" lon="6.890920000">
  <ele>1133.719970</ele>
  <time>2012-06-19T14:49:00Z</time>
</trkpt>
<trkpt lat="46.211430000" lon="6.890880000">
  <ele>1132.806640</ele>
  <time>2012-06-19T14:49:01Z</time>
</trkpt>
<trkpt lat="46.211360000" lon="6.890840000">
  <ele>1131.893310</ele>
  <time>2012-06-19T14:49:02Z</time>
</trkpt>
<trkpt lat="46.211280000" lon="6.890790000">
  <ele>1130.979980</ele>
  <time>2012-06-19T14:49:03Z</time>
</trkpt>
<trkpt lat="46.211210000" lon="6.890730000">
  <ele>1130.066650</ele>
  <time>2012-06-19T14:49:04Z</time>
</trkpt>
<trkpt lat="46.211140000" lon="6.890670000">
  <ele>1129.153320</ele>
  <time>2012-06-19T14:49:05Z</time>
</trkpt>
<trkpt lat="46.211080000" lon="6.890610000">
  <ele>1128.239990</ele>
  <time>2012-06-19T14:49:06Z</time>
</trkpt>
<trkpt lat="46.211020000" lon="6.890540000">
  <ele>1127.326660</ele>
  <time>2012-06-19T14:49:07Z</time>
</trkpt>
<trkpt lat="46.210950000" lon="6.890490000">
  <ele>1126.413330</ele>
  <time>2012-06-19T14:49:08Z</time>
</trkpt>
<trkpt lat="46.210870000" lon="6.890460000">
  <ele>1125.500000</ele>
  <time>2012-06-19T14:49:09Z</time>
</trkpt>
<trkpt lat="46.210810000" lon="6.890420000">
  <ele>1124.586670</ele>
  <time>2012-06-19T14:49:10Z</time>
</trkpt>
<trkpt lat="46.210730000" lon="6.890370000">
  <ele>1123.673340</ele>
  <time>2012-06-19T14:49:11Z</time>
</trkpt>
<trkpt lat="46.210660000" lon="6.890330000">
  <ele>1122.760010</ele>
  <time>2012-06-19T14:49:12Z</time>
</trkpt>
<trkpt lat="46.210580000" lon="6.890270000">
  <ele>1121.846680</ele>
  <time>2012-06-19T14:49:13Z</time>
</trkpt>
<trkpt lat="46.210500000" lon="6.890210000">
  <ele>1120.933350</ele>
  <time>2012-06-19T14:49:14Z</time>
</trkpt>
<trkpt lat="46.210420000" lon="6.890140000">
  <ele>1120.020020</ele>
  <time>2012-06-19T14:49:15Z</time>
</trkpt>
<trkpt lat="46.210350000" lon="6.890060000">
  <ele>1119.106570</ele>
  <time>2012-06-19T14:49:16Z</time>
</trkpt>
<trkpt lat="46.210270000" lon="6.890000000">
  <ele>1118.193240</ele>
  <time>2012-06-19T14:49:17Z</time>
</trkpt>
<trkpt lat="46.210180000" lon="6.889950000">
  <ele>1117.279910</ele>
  <time>2012-06-19T14:49:18Z</time>
</trkpt>
<trkpt lat="46.210080000" lon="6.889940000">
  <ele>1116.366580</ele>
  <time>2012-06-19T14:49:19Z</time>
</trkpt>
<trkpt lat="46.209980000" lon="6.889930000">
  <ele>1115.453250</ele>
  <time>2012-06-19T14:49:20Z</time>
</trkpt>
<trkpt lat="46.209880000" lon="6.889920000">
  <ele>1114.539920</ele>
  <time>2012-06-19T14:49:21Z</time>
</trkpt>
<trkpt lat="46.209790000" lon="6.889900000">
  <ele>1113.626590</ele>
  <time>2012-06-19T14:49:22Z</time>
</trkpt>
<trkpt lat="46.209680000" lon="6.889890000">
  <ele>1112.713260</ele>
  <time>2012-06-19T14:49:23Z</time>
</trkpt>
<trkpt lat="46.209580000" lon="6.889880000">
  <ele>1111.799930</ele>
  <time>2012-06-19T14:49:24Z</time>
</trkpt>
<trkpt lat="46.209470000" lon="6.889880000">
  <ele>1110.886600</ele>
  <time>2012-06-19T14:49:25Z</time>
</trkpt>
<trkpt lat="46.209370000" lon="6.889860000">
  <ele>1109.973270</ele>
  <time>2012-06-19T14:49:26Z</time>
</trkpt>
<trkpt lat="46.209270000" lon="6.889830000">
  <ele>1109.059940</ele>
  <time>2012-06-19T14:49:27Z</time>
</trkpt>
<trkpt lat="46.209180000" lon="6.889790000">
  <ele>1108.146610</ele>
  <time>2012-06-19T14:49:28Z</time>
</trkpt>
<trkpt lat="46.209090000" lon="6.889730000">
  <ele>1107.233280</ele>
  <time>2012-06-19T14:49:29Z</time>
</trkpt>
<trkpt lat="46.209000000" lon="6.889670000">
  <ele>1106.319950</ele>
  <time>2012-06-19T14:49:30Z</time>
</trkpt>
<trkpt lat="46.208910000" lon="6.889600000">
  <ele>1105.406620</ele>
  <time>2012-06-19T14:49:31Z</time>
</trkpt>
<trkpt lat="46.208820000" lon="6.889530000">
  <ele>1104.493290</ele>
  <time>2012-06-19T14:49:32Z</time>
</trkpt>
<trkpt lat="46.208720000" lon="6.889450000">
  <ele>1103.579960</ele>
  <time>2012-06-19T14:49:33Z</time>
</trkpt>
<trkpt lat="46.208630000" lon="6.889370000">
  <ele>1102.666630</ele>
  <time>2012-06-19T14:49:34Z</time>
</trkpt>
<trkpt lat="46.208530000" lon="6.889300000">
  <ele>1101.753300</ele>
  <time>2012-06-19T14:49:35Z</time>
</trkpt>
<trkpt lat="46.208430000" lon="6.889230000">
  <ele>1100.839970</ele>
  <time>2012-06-19T14:49:36Z</time>
</trkpt>
<trkpt lat="46.208320000" lon="6.889170000">
  <ele>1099.926640</ele>
  <time>2012-06-19T14:49:37Z</time>
</trkpt>
<trkpt lat="46.208210000" lon="6.889150000">
  <ele>1099.013310</ele>
  <time>2012-06-19T14:49:38Z</time>
</trkpt>
<trkpt lat="46.208100000" lon="6.889120000">
  <ele>1098.099980</ele>
  <time>2012-06-19T14:49:39Z</time>
</trkpt>
<trkpt lat="46.207980000" lon="6.889090000">
  <ele>1097.186650</ele>
  <time>2012-06-19T14:49:40Z</time>
</trkpt>
<trkpt lat="46.207860000" lon="6.889050000">
  <ele>1096.273320</ele>
  <time>2012-06-19T14:49:41Z</time>
</trkpt>
<trkpt lat="46.207750000" lon="6.889040000">
  <ele>1095.359990</ele>
  <time>2012-06-19T14:49:42Z</time>
</trkpt>
<trkpt lat="46.207650000" lon="6.889040000">
  <ele>1094.446660</ele>
  <time>2012-06-19T14:49:43Z</time>
</trkpt>
<trkpt lat="46.207540000" lon="6.889020000">
  <ele>1093.533330</ele>
  <time>2012-06-19T14:49:44Z</time>
</trkpt>
<trkpt lat="46.207440000" lon="6.889000000">
  <ele>1092.620000</ele>
  <time>2012-06-19T14:49:45Z</time>
</trkpt>
<trkpt lat="46.207360000" lon="6.888960000">
  <ele>1091.706670</ele>
  <time>2012-06-19T14:49:46Z</time>
</trkpt>
<trkpt lat="46.207270000" lon="6.888900000">
  <ele>1090.793330</ele>
  <time>2012-06-19T14:49:47Z</time>
</trkpt>
<trkpt lat="46.207200000" lon="6.888800000">
  <ele>1089.880000</ele>
  <time>2012-06-19T14:49:48Z</time>
</trkpt>
<trkpt lat="46.207130000" lon="6.888680000">
  <ele>1088.966670</ele>
  <time>2012-06-19T14:49:49Z</time>
</trkpt>
<trkpt lat="46.207040000" lon="6.888590000">
  <ele>1088.053340</ele>
  <time>2012-06-19T14:49:50Z</time>
</trkpt>
<trkpt lat="46.206940000" lon="6.888520000">
  <ele>1087.140010</ele>
  <time>2012-06-19T14:49:51Z</time>
</trkpt>
<trkpt lat="46.206840000" lon="6.888470000">
  <ele>1086.226680</ele>
  <time>2012-06-19T14:49:52Z</time>
</trkpt>
<trkpt lat="46.206730000" lon="6.888420000">
  <ele>1085.313350</ele>
  <time>2012-06-19T14:49:53Z</time>
</trkpt>
<trkpt lat="46.206630000" lon="6.888380000">
  <ele>1084.400020</ele>
  <time>2012-06-19T14:49:54Z</time>
</trkpt>
<trkpt lat="46.206520000" lon="6.888370000">
  <ele>1083.486690</ele>
  <time>2012-06-19T14:49:55Z</time>
</trkpt>
<trkpt lat="46.206420000" lon="6.888360000">
  <ele>1082.573360</ele>
  <time>2012-06-19T14:49:56Z</time>
</trkpt>
<trkpt lat="46.206330000" lon="6.888310000">
  <ele>1081.660030</ele>
  <time>2012-06-19T14:49:57Z</time>
</trkpt>
<trkpt lat="46.206250000" lon="6.888220000">
  <ele>1080.746700</ele>
  <time>2012-06-19T14:49:58Z</time>
</trkpt>
<trkpt lat="46.206170000" lon="6.888120000">
  <ele>1079.833250</ele>
  <time>2012-06-19T14:49:59Z</time>
</trkpt>
<trkpt lat="46.206090000" lon="6.888020000">
  <ele>1078.919920</ele>
  <time>2012-06-19T14:50:00Z</time>
</trkpt>
<trkpt lat="46.205990000" lon="6.887930000">
  <ele>1078.006590</ele>
  <time>2012-06-19T14:50:01Z</time>
</trkpt>
<trkpt lat="46.205890000" lon="6.887870000">
  <ele>1077.093260</ele>
  <time>2012-06-19T14:50:02Z</time>
</trkpt>
<trkpt lat="46.205800000" lon="6.887800000">
  <ele>1076.179930</ele>
  <time>2012-06-19T14:50:03Z</time>
</trkpt>
<trkpt lat="46.205700000" lon="6.887740000">
  <ele>1075.266600</ele>
  <time>2012-06-19T14:50:04Z</time>
</trkpt>
<trkpt lat="46.205600000" lon="6.887680000">
  <ele>1074.353270</ele>
  <time>2012-06-19T14:50:05Z</time>
</trkpt>
<trkpt lat="46.205490000" lon="6.887650000">
  <ele>1073.439940</ele>
  <time>2012-06-19T14:50:06Z</time>
</trkpt>
<trkpt lat="46.205380000" lon="6.887640000">
  <ele>1072.526610</ele>
  <time>2012-06-19T14:50:07Z</time>
</trkpt>
<trkpt lat="46.205270000" lon="6.887620000">
  <ele>1071.613280</ele>
  <time>2012-06-19T14:50:08Z</time>
</trkpt>
<trkpt lat="46.205150000" lon="6.887580000">
  <ele>1070.699950</ele>
  <time>2012-06-19T14:50:09Z</time>
</trkpt>
<trkpt lat="46.205050000" lon="6.887530000">
  <ele>1069.786620</ele>
  <time>2012-06-19T14:50:10Z</time>
</trkpt>
<trkpt lat="46.204940000" lon="6.887480000">
  <ele>1068.873290</ele>
  <time>2012-06-19T14:50:11Z</time>
</trkpt>
<trkpt lat="46.204830000" lon="6.887410000">
  <ele>1067.959960</ele>
  <time>2012-06-19T14:50:12Z</time>
</trkpt>
<trkpt lat="46.204720000" lon="6.887330000">
  <ele>1067.046630</ele>
  <time>2012-06-19T14:50:13Z</time>
</trkpt>
<trkpt lat="46.204620000" lon="6.887250000">
  <ele>1066.133300</ele>
  <time>2012-06-19T14:50:14Z</time>
</trkpt>
<trkpt lat="46.204520000" lon="6.887180000">
  <ele>1065.219970</ele>
  <time>2012-06-19T14:50:15Z</time>
</trkpt>
<trkpt lat="46.204410000" lon="6.887120000">
  <ele>1064.306640</ele>
  <time>2012-06-19T14:50:16Z</time>
</trkpt>
<trkpt lat="46.204310000" lon="6.887070000">
  <ele>1063.393310</ele>
  <time>2012-06-19T14:50:17Z</time>
</trkpt>
<trkpt lat="46.204200000" lon="6.887000000">
  <ele>1062.479980</ele>
  <time>2012-06-19T14:50:18Z</time>
</trkpt>
<trkpt lat="46.204100000" lon="6.886920000">
  <ele>1061.566650</ele>
  <time>2012-06-19T14:50:19Z</time>
</trkpt>
<trkpt lat="46.203990000" lon="6.886830000">
  <ele>1060.653320</ele>
  <time>2012-06-19T14:50:20Z</time>
</trkpt>
<trkpt lat="46.203900000" lon="6.886750000">
  <ele>1059.739990</ele>
  <time>2012-06-19T14:50:21Z</time>
</trkpt>
<trkpt lat="46.203790000" lon="6.886700000">
  <ele>1058.826660</ele>
  <time>2012-06-19T14:50:22Z</time>
</trkpt>
<trkpt lat="46.203690000" lon="6.886670000">
  <ele>1057.913330</ele>
  <time>2012-06-19T14:50:23Z</time>
</trkpt>
<trkpt lat="46.203580000" lon="6.886630000">
  <ele>1057.000000</ele>
  <time>2012-06-19T14:50:24Z</time>
</trkpt>
<trkpt lat="46.203470000" lon="6.886570000">
  <ele>1056.086670</ele>
  <time>2012-06-19T14:50:25Z</time>
</trkpt>
<trkpt lat="46.203360000" lon="6.886510000">
  <ele>1055.173340</ele>
  <time>2012-06-19T14:50:26Z</time>
</trkpt>
<trkpt lat="46.203250000" lon="6.886440000">
  <ele>1054.260010</ele>
  <time>2012-06-19T14:50:27Z</time>
</trkpt>
<trkpt lat="46.203140000" lon="6.886370000">
  <ele>1053.346680</ele>
  <time>2012-06-19T14:50:28Z</time>
</trkpt>
<trkpt lat="46.203020000" lon="6.886330000">
  <ele>1052.433350</ele>
  <time>2012-06-19T14:50:29Z</time>
</trkpt>
<trkpt lat="46.202900000" lon="6.886310000">
  <ele>1051.520020</ele>
  <time>2012-06-19T14:50:30Z</time>
</trkpt>
<trkpt lat="46.202790000" lon="6.886300000">
  <ele>1050.606690</ele>
  <time>2012-06-19T14:50:31Z</time>
</trkpt>
<trkpt lat="46.202700000" lon="6.886290000">
  <ele>1049.693360</ele>
  <time>2012-06-19T14:50:32Z</time>
</trkpt>
<trkpt lat="46.202620000" lon="6.886260000">
  <ele>1048.780030</ele>
  <time>2012-06-19T14:50:33Z</time>
</trkpt>
<trkpt lat="46.202540000" lon="6.886200000">
  <ele>1047.866700</ele>
  <time>2012-06-19T14:50:34Z</time>
</trkpt>
<trkpt lat="46.202410000" lon="6.886000000">
  <ele>1046.040040</ele>
  <time>2012-06-19T14:50:36Z</time>
</trkpt>
<trkpt lat="46.202370000" lon="6.885880000">
  <ele>1045.126710</ele>
  <time>2012-06-19T14:50:37Z</time>
</trkpt>
<trkpt lat="46.202350000" lon="6.885740000">
  <ele>1044.213380</ele>
  <time>2012-06-19T14:50:38Z</time>
</trkpt>
<trkpt lat="46.202340000" lon="6.885600000">
  <ele>1043.300050</ele>
  <time>2012-06-19T14:50:39Z</time>
</trkpt>
<trkpt lat="46.202320000" lon="6.885460000">
  <ele>1042.386720</ele>
  <time>2012-06-19T14:50:40Z</time>
</trkpt>
<trkpt lat="46.202300000" lon="6.885310000">
  <ele>1041.473390</ele>
  <time>2012-06-19T14:50:41Z</time>
</trkpt>
<trkpt lat="46.202280000" lon="6.885150000">
  <ele>1040.559940</ele>
  <time>2012-06-19T14:50:42Z</time>
</trkpt>
<trkpt lat="46.202240000" lon="6.885020000">
  <ele>1039.646610</ele>
  <time>2012-06-19T14:50:43Z</time>
</trkpt>
<trkpt lat="46.202180000" lon="6.884920000">
  <ele>1038.733280</ele>
  <time>2012-06-19T14:50:44Z</time>
</trkpt>
<trkpt lat="46.202090000" lon="6.884840000">
  <ele>1037.819950</ele>
  <time>2012-06-19T14:50:45Z</time>
</trkpt>
<trkpt lat="46.202000000" lon="6.884770000">
  <ele>1036.906620</ele>
  <time>2012-06-19T14:50:46Z</time>
</trkpt>
<trkpt lat="46.201920000" lon="6.884690000">
  <ele>1035.993290</ele>
  <time>2012-06-19T14:50:47Z</time>
</trkpt>
<trkpt lat="46.201840000" lon="6.884610000">
  <ele>1035.079960</ele>
  <time>2012-06-19T14:50:48Z</time>
</trkpt>
<trkpt lat="46.201740000" lon="6.884560000">
  <ele>1034.166630</ele>
  <time>2012-06-19T14:50:49Z</time>
</trkpt>
<trkpt lat="46.201630000" lon="6.884540000">
  <ele>1033.253300</ele>
  <time>2012-06-19T14:50:50Z</time>
</trkpt>
<trkpt lat="46.201530000" lon="6.884530000">
  <ele>1032.339970</ele>
  <time>2012-06-19T14:50:51Z</time>
</trkpt>
<trkpt lat="46.201420000" lon="6.884520000">
  <ele>1031.426640</ele>
  <time>2012-06-19T14:50:52Z</time>
</trkpt>
<trkpt lat="46.201310000" lon="6.884520000">
  <ele>1030.513310</ele>
  <time>2012-06-19T14:50:53Z</time>
</trkpt>
<trkpt lat="46.201200000" lon="6.884540000">
  <ele>1029.599980</ele>
  <time>2012-06-19T14:50:54Z</time>
</trkpt>
<trkpt lat="46.201080000" lon="6.884570000">
  <ele>1028.686650</ele>
  <time>2012-06-19T14:50:55Z</time>
</trkpt>
<trkpt lat="46.200970000" lon="6.884620000">
  <ele>1027.773320</ele>
  <time>2012-06-19T14:50:56Z</time>
</trkpt>
<trkpt lat="46.200860000" lon="6.884670000">
  <ele>1026.859990</ele>
  <time>2012-06-19T14:50:57Z</time>
</trkpt>
<trkpt lat="46.200740000" lon="6.884700000">
  <ele>1025.946660</ele>
  <time>2012-06-19T14:50:58Z</time>
</trkpt>
<trkpt lat="46.200630000" lon="6.884710000">
  <ele>1025.033330</ele>
  <time>2012-06-19T14:50:59Z</time>
</trkpt>
<trkpt lat="46.200530000" lon="6.884740000">
  <ele>1024.120000</ele>
  <time>2012-06-19T14:51:00Z</time>
</trkpt>
<trkpt lat="46.200430000" lon="6.884760000">
  <ele>1023.206670</ele>
  <time>2012-06-19T14:51:01Z</time>
</trkpt>
<trkpt lat="46.200330000" lon="6.884790000">
  <ele>1022.293330</ele>
  <time>2012-06-19T14:51:02Z</time>
</trkpt>
<trkpt lat="46.200220000" lon="6.884820000">
  <ele>1021.380000</ele>
  <time>2012-06-19T14:51:03Z</time>
</trkpt>
<trkpt lat="46.200100000" lon="6.884860000">
  <ele>1020.466670</ele>
  <time>2012-06-19T14:51:04Z</time>
</trkpt>
<trkpt lat="46.199990000" lon="6.884890000">
  <ele>1019.553340</ele>
  <time>2012-06-19T14:51:05Z</time>
</trkpt>
<trkpt lat="46.199900000" lon="6.884920000">
  <ele>1018.640010</ele>
  <time>2012-06-19T14:51:06Z</time>
</trkpt>
<trkpt lat="46.199810000" lon="6.884960000">
  <ele>1017.726680</ele>
  <time>2012-06-19T14:51:07Z</time>
</trkpt>
<trkpt lat="46.199710000" lon="6.884990000">
  <ele>1016.813350</ele>
  <time>2012-06-19T14:51:08Z</time>
</trkpt>
<trkpt lat="46.199610000" lon="6.884980000">
  <ele>1015.900020</ele>
  <time>2012-06-19T14:51:09Z</time>
</trkpt>
<trkpt lat="46.199500000" lon="6.884950000">
  <ele>1014.986690</ele>
  <time>2012-06-19T14:51:10Z</time>
</trkpt>
<trkpt lat="46.199410000" lon="6.884900000">
  <ele>1014.073360</ele>
  <time>2012-06-19T14:51:11Z</time>
</trkpt>
<trkpt lat="46.199310000" lon="6.884860000">
  <ele>1013.160030</ele>
  <time>2012-06-19T14:51:12Z</time>
</trkpt>
<trkpt lat="46.199210000" lon="6.884810000">
  <ele>1012.246700</ele>
  <time>2012-06-19T14:51:13Z</time>
</trkpt>
<trkpt lat="46.199110000" lon="6.884780000">
  <ele>1011.333310</ele>
  <time>2012-06-19T14:51:14Z</time>
</trkpt>
<trkpt lat="46.199010000" lon="6.884730000">
  <ele>1010.419980</ele>
  <time>2012-06-19T14:51:15Z</time>
</trkpt>
<trkpt lat="46.198910000" lon="6.884720000">
  <ele>1009.506650</ele>
  <time>2012-06-19T14:51:16Z</time>
</trkpt>
<trkpt lat="46.198810000" lon="6.884720000">
  <ele>1008.593320</ele>
  <time>2012-06-19T14:51:17Z</time>
</trkpt>
<trkpt lat="46.198720000" lon="6.884730000">
  <ele>1007.679990</ele>
  <time>2012-06-19T14:51:18Z</time>
</trkpt>
<trkpt lat="46.198630000" lon="6.884720000">
  <ele>1006.766660</ele>
  <time>2012-06-19T14:51:19Z</time>
</trkpt>
<trkpt lat="46.198540000" lon="6.884690000">
  <ele>1005.853330</ele>
  <time>2012-06-19T14:51:20Z</time>
</trkpt>
<trkpt lat="46.198470000" lon="6.884640000">
  <ele>1004.940000</ele>
  <time>2012-06-19T14:51:21Z</time>
</trkpt>
<trkpt lat="46.198400000" lon="6.884560000">
  <ele>1004.026670</ele>
  <time>2012-06-19T14:51:22Z</time>
</trkpt>
<trkpt lat="46.198350000" lon="6.884490000">
  <ele>1003.113340</ele>
  <time>2012-06-19T14:51:23Z</time>
</trkpt>
<trkpt lat="46.198300000" lon="6.884420000">
  <ele>1002.200010</ele>
  <time>2012-06-19T14:51:24Z</time>
</trkpt>
<trkpt lat="46.198150000" lon="6.884290000">
  <ele>1002.200010</ele>
  <time>2012-06-19T14:51:27Z</time>
</trkpt>
<trkpt lat="46.198090000" lon="6.884440000">
  <ele>1001.160030</ele>
  <time>2012-06-19T14:51:29Z</time>
</trkpt>
<trkpt lat="46.198100000" lon="6.884540000">
  <ele>1000.640010</ele>
  <time>2012-06-19T14:51:30Z</time>
</trkpt>
<trkpt lat="46.198120000" lon="6.884620000">
  <ele>1000.120000</ele>
  <time>2012-06-19T14:51:31Z</time>
</trkpt>
<trkpt lat="46.198150000" lon="6.884690000">
  <ele>999.599980</ele>
  <time>2012-06-19T14:51:32Z</time>
</trkpt>
<trkpt lat="46.198190000" lon="6.884770000">
  <ele>999.080020</ele>
  <time>2012-06-19T14:51:33Z</time>
</trkpt>
<trkpt lat="46.198250000" lon="6.884850000">
  <ele>998.560000</ele>
  <time>2012-06-19T14:51:34Z</time>
</trkpt>
<trkpt lat="46.198310000" lon="6.884910000">
  <ele>998.039980</ele>
  <time>2012-06-19T14:51:35Z</time>
</trkpt>
<trkpt lat="46.198360000" lon="6.884980000">
  <ele>997.520020</ele>
  <time>2012-06-19T14:51:36Z</time>
</trkpt>
<trkpt lat="46.198430000" lon="6.885030000">
  <ele>997.000000</ele>
  <time>2012-06-19T14:51:37Z</time>
</trkpt>
<trkpt lat="46.198490000" lon="6.885080000">
  <ele>997.000000</ele>
  <time>2012-06-19T14:51:38Z</time>
</trkpt>
<trkpt lat="46.198550000" lon="6.885120000">
  <ele>996.105290</ele>
  <time>2012-06-19T14:51:39Z</time>
</trkpt>
<trkpt lat="46.198630000" lon="6.885150000">
  <ele>995.210510</ele>
  <time>2012-06-19T14:51:40Z</time>
</trkpt>
<trkpt lat="46.198690000" lon="6.885170000">
  <ele>994.315800</ele>
  <time>2012-06-19T14:51:41Z</time>
</trkpt>
<trkpt lat="46.198760000" lon="6.885190000">
  <ele>993.421080</ele>
  <time>2012-06-19T14:51:42Z</time>
</trkpt>
<trkpt lat="46.198870000" lon="6.885230000">
  <ele>992.526310</ele>
  <time>2012-06-19T14:51:43Z</time>
</trkpt>
<trkpt lat="46.198960000" lon="6.885280000">
  <ele>991.631590</ele>
  <time>2012-06-19T14:51:44Z</time>
</trkpt>
<trkpt lat="46.199040000" lon="6.885320000">
  <ele>990.736820</ele>
  <time>2012-06-19T14:51:45Z</time>
</trkpt>
<trkpt lat="46.199140000" lon="6.885380000">
  <ele>989.842100</ele>
  <time>2012-06-19T14:51:46Z</time>
</trkpt>
<trkpt lat="46.199230000" lon="6.885440000">
  <ele>988.947390</ele>
  <time>2012-06-19T14:51:47Z</time>
</trkpt>
<trkpt lat="46.199330000" lon="6.885500000">
  <ele>988.052610</ele>
  <time>2012-06-19T14:51:48Z</time>
</trkpt>
<trkpt lat="46.199410000" lon="6.885560000">
  <ele>987.157900</ele>
  <time>2012-06-19T14:51:49Z</time>
</trkpt>
<trkpt lat="46.199500000" lon="6.885600000">
  <ele>986.263180</ele>
  <time>2012-06-19T14:51:50Z</time>
</trkpt>
<trkpt lat="46.199610000" lon="6.885620000">
  <ele>985.368410</ele>
  <time>2012-06-19T14:51:51Z</time>
</trkpt>
<trkpt lat="46.199710000" lon="6.885610000">
  <ele>984.473690</ele>
  <time>2012-06-19T14:51:52Z</time>
</trkpt>
<trkpt lat="46.199810000" lon="6.885610000">
  <ele>983.578920</ele>
  <time>2012-06-19T14:51:53Z</time>
</trkpt>
<trkpt lat="46.199910000" lon="6.885620000">
  <ele>982.684200</ele>
  <time>2012-06-19T14:51:54Z</time>
</trkpt>
<trkpt lat="46.200000000" lon="6.885630000">
  <ele>981.789490</ele>
  <time>2012-06-19T14:51:55Z</time>
</trkpt>
<trkpt lat="46.200110000" lon="6.885660000">
  <ele>980.894710</ele>
  <time>2012-06-19T14:51:56Z</time>
</trkpt>
<trkpt lat="46.200220000" lon="6.885720000">
  <ele>980.000000</ele>
  <time>2012-06-19T14:51:57Z</time>
</trkpt>
<trkpt lat="46.200310000" lon="6.885810000">
  <ele>979.105290</ele>
  <time>2012-06-19T14:51:58Z</time>
</trkpt>
<trkpt lat="46.200370000" lon="6.885920000">
  <ele>978.210510</ele>
  <time>2012-06-19T14:51:59Z</time>
</trkpt>
<trkpt lat="46.200430000" lon="6.886040000">
  <ele>977.315800</ele>
  <time>2012-06-19T14:52:00Z</time>
</trkpt>
<trkpt lat="46.200490000" lon="6.886160000">
  <ele>976.421080</ele>
  <time>2012-06-19T14:52:01Z</time>
</trkpt>
<trkpt lat="46.200550000" lon="6.886280000">
  <ele>975.526310</ele>
  <time>2012-06-19T14:52:02Z</time>
</trkpt>
<trkpt lat="46.200610000" lon="6.886400000">
  <ele>974.631590</ele>
  <time>2012-06-19T14:52:03Z</time>
</trkpt>
<trkpt lat="46.200660000" lon="6.886520000">
  <ele>973.736820</ele>
  <time>2012-06-19T14:52:04Z</time>
</trkpt>
<trkpt lat="46.200710000" lon="6.886640000">
  <ele>972.842100</ele>
  <time>2012-06-19T14:52:05Z</time>
</trkpt>
<trkpt lat="46.200770000" lon="6.886750000">
  <ele>971.947390</ele>
  <time>2012-06-19T14:52:06Z</time>
</trkpt>
<trkpt lat="46.200820000" lon="6.886870000">
  <ele>971.052610</ele>
  <time>2012-06-19T14:52:07Z</time>
</trkpt>
<trkpt lat="46.200860000" lon="6.886990000">
  <ele>970.157900</ele>
  <time>2012-06-19T14:52:08Z</time>
</trkpt>
<trkpt lat="46.200880000" lon="6.887120000">
  <ele>969.263180</ele>
  <time>2012-06-19T14:52:09Z</time>
</trkpt>
<trkpt lat="46.200870000" lon="6.887260000">
  <ele>968.368410</ele>
  <time>2012-06-19T14:52:10Z</time>
</trkpt>
<trkpt lat="46.200840000" lon="6.887380000">
  <ele>967.473690</ele>
  <time>2012-06-19T14:52:11Z</time>
</trkpt>
<trkpt lat="46.200790000" lon="6.887490000">
  <ele>966.578920</ele>
  <time>2012-06-19T14:52:12Z</time>
</trkpt>
<trkpt lat="46.200730000" lon="6.887600000">
  <ele>965.684200</ele>
  <time>2012-06-19T14:52:13Z</time>
</trkpt>
<trkpt lat="46.200670000" lon="6.887690000">
  <ele>964.789490</ele>
  <time>2012-06-19T14:52:14Z</time>
</trkpt>
<trkpt lat="46.200620000" lon="6.887780000">
  <ele>963.894710</ele>
  <time>2012-06-19T14:52:15Z</time>
</trkpt>
<trkpt lat="46.200600000" lon="6.887860000">
  <ele>963.000000</ele>
  <time>2012-06-19T14:52:16Z</time>
</trkpt>
<trkpt lat="46.200570000" lon="6.887960000">
  <ele>963.000000</ele>
  <time>2012-06-19T14:52:18Z</time>
</trkpt>
<trkpt lat="46.200540000" lon="6.888100000">
  <ele>960.952390</ele>
  <time>2012-06-19T14:52:21Z</time>
</trkpt>
<trkpt lat="46.200540000" lon="6.888160000">
  <ele>960.269840</ele>
  <time>2012-06-19T14:52:22Z</time>
</trkpt>
<trkpt lat="46.200530000" lon="6.888220000">
  <ele>959.587280</ele>
  <time>2012-06-19T14:52:23Z</time>
</trkpt>
<trkpt lat="46.200510000" lon="6.888270000">
  <ele>958.904790</ele>
  <time>2012-06-19T14:52:24Z</time>
</trkpt>
<trkpt lat="46.200490000" lon="6.888340000">
  <ele>958.222230</ele>
  <time>2012-06-19T14:52:25Z</time>
</trkpt>
<trkpt lat="46.200480000" lon="6.888420000">
  <ele>957.539670</ele>
  <time>2012-06-19T14:52:26Z</time>
</trkpt>
<trkpt lat="46.200460000" lon="6.888500000">
  <ele>956.857120</ele>
  <time>2012-06-19T14:52:27Z</time>
</trkpt>
<trkpt lat="46.200440000" lon="6.888580000">
  <ele>956.174620</ele>
  <time>2012-06-19T14:52:28Z</time>
</trkpt>
<trkpt lat="46.200430000" lon="6.888670000">
  <ele>955.492070</ele>
  <time>2012-06-19T14:52:29Z</time>
</trkpt>
<trkpt lat="46.200440000" lon="6.888760000">
  <ele>954.809510</ele>
  <time>2012-06-19T14:52:30Z</time>
</trkpt>
<trkpt lat="46.200460000" lon="6.888840000">
  <ele>954.127010</ele>
  <time>2012-06-19T14:52:31Z</time>
</trkpt>
<trkpt lat="46.200500000" lon="6.888920000">
  <ele>953.444460</ele>
  <time>2012-06-19T14:52:32Z</time>
</trkpt>
<trkpt lat="46.200530000" lon="6.889000000">
  <ele>952.761900</ele>
  <time>2012-06-19T14:52:33Z</time>
</trkpt>
<trkpt lat="46.200580000" lon="6.889090000">
  <ele>952.079350</ele>
  <time>2012-06-19T14:52:34Z</time>
</trkpt>
<trkpt lat="46.200630000" lon="6.889170000">
  <ele>951.396850</ele>
  <time>2012-06-19T14:52:35Z</time>
</trkpt>
<trkpt lat="46.200680000" lon="6.889250000">
  <ele>950.714290</ele>
  <time>2012-06-19T14:52:36Z</time>
</trkpt>
<trkpt lat="46.200730000" lon="6.889320000">
  <ele>950.031740</ele>
  <time>2012-06-19T14:52:37Z</time>
</trkpt>
<trkpt lat="46.200770000" lon="6.889380000">
  <ele>949.349180</ele>
  <time>2012-06-19T14:52:38Z</time>
</trkpt>
<trkpt lat="46.200810000" lon="6.889430000">
  <ele>948.666690</ele>
  <time>2012-06-19T14:52:39Z</time>
</trkpt>
<trkpt lat="46.200860000" lon="6.889490000">
  <ele>947.984130</ele>
  <time>2012-06-19T14:52:40Z</time>
</trkpt>
<trkpt lat="46.200900000" lon="6.889570000">
  <ele>947.301570</ele>
  <time>2012-06-19T14:52:41Z</time>
</trkpt>
<trkpt lat="46.200950000" lon="6.889650000">
  <ele>946.619020</ele>
  <time>2012-06-19T14:52:42Z</time>
</trkpt>
<trkpt lat="46.200990000" lon="6.889750000">
  <ele>945.936520</ele>
  <time>2012-06-19T14:52:43Z</time>
</trkpt>
<trkpt lat="46.201030000" lon="6.889850000">
  <ele>945.253970</ele>
  <time>2012-06-19T14:52:44Z</time>
</trkpt>
<trkpt lat="46.201080000" lon="6.889950000">
  <ele>944.571410</ele>
  <time>2012-06-19T14:52:45Z</time>
</trkpt>
<trkpt lat="46.201130000" lon="6.890030000">
  <ele>943.888920</ele>
  <time>2012-06-19T14:52:46Z</time>
</trkpt>
<trkpt lat="46.201180000" lon="6.890110000">
  <ele>943.206360</ele>
  <time>2012-06-19T14:52:47Z</time>
</trkpt>
<trkpt lat="46.201240000" lon="6.890190000">
  <ele>942.523800</ele>
  <time>2012-06-19T14:52:48Z</time>
</trkpt>
<trkpt lat="46.201290000" lon="6.890260000">
  <ele>941.841250</ele>
  <time>2012-06-19T14:52:49Z</time>
</trkpt>
<trkpt lat="46.201340000" lon="6.890330000">
  <ele>941.158750</ele>
  <time>2012-06-19T14:52:50Z</time>
</trkpt>
<trkpt lat="46.201400000" lon="6.890400000">
  <ele>940.476200</ele>
  <time>2012-06-19T14:52:51Z</time>
</trkpt>
<trkpt lat="46.201450000" lon="6.890460000">
  <ele>939.793640</ele>
  <time>2012-06-19T14:52:52Z</time>
</trkpt>
<trkpt lat="46.201510000" lon="6.890530000">
  <ele>939.111080</ele>
  <time>2012-06-19T14:52:53Z</time>
</trkpt>
<trkpt lat="46.201550000" lon="6.890600000">
  <ele>938.428590</ele>
  <time>2012-06-19T14:52:54Z</time>
</trkpt>
<trkpt lat="46.201600000" lon="6.890670000">
  <ele>937.746030</ele>
  <time>2012-06-19T14:52:55Z</time>
</trkpt>
<trkpt lat="46.201660000" lon="6.890730000">
  <ele>937.063480</ele>
  <time>2012-06-19T14:52:56Z</time>
</trkpt>
<trkpt lat="46.201710000" lon="6.890800000">
  <ele>936.380980</ele>
  <time>2012-06-19T14:52:57Z</time>
</trkpt>
<trkpt lat="46.201760000" lon="6.890880000">
  <ele>935.698430</ele>
  <time>2012-06-19T14:52:58Z</time>
</trkpt>
<trkpt lat="46.201820000" lon="6.890960000">
  <ele>935.015870</ele>
  <time>2012-06-19T14:52:59Z</time>
</trkpt>
<trkpt lat="46.201890000" lon="6.891040000">
  <ele>934.333310</ele>
  <time>2012-06-19T14:53:00Z</time>
</trkpt>
<trkpt lat="46.201950000" lon="6.891130000">
  <ele>933.650820</ele>
  <time>2012-06-19T14:53:01Z</time>
</trkpt>
<trkpt lat="46.202010000" lon="6.891220000">
  <ele>932.968260</ele>
  <time>2012-06-19T14:53:02Z</time>
</trkpt>
<trkpt lat="46.202070000" lon="6.891310000">
  <ele>932.285710</ele>
  <time>2012-06-19T14:53:03Z</time>
</trkpt>
<trkpt lat="46.202130000" lon="6.891400000">
  <ele>931.603150</ele>
  <time>2012-06-19T14:53:04Z</time>
</trkpt>
<trkpt lat="46.202190000" lon="6.891490000">
  <ele>930.920650</ele>
  <time>2012-06-19T14:53:05Z</time>
</trkpt>
<trkpt lat="46.202250000" lon="6.891590000">
  <ele>930.238100</ele>
  <time>2012-06-19T14:53:06Z</time>
</trkpt>
<trkpt lat="46.202310000" lon="6.891690000">
  <ele>929.555540</ele>
  <time>2012-06-19T14:53:07Z</time>
</trkpt>
<trkpt lat="46.202370000" lon="6.891790000">
  <ele>928.872990</ele>
  <time>2012-06-19T14:53:08Z</time>
</trkpt>
<trkpt lat="46.202430000" lon="6.891880000">
  <ele>928.190490</ele>
  <time>2012-06-19T14:53:09Z</time>
</trkpt>
<trkpt lat="46.202500000" lon="6.891970000">
  <ele>927.507930</ele>
  <time>2012-06-19T14:53:10Z</time>
</trkpt>
<trkpt lat="46.202550000" lon="6.892070000">
  <ele>926.825380</ele>
  <time>2012-06-19T14:53:11Z</time>
</trkpt>
<trkpt lat="46.202620000" lon="6.892160000">
  <ele>926.142880</ele>
  <time>2012-06-19T14:53:12Z</time>
</trkpt>
<trkpt lat="46.202700000" lon="6.892230000">
  <ele>925.460330</ele>
  <time>2012-06-19T14:53:13Z</time>
</trkpt>
<trkpt lat="46.202790000" lon="6.892290000">
  <ele>924.777770</ele>
  <time>2012-06-19T14:53:14Z</time>
</trkpt>
<trkpt lat="46.202880000" lon="6.892340000">
  <ele>924.095210</ele>
  <time>2012-06-19T14:53:15Z</time>
</trkpt>
<trkpt lat="46.202970000" lon="6.892380000">
  <ele>923.412720</ele>
  <time>2012-06-19T14:53:16Z</time>
</trkpt>
<trkpt lat="46.203060000" lon="6.892400000">
  <ele>922.730160</ele>
  <time>2012-06-19T14:53:17Z</time>
</trkpt>
<trkpt lat="46.203150000" lon="6.892420000">
  <ele>922.047610</ele>
  <time>2012-06-19T14:53:18Z</time>
</trkpt>
<trkpt lat="46.203230000" lon="6.892430000">
  <ele>921.365050</ele>
  <time>2012-06-19T14:53:19Z</time>
</trkpt>
<trkpt lat="46.203320000" lon="6.892440000">
  <ele>920.682560</ele>
  <time>2012-06-19T14:53:20Z</time>
</trkpt>
<trkpt lat="46.203400000" lon="6.892450000">
  <ele>920.000000</ele>
  <time>2012-06-19T14:53:21Z</time>
</trkpt>
<trkpt lat="46.203660000" lon="6.892490000">
  <ele>920.000000</ele>
  <time>2012-06-19T14:53:25Z</time>
</trkpt>
<trkpt lat="46.203810000" lon="6.892540000">
  <ele>918.215390</ele>
  <time>2012-06-19T14:53:29Z</time>
</trkpt>
<trkpt lat="46.203830000" lon="6.892540000">
  <ele>917.769230</ele>
  <time>2012-06-19T14:53:30Z</time>
</trkpt>
<trkpt lat="46.203960000" lon="6.892590000">
  <ele>915.984620</ele>
  <time>2012-06-19T14:53:34Z</time>
</trkpt>
<trkpt lat="46.203980000" lon="6.892640000">
  <ele>915.538450</ele>
  <time>2012-06-19T14:53:35Z</time>
</trkpt>
<trkpt lat="46.203990000" lon="6.892700000">
  <ele>915.092350</ele>
  <time>2012-06-19T14:53:36Z</time>
</trkpt>
<trkpt lat="46.203970000" lon="6.892770000">
  <ele>914.646180</ele>
  <time>2012-06-19T14:53:37Z</time>
</trkpt>
<trkpt lat="46.203930000" lon="6.892820000">
  <ele>914.200010</ele>
  <time>2012-06-19T14:53:38Z</time>
</trkpt>
<trkpt lat="46.203870000" lon="6.892840000">
  <ele>913.753850</ele>
  <time>2012-06-19T14:53:39Z</time>
</trkpt>
<trkpt lat="46.203810000" lon="6.892820000">
  <ele>913.307680</ele>
  <time>2012-06-19T14:53:40Z</time>
</trkpt>
<trkpt lat="46.203730000" lon="6.892810000">
  <ele>912.861570</ele>
  <time>2012-06-19T14:53:41Z</time>
</trkpt>
<trkpt lat="46.203650000" lon="6.892810000">
  <ele>912.415410</ele>
  <time>2012-06-19T14:53:42Z</time>
</trkpt>
<trkpt lat="46.203560000" lon="6.892800000">
  <ele>911.969240</ele>
  <time>2012-06-19T14:53:43Z</time>
</trkpt>
<trkpt lat="46.203480000" lon="6.892800000">
  <ele>911.523070</ele>
  <time>2012-06-19T14:53:44Z</time>
</trkpt>
<trkpt lat="46.203390000" lon="6.892800000">
  <ele>911.076970</ele>
  <time>2012-06-19T14:53:45Z</time>
</trkpt>
<trkpt lat="46.203300000" lon="6.892780000">
  <ele>910.630800</ele>
  <time>2012-06-19T14:53:46Z</time>
</trkpt>
<trkpt lat="46.203210000" lon="6.892760000">
  <ele>910.184630</ele>
  <time>2012-06-19T14:53:47Z</time>
</trkpt>
<trkpt lat="46.203120000" lon="6.892730000">
  <ele>909.738460</ele>
  <time>2012-06-19T14:53:48Z</time>
</trkpt>
<trkpt lat="46.203040000" lon="6.892700000">
  <ele>909.292360</ele>
  <time>2012-06-19T14:53:49Z</time>
</trkpt>
<trkpt lat="46.202960000" lon="6.892680000">
  <ele>908.846190</ele>
  <time>2012-06-19T14:53:50Z</time>
</trkpt>
<trkpt lat="46.202870000" lon="6.892650000">
  <ele>908.400020</ele>
  <time>2012-06-19T14:53:51Z</time>
</trkpt>
<trkpt lat="46.202550000" lon="6.892560000">
  <ele>908.400020</ele>
  <time>2012-06-19T14:53:55Z</time>
</trkpt>
<trkpt lat="46.202230000" lon="6.892420000">
  <ele>907.300050</ele>
  <time>2012-06-19T14:53:59Z</time>
</trkpt>
<trkpt lat="46.202160000" lon="6.892380000">
  <ele>907.025020</ele>
  <time>2012-06-19T14:54:00Z</time>
</trkpt>
<trkpt lat="46.202080000" lon="6.892340000">
  <ele>906.750000</ele>
  <time>2012-06-19T14:54:01Z</time>
</trkpt>
<trkpt lat="46.202000000" lon="6.892300000">
  <ele>906.475040</ele>
  <time>2012-06-19T14:54:02Z</time>
</trkpt>
<trkpt lat="46.201930000" lon="6.892260000">
  <ele>906.200010</ele>
  <time>2012-06-19T14:54:03Z</time>
</trkpt>
<trkpt lat="46.201660000" lon="6.892040000">
  <ele>906.200010</ele>
  <time>2012-06-19T14:54:07Z</time>
</trkpt>
<trkpt lat="46.201140000" lon="6.891600000">
  <ele>906.292180</ele>
  <time>2012-06-19T14:54:15Z</time>
</trkpt>
<trkpt lat="46.200820000" lon="6.891230000">
  <ele>906.361270</ele>
  <time>2012-06-19T14:54:21Z</time>
</trkpt>
<trkpt lat="46.200580000" lon="6.890900000">
  <ele>906.418880</ele>
  <time>2012-06-19T14:54:26Z</time>
</trkpt>
<trkpt lat="46.200420000" lon="6.890720000">
  <ele>906.453430</ele>
  <time>2012-06-19T14:54:29Z</time>
</trkpt>
<trkpt lat="46.200100000" lon="6.890380000">
  <ele>906.522520</ele>
  <time>2012-06-19T14:54:35Z</time>
</trkpt>
<trkpt lat="46.199680000" lon="6.890110000">
  <ele>906.603150</ele>
  <time>2012-06-19T14:54:42Z</time>
</trkpt>
<trkpt lat="46.199350000" lon="6.889870000">
  <ele>906.672240</ele>
  <time>2012-06-19T14:54:48Z</time>
</trkpt>
<trkpt lat="46.199310000" lon="6.889830000">
  <ele>906.683780</ele>
  <time>2012-06-19T14:54:49Z</time>
</trkpt>
<trkpt lat="46.199220000" lon="6.889720000">
  <ele>906.718320</ele>
  <time>2012-06-19T14:54:52Z</time>
</trkpt>
<trkpt lat="46.199210000" lon="6.889710000">
  <ele>906.729860</ele>
  <time>2012-06-19T14:54:53Z</time>
</trkpt>
<trkpt lat="46.199210000" lon="6.889710000">
  <ele>906.775940</ele>
  <time>2012-06-19T14:54:57Z</time>
</trkpt>
<trkpt lat="46.199210000" lon="6.889710000">
  <ele>906.879580</ele>
  <time>2012-06-19T14:55:06Z</time>
</trkpt>
<trkpt lat="46.199210000" lon="6.889710000">
  <ele>906.914120</ele>
  <time>2012-06-19T14:55:09Z</time>
</trkpt>
<trkpt lat="46.199210000" lon="6.889710000">
  <ele>907.063900</ele>
  <time>2012-06-19T14:55:22Z</time>
</trkpt>
<trkpt lat="46.199210000" lon="6.889710000">
  <ele>907.075440</ele>
  <time>2012-06-19T14:55:23Z</time>
</trkpt>
<trkpt lat="46.199210000" lon="6.889710000">
  <ele>907.213620</ele>
  <time>2012-06-19T14:55:35Z</time>
</trkpt>
<trkpt lat="46.199210000" lon="6.889710000">
  <ele>907.248170</ele>
  <time>2012-06-19T14:55:38Z</time>
</trkpt>
<trkpt lat="46.199210000" lon="6.889710000">
  <ele>907.259700</ele>
  <time>2012-06-19T14:55:39Z</time>
</trkpt>
<trkpt lat="46.199170000" lon="6.889660000">
  <ele>907.305790</ele>
  <time>2012-06-19T14:55:43Z</time>
</trkpt>
<trkpt lat="46.199110000" lon="6.889550000">
  <ele>907.340330</ele>
  <time>2012-06-19T14:55:46Z</time>
</trkpt>
<trkpt lat="46.199070000" lon="6.889460000">
  <ele>907.363340</ele>
  <time>2012-06-19T14:55:48Z</time>
</trkpt>
<trkpt lat="46.199030000" lon="6.889350000">
  <ele>907.386410</ele>
  <time>2012-06-19T14:55:50Z</time>
</trkpt>
<trkpt lat="46.198990000" lon="6.889160000">
  <ele>907.420960</ele>
  <time>2012-06-19T14:55:53Z</time>
</trkpt>
<trkpt lat="46.198940000" lon="6.888720000">
  <ele>907.490050</ele>
  <time>2012-06-19T14:55:59Z</time>
</trkpt>
<trkpt lat="46.198930000" lon="6.888220000">
  <ele>907.570680</ele>
  <time>2012-06-19T14:56:06Z</time>
</trkpt>
<trkpt lat="46.198930000" lon="6.888080000">
  <ele>907.593750</ele>
  <time>2012-06-19T14:56:08Z</time>
</trkpt>
<trkpt lat="46.198880000" lon="6.887850000">
  <ele>907.628300</ele>
  <time>2012-06-19T14:56:11Z</time>
</trkpt>
<trkpt lat="46.198830000" lon="6.887630000">
  <ele>907.662840</ele>
  <time>2012-06-19T14:56:14Z</time>
</trkpt>
<trkpt lat="46.198800000" lon="6.887560000">
  <ele>907.674380</ele>
  <time>2012-06-19T14:56:15Z</time>
</trkpt>
<trkpt lat="46.198730000" lon="6.887420000">
  <ele>907.697390</ele>
  <time>2012-06-19T14:56:17Z</time>
</trkpt>
<trkpt lat="46.198650000" lon="6.887300000">
  <ele>907.720460</ele>
  <time>2012-06-19T14:56:19Z</time>
</trkpt>
<trkpt lat="46.198520000" lon="6.887140000">
  <ele>907.755000</ele>
  <time>2012-06-19T14:56:22Z</time>
</trkpt>
<trkpt lat="46.198460000" lon="6.887100000">
  <ele>907.766540</ele>
  <time>2012-06-19T14:56:23Z</time>
</trkpt>
<trkpt lat="46.198240000" lon="6.886950000">
  <ele>907.812560</ele>
  <time>2012-06-19T14:56:27Z</time>
</trkpt>
<trkpt lat="46.197880000" lon="6.886790000">
  <ele>907.881710</ele>
  <time>2012-06-19T14:56:33Z</time>
</trkpt>
<trkpt lat="46.197510000" lon="6.886580000">
  <ele>907.950810</ele>
  <time>2012-06-19T14:56:39Z</time>
</trkpt>
<trkpt lat="46.197090000" lon="6.886330000">
  <ele>908.031430</ele>
  <time>2012-06-19T14:56:46Z</time>
</trkpt>
<trkpt lat="46.196670000" lon="6.886160000">
  <ele>908.112060</ele>
  <time>2012-06-19T14:56:53Z</time>
</trkpt>
<trkpt lat="46.196320000" lon="6.886160000">
  <ele>908.181150</ele>
  <time>2012-06-19T14:56:59Z</time>
</trkpt>
<trkpt lat="46.195980000" lon="6.886230000">
  <ele>908.250310</ele>
  <time>2012-06-19T14:57:05Z</time>
</trkpt>
<trkpt lat="46.195650000" lon="6.886280000">
  <ele>908.330930</ele>
  <time>2012-06-19T14:57:12Z</time>
</trkpt>
<trkpt lat="46.195540000" lon="6.886300000">
  <ele>908.353940</ele>
  <time>2012-06-19T14:57:14Z</time>
</trkpt>
<trkpt lat="46.195490000" lon="6.886310000">
  <ele>908.365480</ele>
  <time>2012-06-19T14:57:15Z</time>
</trkpt>
<trkpt lat="46.195440000" lon="6.886320000">
  <ele>908.377010</ele>
  <time>2012-06-19T14:57:16Z</time>
</trkpt>
<trkpt lat="46.195400000" lon="6.886330000">
  <ele>908.388490</ele>
  <time>2012-06-19T14:57:17Z</time>
</trkpt>
<trkpt lat="46.195350000" lon="6.886340000">
  <ele>908.400020</ele>
  <time>2012-06-19T14:57:18Z</time>
</trkpt>
<trkpt lat="46.195180000" lon="6.886330000">
  <ele>908.400020</ele>
  <time>2012-06-19T14:57:22Z</time>
</trkpt>
<trkpt lat="46.195140000" lon="6.886330000">
  <ele>908.733340</ele>
  <time>2012-06-19T14:57:23Z</time>
</trkpt>
<trkpt lat="46.195090000" lon="6.886330000">
  <ele>909.066710</ele>
  <time>2012-06-19T14:57:24Z</time>
</trkpt>
<trkpt lat="46.195050000" lon="6.886320000">
  <ele>909.400020</ele>
  <time>2012-06-19T14:57:25Z</time>
</trkpt>
<trkpt lat="46.195000000" lon="6.886310000">
  <ele>909.733340</ele>
  <time>2012-06-19T14:57:26Z</time>
</trkpt>
<trkpt lat="46.194970000" lon="6.886300000">
  <ele>910.066710</ele>
  <time>2012-06-19T14:57:27Z</time>
</trkpt>
<trkpt lat="46.194930000" lon="6.886300000">
  <ele>910.400020</ele>
  <time>2012-06-19T14:57:28Z</time>
</trkpt>
<trkpt lat="46.194900000" lon="6.886280000">
  <ele>910.400020</ele>
  <time>2012-06-19T14:57:29Z</time>
</trkpt>
<trkpt lat="46.194820000" lon="6.886230000">
  <ele>911.342830</ele>
  <time>2012-06-19T14:57:32Z</time>
</trkpt>
<trkpt lat="46.194790000" lon="6.886220000">
  <ele>911.657170</ele>
  <time>2012-06-19T14:57:33Z</time>
</trkpt>
<trkpt lat="46.194760000" lon="6.886200000">
  <ele>911.971440</ele>
  <time>2012-06-19T14:57:34Z</time>
</trkpt>
<trkpt lat="46.194730000" lon="6.886180000">
  <ele>912.285710</ele>
  <time>2012-06-19T14:57:35Z</time>
</trkpt>
<trkpt lat="46.194700000" lon="6.886170000">
  <ele>912.599980</ele>
  <time>2012-06-19T14:57:36Z</time>
</trkpt>
<trkpt lat="46.194680000" lon="6.886160000">
  <ele>912.599980</ele>
  <time>2012-06-19T14:57:37Z</time>
</trkpt>
<trkpt lat="46.194630000" lon="6.886130000">
  <ele>913.266660</ele>
  <time>2012-06-19T14:57:39Z</time>
</trkpt>
<trkpt lat="46.194600000" lon="6.886110000">
  <ele>913.599980</ele>
  <time>2012-06-19T14:57:40Z</time>
</trkpt>
<trkpt lat="46.194580000" lon="6.886090000">
  <ele>913.933290</ele>
  <time>2012-06-19T14:57:41Z</time>
</trkpt>
<trkpt lat="46.194560000" lon="6.886070000">
  <ele>914.266660</ele>
  <time>2012-06-19T14:57:42Z</time>
</trkpt>
<trkpt lat="46.194540000" lon="6.886050000">
  <ele>914.599980</ele>
  <time>2012-06-19T14:57:43Z</time>
</trkpt>
<trkpt lat="46.194500000" lon="6.886010000">
  <ele>914.599980</ele>
  <time>2012-06-19T14:57:45Z</time>
</trkpt>
<trkpt lat="46.194390000" lon="6.885900000">
  <ele>915.711060</ele>
  <time>2012-06-19T14:57:50Z</time>
</trkpt>
<trkpt lat="46.194370000" lon="6.885880000">
  <ele>915.933290</ele>
  <time>2012-06-19T14:57:51Z</time>
</trkpt>
<trkpt lat="46.194350000" lon="6.885860000">
  <ele>916.155520</ele>
  <time>2012-06-19T14:57:52Z</time>
</trkpt>
<trkpt lat="46.194330000" lon="6.885840000">
  <ele>916.377750</ele>
  <time>2012-06-19T14:57:53Z</time>
</trkpt>
<trkpt lat="46.194310000" lon="6.885820000">
  <ele>916.599980</ele>
  <time>2012-06-19T14:57:54Z</time>
</trkpt>
<trkpt lat="46.194260000" lon="6.885780000">
  <ele>916.599980</ele>
  <time>2012-06-19T14:57:56Z</time>
</trkpt>
<trkpt lat="46.194100000" lon="6.885640000">
  <ele>917.872680</ele>
  <time>2012-06-19T14:58:03Z</time>
</trkpt>
<trkpt lat="46.194070000" lon="6.885630000">
  <ele>918.054500</ele>
  <time>2012-06-19T14:58:04Z</time>
</trkpt>
<trkpt lat="46.194040000" lon="6.885610000">
  <ele>918.236330</ele>
  <time>2012-06-19T14:58:05Z</time>
</trkpt>
<trkpt lat="46.194020000" lon="6.885590000">
  <ele>918.418150</ele>
  <time>2012-06-19T14:58:06Z</time>
</trkpt>
<trkpt lat="46.194000000" lon="6.885590000">
  <ele>918.599980</ele>
  <time>2012-06-19T14:58:07Z</time>
</trkpt>
<trkpt lat="46.193960000" lon="6.885560000">
  <ele>918.599980</ele>
  <time>2012-06-19T14:58:09Z</time>
</trkpt>
<trkpt lat="46.193840000" lon="6.885500000">
  <ele>919.516660</ele>
  <time>2012-06-19T14:58:14Z</time>
</trkpt>
<trkpt lat="46.193760000" lon="6.885470000">
  <ele>920.066650</ele>
  <time>2012-06-19T14:58:17Z</time>
</trkpt>
<trkpt lat="46.193730000" lon="6.885450000">
  <ele>920.250000</ele>
  <time>2012-06-19T14:58:18Z</time>
</trkpt>
<trkpt lat="46.193710000" lon="6.885450000">
  <ele>920.433350</ele>
  <time>2012-06-19T14:58:19Z</time>
</trkpt>
<trkpt lat="46.193680000" lon="6.885440000">
  <ele>920.616640</ele>
  <time>2012-06-19T14:58:20Z</time>
</trkpt>
<trkpt lat="46.193650000" lon="6.885440000">
  <ele>920.799990</ele>
  <time>2012-06-19T14:58:21Z</time>
</trkpt>
<trkpt lat="46.193580000" lon="6.885410000">
  <ele>920.799990</ele>
  <time>2012-06-19T14:58:23Z</time>
</trkpt>
<trkpt lat="46.193390000" lon="6.885350000">
  <ele>921.599980</ele>
  <time>2012-06-19T14:58:29Z</time>
</trkpt>
<trkpt lat="46.193260000" lon="6.885340000">
  <ele>922.133300</ele>
  <time>2012-06-19T14:58:33Z</time>
</trkpt>
<trkpt lat="46.193200000" lon="6.885330000">
  <ele>922.399960</ele>
  <time>2012-06-19T14:58:35Z</time>
</trkpt>
<trkpt lat="46.193180000" lon="6.885330000">
  <ele>922.533330</ele>
  <time>2012-06-19T14:58:36Z</time>
</trkpt>
<trkpt lat="46.193150000" lon="6.885330000">
  <ele>922.666630</ele>
  <time>2012-06-19T14:58:37Z</time>
</trkpt>
<trkpt lat="46.193120000" lon="6.885320000">
  <ele>922.799990</ele>
  <time>2012-06-19T14:58:38Z</time>
</trkpt>
<trkpt lat="46.192840000" lon="6.885250000">
  <ele>922.799990</ele>
  <time>2012-06-19T14:58:47Z</time>
</trkpt>
<trkpt lat="46.192760000" lon="6.885240000">
  <ele>923.657100</ele>
  <time>2012-06-19T14:58:50Z</time>
</trkpt>
<trkpt lat="46.192730000" lon="6.885230000">
  <ele>923.942870</ele>
  <time>2012-06-19T14:58:51Z</time>
</trkpt>
<trkpt lat="46.192700000" lon="6.885230000">
  <ele>924.228580</ele>
  <time>2012-06-19T14:58:52Z</time>
</trkpt>
<trkpt lat="46.192670000" lon="6.885230000">
  <ele>924.514280</ele>
  <time>2012-06-19T14:58:53Z</time>
</trkpt>
<trkpt lat="46.192640000" lon="6.885230000">
  <ele>924.799990</ele>
  <time>2012-06-19T14:58:54Z</time>
</trkpt>
<trkpt lat="46.192610000" lon="6.885230000">
  <ele>924.799990</ele>
  <time>2012-06-19T14:58:55Z</time>
</trkpt>
<trkpt lat="46.192400000" lon="6.885180000">
  <ele>926.266660</ele>
  <time>2012-06-19T14:59:03Z</time>
</trkpt>
<trkpt lat="46.192370000" lon="6.885170000">
  <ele>926.450010</ele>
  <time>2012-06-19T14:59:04Z</time>
</trkpt>
<trkpt lat="46.192340000" lon="6.885160000">
  <ele>926.633300</ele>
  <time>2012-06-19T14:59:05Z</time>
</trkpt>
<trkpt lat="46.192320000" lon="6.885150000">
  <ele>926.816650</ele>
  <time>2012-06-19T14:59:06Z</time>
</trkpt>
<trkpt lat="46.192290000" lon="6.885160000">
  <ele>927.000000</ele>
  <time>2012-06-19T14:59:07Z</time>
</trkpt>
<trkpt lat="46.192160000" lon="6.885140000">
  <ele>927.000000</ele>
  <time>2012-06-19T14:59:11Z</time>
</trkpt>
<trkpt lat="46.191990000" lon="6.885060000">
  <ele>928.400020</ele>
  <time>2012-06-19T14:59:18Z</time>
</trkpt>
<trkpt lat="46.191960000" lon="6.885050000">
  <ele>928.600040</ele>
  <time>2012-06-19T14:59:19Z</time>
</trkpt>
<trkpt lat="46.191930000" lon="6.885040000">
  <ele>928.799990</ele>
  <time>2012-06-19T14:59:20Z</time>
</trkpt>
<trkpt lat="46.191910000" lon="6.885030000">
  <ele>929.000000</ele>
  <time>2012-06-19T14:59:21Z</time>
</trkpt>
<trkpt lat="46.191880000" lon="6.885020000">
  <ele>929.200010</ele>
  <time>2012-06-19T14:59:22Z</time>
</trkpt>
<trkpt lat="46.191780000" lon="6.884970000">
  <ele>929.200010</ele>
  <time>2012-06-19T14:59:26Z</time>
</trkpt>
<trkpt lat="46.191700000" lon="6.884940000">
  <ele>930.057130</ele>
  <time>2012-06-19T14:59:29Z</time>
</trkpt>
<trkpt lat="46.191680000" lon="6.884930000">
  <ele>930.342900</ele>
  <time>2012-06-19T14:59:30Z</time>
</trkpt>
<trkpt lat="46.191650000" lon="6.884920000">
  <ele>930.628600</ele>
  <time>2012-06-19T14:59:31Z</time>
</trkpt>
<trkpt lat="46.191630000" lon="6.884900000">
  <ele>930.914310</ele>
  <time>2012-06-19T14:59:32Z</time>
</trkpt>
<trkpt lat="46.191610000" lon="6.884890000">
  <ele>931.200010</ele>
  <time>2012-06-19T14:59:33Z</time>
</trkpt>
<trkpt lat="46.191590000" lon="6.884870000">
  <ele>931.200010</ele>
  <time>2012-06-19T14:59:34Z</time>
</trkpt>
<trkpt lat="46.191480000" lon="6.884790000">
  <ele>932.247620</ele>
  <time>2012-06-19T14:59:39Z</time>
</trkpt>
<trkpt lat="46.191410000" lon="6.884740000">
  <ele>932.876160</ele>
  <time>2012-06-19T14:59:42Z</time>
</trkpt>
<trkpt lat="46.191390000" lon="6.884720000">
  <ele>933.085690</ele>
  <time>2012-06-19T14:59:43Z</time>
</trkpt>
<trkpt lat="46.191360000" lon="6.884710000">
  <ele>933.295230</ele>
  <time>2012-06-19T14:59:44Z</time>
</trkpt>
<trkpt lat="46.191340000" lon="6.884700000">
  <ele>933.504760</ele>
  <time>2012-06-19T14:59:45Z</time>
</trkpt>
<trkpt lat="46.191330000" lon="6.884690000">
  <ele>933.714290</ele>
  <time>2012-06-19T14:59:46Z</time>
</trkpt>
<trkpt lat="46.191210000" lon="6.884620000">
  <ele>934.761900</ele>
  <time>2012-06-19T14:59:51Z</time>
</trkpt>
<trkpt lat="46.191190000" lon="6.884600000">
  <ele>934.971440</ele>
  <time>2012-06-19T14:59:52Z</time>
</trkpt>
<trkpt lat="46.191170000" lon="6.884590000">
  <ele>935.180910</ele>
  <time>2012-06-19T14:59:53Z</time>
</trkpt>
<trkpt lat="46.191150000" lon="6.884570000">
  <ele>935.390440</ele>
  <time>2012-06-19T14:59:54Z</time>
</trkpt>
<trkpt lat="46.191130000" lon="6.884550000">
  <ele>935.599980</ele>
  <time>2012-06-19T14:59:55Z</time>
</trkpt>
<trkpt lat="46.191050000" lon="6.884510000">
  <ele>935.599980</ele>
  <time>2012-06-19T14:59:58Z</time>
</trkpt>
<trkpt lat="46.190940000" lon="6.884450000">
  <ele>936.822200</ele>
  <time>2012-06-19T15:00:03Z</time>
</trkpt>
<trkpt lat="46.190910000" lon="6.884430000">
  <ele>937.066650</ele>
  <time>2012-06-19T15:00:04Z</time>
</trkpt>
<trkpt lat="46.190900000" lon="6.884410000">
  <ele>937.311100</ele>
  <time>2012-06-19T15:00:05Z</time>
</trkpt>
<trkpt lat="46.190870000" lon="6.884390000">
  <ele>937.555540</ele>
  <time>2012-06-19T15:00:06Z</time>
</trkpt>
<trkpt lat="46.190860000" lon="6.884380000">
  <ele>937.799990</ele>
  <time>2012-06-19T15:00:07Z</time>
</trkpt>
<trkpt lat="46.190800000" lon="6.884330000">
  <ele>937.799990</ele>
  <time>2012-06-19T15:00:10Z</time>
</trkpt>
<trkpt lat="46.190710000" lon="6.884290000">
  <ele>938.942870</ele>
  <time>2012-06-19T15:00:14Z</time>
</trkpt>
<trkpt lat="46.190690000" lon="6.884270000">
  <ele>939.228580</ele>
  <time>2012-06-19T15:00:15Z</time>
</trkpt>
<trkpt lat="46.190660000" lon="6.884250000">
  <ele>939.514280</ele>
  <time>2012-06-19T15:00:16Z</time>
</trkpt>
<trkpt lat="46.190640000" lon="6.884220000">
  <ele>939.799990</ele>
  <time>2012-06-19T15:00:17Z</time>
</trkpt>
<trkpt lat="46.190540000" lon="6.884140000">
  <ele>939.799990</ele>
  <time>2012-06-19T15:00:21Z</time>
</trkpt>
<trkpt lat="46.190480000" lon="6.884080000">
  <ele>940.466670</ele>
  <time>2012-06-19T15:00:24Z</time>
</trkpt>
<trkpt lat="46.190460000" lon="6.884060000">
  <ele>940.688900</ele>
  <time>2012-06-19T15:00:25Z</time>
</trkpt>
<trkpt lat="46.190440000" lon="6.884040000">
  <ele>940.911070</ele>
  <time>2012-06-19T15:00:26Z</time>
</trkpt>
<trkpt lat="46.190420000" lon="6.884010000">
  <ele>941.133300</ele>
  <time>2012-06-19T15:00:27Z</time>
</trkpt>
<trkpt lat="46.190400000" lon="6.883990000">
  <ele>941.355530</ele>
  <time>2012-06-19T15:00:28Z</time>
</trkpt>
<trkpt lat="46.190270000" lon="6.883820000">
  <ele>942.911070</ele>
  <time>2012-06-19T15:00:35Z</time>
</trkpt>
<trkpt lat="46.190260000" lon="6.883800000">
  <ele>943.133300</ele>
  <time>2012-06-19T15:00:36Z</time>
</trkpt>
<trkpt lat="46.190240000" lon="6.883770000">
  <ele>943.355530</ele>
  <time>2012-06-19T15:00:37Z</time>
</trkpt>
<trkpt lat="46.190220000" lon="6.883740000">
  <ele>943.577760</ele>
  <time>2012-06-19T15:00:38Z</time>
</trkpt>
<trkpt lat="46.190200000" lon="6.883720000">
  <ele>943.799990</ele>
  <time>2012-06-19T15:00:39Z</time>
</trkpt>
<trkpt lat="46.190150000" lon="6.883640000">
  <ele>943.799990</ele>
  <time>2012-06-19T15:00:42Z</time>
</trkpt>
<trkpt lat="46.190140000" lon="6.883610000">
  <ele>944.114260</ele>
  <time>2012-06-19T15:00:43Z</time>
</trkpt>
<trkpt lat="46.190100000" lon="6.883560000">
  <ele>944.742860</ele>
  <time>2012-06-19T15:00:45Z</time>
</trkpt>
<trkpt lat="46.190080000" lon="6.883540000">
  <ele>945.057130</ele>
  <time>2012-06-19T15:00:46Z</time>
</trkpt>
<trkpt lat="46.190070000" lon="6.883510000">
  <ele>945.371400</ele>
  <time>2012-06-19T15:00:47Z</time>
</trkpt>
<trkpt lat="46.190040000" lon="6.883490000">
  <ele>945.685730</ele>
  <time>2012-06-19T15:00:48Z</time>
</trkpt>
<trkpt lat="46.190030000" lon="6.883460000">
  <ele>946.000000</ele>
  <time>2012-06-19T15:00:49Z</time>
</trkpt>
<trkpt lat="46.189970000" lon="6.883390000">
  <ele>946.000000</ele>
  <time>2012-06-19T15:00:52Z</time>
</trkpt>
<trkpt lat="46.189880000" lon="6.883220000">
  <ele>947.200010</ele>
  <time>2012-06-19T15:00:58Z</time>
</trkpt>
<trkpt lat="46.189870000" lon="6.883190000">
  <ele>947.400020</ele>
  <time>2012-06-19T15:00:59Z</time>
</trkpt>
<trkpt lat="46.189870000" lon="6.883150000">
  <ele>947.599980</ele>
  <time>2012-06-19T15:01:00Z</time>
</trkpt>
<trkpt lat="46.189860000" lon="6.883120000">
  <ele>947.799990</ele>
  <time>2012-06-19T15:01:01Z</time>
</trkpt>
<trkpt lat="46.189850000" lon="6.883090000">
  <ele>948.000000</ele>
  <time>2012-06-19T15:01:02Z</time>
</trkpt>
<trkpt lat="46.189830000" lon="6.882900000">
  <ele>948.000000</ele>
  <time>2012-06-19T15:01:07Z</time>
</trkpt>
<trkpt lat="46.189830000" lon="6.882750000">
  <ele>949.099980</ele>
  <time>2012-06-19T15:01:11Z</time>
</trkpt>
<trkpt lat="46.189830000" lon="6.882720000">
  <ele>949.375000</ele>
  <time>2012-06-19T15:01:12Z</time>
</trkpt>
<trkpt lat="46.189820000" lon="6.882700000">
  <ele>949.650020</ele>
  <time>2012-06-19T15:01:13Z</time>
</trkpt>
<trkpt lat="46.189820000" lon="6.882670000">
  <ele>949.924990</ele>
  <time>2012-06-19T15:01:14Z</time>
</trkpt>
<trkpt lat="46.189820000" lon="6.882640000">
  <ele>950.200010</ele>
  <time>2012-06-19T15:01:15Z</time>
</trkpt>
<trkpt lat="46.189800000" lon="6.882510000">
  <ele>950.200010</ele>
  <time>2012-06-19T15:01:19Z</time>
</trkpt>
<trkpt lat="46.189790000" lon="6.882450000">
  <ele>950.866700</ele>
  <time>2012-06-19T15:01:21Z</time>
</trkpt>
<trkpt lat="46.189780000" lon="6.882420000">
  <ele>951.200010</ele>
  <time>2012-06-19T15:01:22Z</time>
</trkpt>
<trkpt lat="46.189760000" lon="6.882400000">
  <ele>951.533330</ele>
  <time>2012-06-19T15:01:23Z</time>
</trkpt>
<trkpt lat="46.189740000" lon="6.882380000">
  <ele>951.866700</ele>
  <time>2012-06-19T15:01:24Z</time>
</trkpt>
<trkpt lat="46.189730000" lon="6.882370000">
  <ele>952.200010</ele>
  <time>2012-06-19T15:01:25Z</time>
</trkpt>
<trkpt lat="46.189660000" lon="6.882350000">
  <ele>952.200010</ele>
  <time>2012-06-19T15:01:27Z</time>
</trkpt>
<trkpt lat="46.189510000" lon="6.882430000">
  <ele>952.914310</ele>
  <time>2012-06-19T15:01:32Z</time>
</trkpt>
<trkpt lat="46.189410000" lon="6.882570000">
  <ele>953.628600</ele>
  <time>2012-06-19T15:01:37Z</time>
</trkpt>
<trkpt lat="46.189400000" lon="6.882600000">
  <ele>953.771420</ele>
  <time>2012-06-19T15:01:38Z</time>
</trkpt>
<trkpt lat="46.189380000" lon="6.882620000">
  <ele>953.914310</ele>
  <time>2012-06-19T15:01:39Z</time>
</trkpt>
<trkpt lat="46.189360000" lon="6.882650000">
  <ele>954.057130</ele>
  <time>2012-06-19T15:01:40Z</time>
</trkpt>
<trkpt lat="46.189340000" lon="6.882680000">
  <ele>954.200010</ele>
  <time>2012-06-19T15:01:41Z</time>
</trkpt>
<trkpt lat="46.189220000" lon="6.882830000">
  <ele>954.200010</ele>
  <time>2012-06-19T15:01:47Z</time>
</trkpt>
<trkpt lat="46.189190000" lon="6.882890000">
  <ele>954.866700</ele>
  <time>2012-06-19T15:01:49Z</time>
</trkpt>
<trkpt lat="46.189170000" lon="6.882920000">
  <ele>955.200010</ele>
  <time>2012-06-19T15:01:50Z</time>
</trkpt>
<trkpt lat="46.189150000" lon="6.882940000">
  <ele>955.533330</ele>
  <time>2012-06-19T15:01:51Z</time>
</trkpt>
<trkpt lat="46.189130000" lon="6.882970000">
  <ele>955.866700</ele>
  <time>2012-06-19T15:01:52Z</time>
</trkpt>
<trkpt lat="46.189110000" lon="6.882990000">
  <ele>956.200010</ele>
  <time>2012-06-19T15:01:53Z</time>
</trkpt>
<trkpt lat="46.189100000" lon="6.883010000">
  <ele>956.200010</ele>
  <time>2012-06-19T15:01:54Z</time>
</trkpt>
<trkpt lat="46.189000000" lon="6.883090000">
  <ele>957.422240</ele>
  <time>2012-06-19T15:01:59Z</time>
</trkpt>
<trkpt lat="46.188980000" lon="6.883110000">
  <ele>957.666690</ele>
  <time>2012-06-19T15:02:00Z</time>
</trkpt>
<trkpt lat="46.188960000" lon="6.883130000">
  <ele>957.911130</ele>
  <time>2012-06-19T15:02:01Z</time>
</trkpt>
<trkpt lat="46.188940000" lon="6.883150000">
  <ele>958.155580</ele>
  <time>2012-06-19T15:02:02Z</time>
</trkpt>
<trkpt lat="46.188920000" lon="6.883170000">
  <ele>958.400020</ele>
  <time>2012-06-19T15:02:03Z</time>
</trkpt>
<trkpt lat="46.188870000" lon="6.883240000">
  <ele>958.400020</ele>
  <time>2012-06-19T15:02:06Z</time>
</trkpt>
<trkpt lat="46.188800000" lon="6.883340000">
  <ele>959.400020</ele>
  <time>2012-06-19T15:02:10Z</time>
</trkpt>
<trkpt lat="46.188790000" lon="6.883370000">
  <ele>959.650020</ele>
  <time>2012-06-19T15:02:11Z</time>
</trkpt>
<trkpt lat="46.188770000" lon="6.883400000">
  <ele>959.900020</ele>
  <time>2012-06-19T15:02:12Z</time>
</trkpt>
<trkpt lat="46.188760000" lon="6.883440000">
  <ele>960.150020</ele>
  <time>2012-06-19T15:02:13Z</time>
</trkpt>
<trkpt lat="46.188750000" lon="6.883470000">
  <ele>960.400020</ele>
  <time>2012-06-19T15:02:14Z</time>
</trkpt>
<trkpt lat="46.188730000" lon="6.883600000">
  <ele>960.400020</ele>
  <time>2012-06-19T15:02:18Z</time>
</trkpt>
<trkpt lat="46.188720000" lon="6.883710000">
  <ele>961.257140</ele>
  <time>2012-06-19T15:02:21Z</time>
</trkpt>
<trkpt lat="46.188720000" lon="6.883750000">
  <ele>961.542910</ele>
  <time>2012-06-19T15:02:22Z</time>
</trkpt>
<trkpt lat="46.188710000" lon="6.883780000">
  <ele>961.828610</ele>
  <time>2012-06-19T15:02:23Z</time>
</trkpt>
<trkpt lat="46.188710000" lon="6.883820000">
  <ele>962.114320</ele>
  <time>2012-06-19T15:02:24Z</time>
</trkpt>
<trkpt lat="46.188700000" lon="6.883850000">
  <ele>962.400020</ele>
  <time>2012-06-19T15:02:25Z</time>
</trkpt>
<trkpt lat="46.188670000" lon="6.883980000">
  <ele>962.400020</ele>
  <time>2012-06-19T15:02:29Z</time>
</trkpt>
<trkpt lat="46.188600000" lon="6.884160000">
  <ele>963.545470</ele>
  <time>2012-06-19T15:02:35Z</time>
</trkpt>
<trkpt lat="46.188580000" lon="6.884190000">
  <ele>963.736390</ele>
  <time>2012-06-19T15:02:36Z</time>
</trkpt>
<trkpt lat="46.188560000" lon="6.884220000">
  <ele>963.927310</ele>
  <time>2012-06-19T15:02:37Z</time>
</trkpt>
<trkpt lat="46.188540000" lon="6.884250000">
  <ele>964.118160</ele>
  <time>2012-06-19T15:02:38Z</time>
</trkpt>
<trkpt lat="46.188520000" lon="6.884270000">
  <ele>964.309080</ele>
  <time>2012-06-19T15:02:39Z</time>
</trkpt>
<trkpt lat="46.188500000" lon="6.884300000">
  <ele>964.500000</ele>
  <time>2012-06-19T15:02:40Z</time>
</trkpt>
<trkpt lat="46.188340000" lon="6.884410000">
  <ele>965.836360</ele>
  <time>2012-06-19T15:02:47Z</time>
</trkpt>
<trkpt lat="46.188320000" lon="6.884420000">
  <ele>966.027280</ele>
  <time>2012-06-19T15:02:48Z</time>
</trkpt>
<trkpt lat="46.188290000" lon="6.884420000">
  <ele>966.218140</ele>
  <time>2012-06-19T15:02:49Z</time>
</trkpt>
<trkpt lat="46.188270000" lon="6.884420000">
  <ele>966.409060</ele>
  <time>2012-06-19T15:02:50Z</time>
</trkpt>
<trkpt lat="46.188240000" lon="6.884420000">
  <ele>966.599980</ele>
  <time>2012-06-19T15:02:51Z</time>
</trkpt>
<trkpt lat="46.188190000" lon="6.884410000">
  <ele>966.599980</ele>
  <time>2012-06-19T15:02:53Z</time>
</trkpt>
<trkpt lat="46.188030000" lon="6.884320000">
  <ele>967.695620</ele>
  <time>2012-06-19T15:02:59Z</time>
</trkpt>
<trkpt lat="46.187980000" lon="6.884280000">
  <ele>968.060850</ele>
  <time>2012-06-19T15:03:01Z</time>
</trkpt>
<trkpt lat="46.187970000" lon="6.884260000">
  <ele>968.243470</ele>
  <time>2012-06-19T15:03:02Z</time>
</trkpt>
<trkpt lat="46.187950000" lon="6.884240000">
  <ele>968.426090</ele>
  <time>2012-06-19T15:03:03Z</time>
</trkpt>
<trkpt lat="46.187920000" lon="6.884220000">
  <ele>968.608700</ele>
  <time>2012-06-19T15:03:04Z</time>
</trkpt>
<trkpt lat="46.187900000" lon="6.884200000">
  <ele>968.791260</ele>
  <time>2012-06-19T15:03:05Z</time>
</trkpt>
<trkpt lat="46.187780000" lon="6.884030000">
  <ele>970.069580</ele>
  <time>2012-06-19T15:03:12Z</time>
</trkpt>
<trkpt lat="46.187770000" lon="6.884000000">
  <ele>970.252140</ele>
  <time>2012-06-19T15:03:13Z</time>
</trkpt>
<trkpt lat="46.187750000" lon="6.883970000">
  <ele>970.434750</ele>
  <time>2012-06-19T15:03:14Z</time>
</trkpt>
<trkpt lat="46.187740000" lon="6.883950000">
  <ele>970.617370</ele>
  <time>2012-06-19T15:03:15Z</time>
</trkpt>
<trkpt lat="46.187720000" lon="6.883920000">
  <ele>970.799990</ele>
  <time>2012-06-19T15:03:16Z</time>
</trkpt>
<trkpt lat="46.187670000" lon="6.883850000">
  <ele>970.799990</ele>
  <time>2012-06-19T15:03:19Z</time>
</trkpt>
<trkpt lat="46.187580000" lon="6.883730000">
  <ele>971.911070</ele>
  <time>2012-06-19T15:03:24Z</time>
</trkpt>
<trkpt lat="46.187560000" lon="6.883700000">
  <ele>972.133300</ele>
  <time>2012-06-19T15:03:25Z</time>
</trkpt>
<trkpt lat="46.187550000" lon="6.883680000">
  <ele>972.355530</ele>
  <time>2012-06-19T15:03:26Z</time>
</trkpt>
<trkpt lat="46.187530000" lon="6.883650000">
  <ele>972.577760</ele>
  <time>2012-06-19T15:03:27Z</time>
</trkpt>
<trkpt lat="46.187510000" lon="6.883630000">
  <ele>972.799990</ele>
  <time>2012-06-19T15:03:28Z</time>
</trkpt>
<trkpt lat="46.187420000" lon="6.883560000">
  <ele>972.799990</ele>
  <time>2012-06-19T15:03:32Z</time>
</trkpt>
<trkpt lat="46.187280000" lon="6.883490000">
  <ele>974.000000</ele>
  <time>2012-06-19T15:03:38Z</time>
</trkpt>
<trkpt lat="46.187260000" lon="6.883490000">
  <ele>974.200010</ele>
  <time>2012-06-19T15:03:39Z</time>
</trkpt>
<trkpt lat="46.187230000" lon="6.883500000">
  <ele>974.399960</ele>
  <time>2012-06-19T15:03:40Z</time>
</trkpt>
<trkpt lat="46.187210000" lon="6.883500000">
  <ele>974.599980</ele>
  <time>2012-06-19T15:03:41Z</time>
</trkpt>
<trkpt lat="46.187190000" lon="6.883490000">
  <ele>974.799990</ele>
  <time>2012-06-19T15:03:42Z</time>
</trkpt>
<trkpt lat="46.187170000" lon="6.883480000">
  <ele>974.799990</ele>
  <time>2012-06-19T15:03:43Z</time>
</trkpt>
<trkpt lat="46.187080000" lon="6.883460000">
  <ele>975.200010</ele>
  <time>2012-06-19T15:03:46Z</time>
</trkpt>
<trkpt lat="46.187050000" lon="6.883460000">
  <ele>975.333310</ele>
  <time>2012-06-19T15:03:47Z</time>
</trkpt>
<trkpt lat="46.186910000" lon="6.883430000">
  <ele>976.000000</ele>
  <time>2012-06-19T15:03:52Z</time>
</trkpt>
<trkpt lat="46.186860000" lon="6.883410000">
  <ele>976.266660</ele>
  <time>2012-06-19T15:03:54Z</time>
</trkpt>
<trkpt lat="46.186830000" lon="6.883400000">
  <ele>976.399960</ele>
  <time>2012-06-19T15:03:55Z</time>
</trkpt>
<trkpt lat="46.186810000" lon="6.883380000">
  <ele>976.533330</ele>
  <time>2012-06-19T15:03:56Z</time>
</trkpt>
<trkpt lat="46.186790000" lon="6.883370000">
  <ele>976.666630</ele>
  <time>2012-06-19T15:03:57Z</time>
</trkpt>
<trkpt lat="46.186760000" lon="6.883350000">
  <ele>976.799990</ele>
  <time>2012-06-19T15:03:58Z</time>
</trkpt>
<trkpt lat="46.186660000" lon="6.883240000">
  <ele>976.799990</ele>
  <time>2012-06-19T15:04:03Z</time>
</trkpt>
<trkpt lat="46.186560000" lon="6.883110000">
  <ele>978.022220</ele>
  <time>2012-06-19T15:04:08Z</time>
</trkpt>
<trkpt lat="46.186540000" lon="6.883090000">
  <ele>978.266660</ele>
  <time>2012-06-19T15:04:09Z</time>
</trkpt>
<trkpt lat="46.186520000" lon="6.883060000">
  <ele>978.511110</ele>
  <time>2012-06-19T15:04:10Z</time>
</trkpt>
<trkpt lat="46.186500000" lon="6.883040000">
  <ele>978.755550</ele>
  <time>2012-06-19T15:04:11Z</time>
</trkpt>
<trkpt lat="46.186490000" lon="6.883010000">
  <ele>979.000000</ele>
  <time>2012-06-19T15:04:12Z</time>
</trkpt>
<trkpt lat="46.186440000" lon="6.882910000">
  <ele>979.000000</ele>
  <time>2012-06-19T15:04:15Z</time>
</trkpt>
<trkpt lat="46.186370000" lon="6.882670000">
  <ele>980.540040</ele>
  <time>2012-06-19T15:04:22Z</time>
</trkpt>
<trkpt lat="46.186360000" lon="6.882640000">
  <ele>980.760010</ele>
  <time>2012-06-19T15:04:23Z</time>
</trkpt>
<trkpt lat="46.186340000" lon="6.882600000">
  <ele>980.979980</ele>
  <time>2012-06-19T15:04:24Z</time>
</trkpt>
<trkpt lat="46.186330000" lon="6.882570000">
  <ele>981.200010</ele>
  <time>2012-06-19T15:04:25Z</time>
</trkpt>
<trkpt lat="46.186260000" lon="6.882390000">
  <ele>981.200010</ele>
  <time>2012-06-19T15:04:30Z</time>
</trkpt>
<trkpt lat="46.186140000" lon="6.882140000">
  <ele>982.366700</ele>
  <time>2012-06-19T15:04:37Z</time>
</trkpt>
<trkpt lat="46.186120000" lon="6.882120000">
  <ele>982.533330</ele>
  <time>2012-06-19T15:04:38Z</time>
</trkpt>
<trkpt lat="46.186100000" lon="6.882090000">
  <ele>982.700010</ele>
  <time>2012-06-19T15:04:39Z</time>
</trkpt>
<trkpt lat="46.186080000" lon="6.882060000">
  <ele>982.866700</ele>
  <time>2012-06-19T15:04:40Z</time>
</trkpt>
<trkpt lat="46.186050000" lon="6.882040000">
  <ele>983.033330</ele>
  <time>2012-06-19T15:04:41Z</time>
</trkpt>
<trkpt lat="46.186030000" lon="6.882010000">
  <ele>983.200010</ele>
  <time>2012-06-19T15:04:42Z</time>
</trkpt>
<trkpt lat="46.185990000" lon="6.881960000">
  <ele>983.200010</ele>
  <time>2012-06-19T15:04:44Z</time>
</trkpt>
<trkpt lat="46.185770000" lon="6.881820000">
  <ele>984.723080</ele>
  <time>2012-06-19T15:04:53Z</time>
</trkpt>
<trkpt lat="46.185750000" lon="6.881810000">
  <ele>984.892330</ele>
  <time>2012-06-19T15:04:54Z</time>
</trkpt>
<trkpt lat="46.185720000" lon="6.881800000">
  <ele>985.061580</ele>
  <time>2012-06-19T15:04:55Z</time>
</trkpt>
<trkpt lat="46.185700000" lon="6.881790000">
  <ele>985.230770</ele>
  <time>2012-06-19T15:04:56Z</time>
</trkpt>
<trkpt lat="46.185670000" lon="6.881780000">
  <ele>985.400020</ele>
  <time>2012-06-19T15:04:57Z</time>
</trkpt>
<trkpt lat="46.185650000" lon="6.881770000">
  <ele>985.400020</ele>
  <time>2012-06-19T15:04:58Z</time>
</trkpt>
<trkpt lat="46.185510000" lon="6.881770000">
  <ele>986.309140</ele>
  <time>2012-06-19T15:05:03Z</time>
</trkpt>
<trkpt lat="46.185450000" lon="6.881770000">
  <ele>986.672730</ele>
  <time>2012-06-19T15:05:05Z</time>
</trkpt>
<trkpt lat="46.185420000" lon="6.881770000">
  <ele>986.854550</ele>
  <time>2012-06-19T15:05:06Z</time>
</trkpt>
<trkpt lat="46.185400000" lon="6.881770000">
  <ele>987.036380</ele>
  <time>2012-06-19T15:05:07Z</time>
</trkpt>
<trkpt lat="46.185370000" lon="6.881780000">
  <ele>987.218200</ele>
  <time>2012-06-19T15:05:08Z</time>
</trkpt>
<trkpt lat="46.185340000" lon="6.881780000">
  <ele>987.400020</ele>
  <time>2012-06-19T15:05:09Z</time>
</trkpt>
<trkpt lat="46.185280000" lon="6.881780000">
  <ele>987.400020</ele>
  <time>2012-06-19T15:05:11Z</time>
</trkpt>
<trkpt lat="46.185100000" lon="6.881770000">
  <ele>988.672730</ele>
  <time>2012-06-19T15:05:18Z</time>
</trkpt>
<trkpt lat="46.185070000" lon="6.881770000">
  <ele>988.854550</ele>
  <time>2012-06-19T15:05:19Z</time>
</trkpt>
<trkpt lat="46.185040000" lon="6.881770000">
  <ele>989.036380</ele>
  <time>2012-06-19T15:05:20Z</time>
</trkpt>
<trkpt lat="46.185020000" lon="6.881780000">
  <ele>989.218200</ele>
  <time>2012-06-19T15:05:21Z</time>
</trkpt>
<trkpt lat="46.184990000" lon="6.881770000">
  <ele>989.400020</ele>
  <time>2012-06-19T15:05:22Z</time>
</trkpt>
<trkpt lat="46.184730000" lon="6.881740000">
  <ele>989.400020</ele>
  <time>2012-06-19T15:05:31Z</time>
</trkpt>
<trkpt lat="46.184680000" lon="6.881720000">
  <ele>990.280030</ele>
  <time>2012-06-19T15:05:33Z</time>
</trkpt>
<trkpt lat="46.184650000" lon="6.881710000">
  <ele>990.719970</ele>
  <time>2012-06-19T15:05:34Z</time>
</trkpt>
<trkpt lat="46.184630000" lon="6.881690000">
  <ele>991.159970</ele>
  <time>2012-06-19T15:05:35Z</time>
</trkpt>
<trkpt lat="46.184600000" lon="6.881670000">
  <ele>991.599980</ele>
  <time>2012-06-19T15:05:36Z</time>
</trkpt>
<trkpt lat="46.184490000" lon="6.881610000">
  <ele>991.599980</ele>
  <time>2012-06-19T15:05:40Z</time>
</trkpt>
<trkpt lat="46.184300000" lon="6.881490000">
  <ele>992.872680</ele>
  <time>2012-06-19T15:05:47Z</time>
</trkpt>
<trkpt lat="46.184270000" lon="6.881470000">
  <ele>993.054500</ele>
  <time>2012-06-19T15:05:48Z</time>
</trkpt>
<trkpt lat="46.184250000" lon="6.881450000">
  <ele>993.236330</ele>
  <time>2012-06-19T15:05:49Z</time>
</trkpt>
<trkpt lat="46.184220000" lon="6.881430000">
  <ele>993.418150</ele>
  <time>2012-06-19T15:05:50Z</time>
</trkpt>
<trkpt lat="46.184190000" lon="6.881410000">
  <ele>993.599980</ele>
  <time>2012-06-19T15:05:51Z</time>
</trkpt>
<trkpt lat="46.183970000" lon="6.881200000">
  <ele>993.599980</ele>
  <time>2012-06-19T15:06:00Z</time>
</trkpt>
<trkpt lat="46.183780000" lon="6.880950000">
  <ele>994.857120</ele>
  <time>2012-06-19T15:06:08Z</time>
</trkpt>
<trkpt lat="46.183740000" lon="6.880860000">
  <ele>995.171390</ele>
  <time>2012-06-19T15:06:10Z</time>
</trkpt>
<trkpt lat="46.183730000" lon="6.880820000">
  <ele>995.328550</ele>
  <time>2012-06-19T15:06:11Z</time>
</trkpt>
<trkpt lat="46.183710000" lon="6.880780000">
  <ele>995.485720</ele>
  <time>2012-06-19T15:06:12Z</time>
</trkpt>
<trkpt lat="46.183700000" lon="6.880730000">
  <ele>995.642820</ele>
  <time>2012-06-19T15:06:13Z</time>
</trkpt>
<trkpt lat="46.183680000" lon="6.880690000">
  <ele>995.799990</ele>
  <time>2012-06-19T15:06:14Z</time>
</trkpt>
<trkpt lat="46.183580000" lon="6.880310000">
  <ele>995.799990</ele>
  <time>2012-06-19T15:06:22Z</time>
</trkpt>
<trkpt lat="46.183490000" lon="6.879970000">
  <ele>996.674990</ele>
  <time>2012-06-19T15:06:29Z</time>
</trkpt>
<trkpt lat="46.183470000" lon="6.879870000">
  <ele>996.924990</ele>
  <time>2012-06-19T15:06:31Z</time>
</trkpt>
<trkpt lat="46.183430000" lon="6.879730000">
  <ele>997.299990</ele>
  <time>2012-06-19T15:06:34Z</time>
</trkpt>
<trkpt lat="46.183430000" lon="6.879690000">
  <ele>997.424990</ele>
  <time>2012-06-19T15:06:35Z</time>
</trkpt>
<trkpt lat="46.183410000" lon="6.879640000">
  <ele>997.549990</ele>
  <time>2012-06-19T15:06:36Z</time>
</trkpt>
<trkpt lat="46.183400000" lon="6.879600000">
  <ele>997.674990</ele>
  <time>2012-06-19T15:06:37Z</time>
</trkpt>
<trkpt lat="46.183390000" lon="6.879560000">
  <ele>997.799990</ele>
  <time>2012-06-19T15:06:38Z</time>
</trkpt>
<trkpt lat="46.183320000" lon="6.879260000">
  <ele>997.799990</ele>
  <time>2012-06-19T15:06:45Z</time>
</trkpt>
<trkpt lat="46.183290000" lon="6.879180000">
  <ele>998.599980</ele>
  <time>2012-06-19T15:06:47Z</time>
</trkpt>
<trkpt lat="46.183270000" lon="6.879140000">
  <ele>999.000000</ele>
  <time>2012-06-19T15:06:48Z</time>
</trkpt>
<trkpt lat="46.183260000" lon="6.879100000">
  <ele>999.399960</ele>
  <time>2012-06-19T15:06:49Z</time>
</trkpt>
<trkpt lat="46.183240000" lon="6.879060000">
  <ele>999.799990</ele>
  <time>2012-06-19T15:06:50Z</time>
</trkpt>
<trkpt lat="46.183190000" lon="6.878930000">
  <ele>999.799990</ele>
  <time>2012-06-19T15:06:53Z</time>
</trkpt>
<trkpt lat="46.183040000" lon="6.878550000">
  <ele>999.404910</ele>
  <time>2012-06-19T15:07:01Z</time>
</trkpt>
<trkpt lat="46.182910000" lon="6.878130000">
  <ele>999.009890</ele>
  <time>2012-06-19T15:07:09Z</time>
</trkpt>
<trkpt lat="46.182840000" lon="6.877830000">
  <ele>998.762940</ele>
  <time>2012-06-19T15:07:14Z</time>
</trkpt>
<trkpt lat="46.182800000" lon="6.877650000">
  <ele>998.614810</ele>
  <time>2012-06-19T15:07:17Z</time>
</trkpt>
<trkpt lat="46.182710000" lon="6.877290000">
  <ele>998.318480</ele>
  <time>2012-06-19T15:07:23Z</time>
</trkpt>
<trkpt lat="46.182690000" lon="6.877240000">
  <ele>998.269100</ele>
  <time>2012-06-19T15:07:24Z</time>
</trkpt>
<trkpt lat="46.182620000" lon="6.877050000">
  <ele>998.071590</ele>
  <time>2012-06-19T15:07:28Z</time>
</trkpt>
<trkpt lat="46.182550000" lon="6.876910000">
  <ele>997.923460</ele>
  <time>2012-06-19T15:07:31Z</time>
</trkpt>
<trkpt lat="46.182360000" lon="6.876550000">
  <ele>997.577760</ele>
  <time>2012-06-19T15:07:38Z</time>
</trkpt>
<trkpt lat="46.182260000" lon="6.876350000">
  <ele>997.380250</ele>
  <time>2012-06-19T15:07:42Z</time>
</trkpt>
<trkpt lat="46.182180000" lon="6.876140000">
  <ele>997.182680</ele>
  <time>2012-06-19T15:07:46Z</time>
</trkpt>
<trkpt lat="46.182050000" lon="6.875790000">
  <ele>996.886410</ele>
  <time>2012-06-19T15:07:52Z</time>
</trkpt>
<trkpt lat="46.181910000" lon="6.875300000">
  <ele>996.540710</ele>
  <time>2012-06-19T15:07:59Z</time>
</trkpt>
<trkpt lat="46.181780000" lon="6.874920000">
  <ele>996.293820</ele>
  <time>2012-06-19T15:08:04Z</time>
</trkpt>
<trkpt lat="46.181750000" lon="6.874830000">
  <ele>996.244450</ele>
  <time>2012-06-19T15:08:05Z</time>
</trkpt>
<trkpt lat="46.181720000" lon="6.874740000">
  <ele>996.195070</ele>
  <time>2012-06-19T15:08:06Z</time>
</trkpt>
<trkpt lat="46.181690000" lon="6.874660000">
  <ele>996.145690</ele>
  <time>2012-06-19T15:08:07Z</time>
</trkpt>
<trkpt lat="46.181650000" lon="6.874570000">
  <ele>996.096310</ele>
  <time>2012-06-19T15:08:08Z</time>
</trkpt>
<trkpt lat="46.181580000" lon="6.874400000">
  <ele>995.997500</ele>
  <time>2012-06-19T15:08:10Z</time>
</trkpt>
<trkpt lat="46.181540000" lon="6.874320000">
  <ele>995.948120</ele>
  <time>2012-06-19T15:08:11Z</time>
</trkpt>
<trkpt lat="46.181500000" lon="6.874230000">
  <ele>995.898740</ele>
  <time>2012-06-19T15:08:12Z</time>
</trkpt>
<trkpt lat="46.181450000" lon="6.874130000">
  <ele>995.849370</ele>
  <time>2012-06-19T15:08:13Z</time>
</trkpt>
<trkpt lat="46.181410000" lon="6.874040000">
  <ele>995.799990</ele>
  <time>2012-06-19T15:08:14Z</time>
</trkpt>
<trkpt lat="46.181370000" lon="6.873960000">
  <ele>995.799990</ele>
  <time>2012-06-19T15:08:15Z</time>
</trkpt>
<trkpt lat="46.181270000" lon="6.873790000">
  <ele>995.047060</ele>
  <time>2012-06-19T15:08:17Z</time>
</trkpt>
<trkpt lat="46.181210000" lon="6.873710000">
  <ele>994.670590</ele>
  <time>2012-06-19T15:08:18Z</time>
</trkpt>
<trkpt lat="46.181160000" lon="6.873630000">
  <ele>994.294130</ele>
  <time>2012-06-19T15:08:19Z</time>
</trkpt>
<trkpt lat="46.181090000" lon="6.873550000">
  <ele>993.917660</ele>
  <time>2012-06-19T15:08:20Z</time>
</trkpt>
<trkpt lat="46.181030000" lon="6.873480000">
  <ele>993.541200</ele>
  <time>2012-06-19T15:08:21Z</time>
</trkpt>
<trkpt lat="46.180970000" lon="6.873410000">
  <ele>993.164730</ele>
  <time>2012-06-19T15:08:22Z</time>
</trkpt>
<trkpt lat="46.180910000" lon="6.873350000">
  <ele>992.788270</ele>
  <time>2012-06-19T15:08:23Z</time>
</trkpt>
<trkpt lat="46.180840000" lon="6.873280000">
  <ele>992.411740</ele>
  <time>2012-06-19T15:08:24Z</time>
</trkpt>
<trkpt lat="46.180770000" lon="6.873220000">
  <ele>992.035280</ele>
  <time>2012-06-19T15:08:25Z</time>
</trkpt>
<trkpt lat="46.180700000" lon="6.873160000">
  <ele>991.658810</ele>
  <time>2012-06-19T15:08:26Z</time>
</trkpt>
<trkpt lat="46.180550000" lon="6.873050000">
  <ele>990.905880</ele>
  <time>2012-06-19T15:08:28Z</time>
</trkpt>
<trkpt lat="46.180470000" lon="6.872990000">
  <ele>990.529420</ele>
  <time>2012-06-19T15:08:29Z</time>
</trkpt>
<trkpt lat="46.180400000" lon="6.872930000">
  <ele>990.152950</ele>
  <time>2012-06-19T15:08:30Z</time>
</trkpt>
<trkpt lat="46.180330000" lon="6.872870000">
  <ele>989.776490</ele>
  <time>2012-06-19T15:08:31Z</time>
</trkpt>
<trkpt lat="46.180260000" lon="6.872800000">
  <ele>989.400020</ele>
  <time>2012-06-19T15:08:32Z</time>
</trkpt>
<trkpt lat="46.180130000" lon="6.872670000">
  <ele>989.400020</ele>
  <time>2012-06-19T15:08:34Z</time>
</trkpt>
<trkpt lat="46.179750000" lon="6.872270000">
  <ele>986.676940</ele>
  <time>2012-06-19T15:08:40Z</time>
</trkpt>
<trkpt lat="46.179690000" lon="6.872210000">
  <ele>986.223080</ele>
  <time>2012-06-19T15:08:41Z</time>
</trkpt>
<trkpt lat="46.179620000" lon="6.872140000">
  <ele>985.769230</ele>
  <time>2012-06-19T15:08:42Z</time>
</trkpt>
<trkpt lat="46.179550000" lon="6.872080000">
  <ele>985.315370</ele>
  <time>2012-06-19T15:08:43Z</time>
</trkpt>
<trkpt lat="46.179480000" lon="6.872030000">
  <ele>984.861570</ele>
  <time>2012-06-19T15:08:44Z</time>
</trkpt>
<trkpt lat="46.179260000" lon="6.871880000">
  <ele>983.500000</ele>
  <time>2012-06-19T15:08:47Z</time>
</trkpt>
<trkpt lat="46.179180000" lon="6.871830000">
  <ele>983.046140</ele>
  <time>2012-06-19T15:08:48Z</time>
</trkpt>
<trkpt lat="46.179100000" lon="6.871790000">
  <ele>982.592290</ele>
  <time>2012-06-19T15:08:49Z</time>
</trkpt>
<trkpt lat="46.179000000" lon="6.871770000">
  <ele>982.138430</ele>
  <time>2012-06-19T15:08:50Z</time>
</trkpt>
<trkpt lat="46.178910000" lon="6.871740000">
  <ele>981.684630</ele>
  <time>2012-06-19T15:08:51Z</time>
</trkpt>
<trkpt lat="46.178820000" lon="6.871720000">
  <ele>981.230770</ele>
  <time>2012-06-19T15:08:52Z</time>
</trkpt>
<trkpt lat="46.178730000" lon="6.871710000">
  <ele>980.776920</ele>
  <time>2012-06-19T15:08:53Z</time>
</trkpt>
<trkpt lat="46.178630000" lon="6.871700000">
  <ele>980.323060</ele>
  <time>2012-06-19T15:08:54Z</time>
</trkpt>
<trkpt lat="46.178520000" lon="6.871690000">
  <ele>979.869200</ele>
  <time>2012-06-19T15:08:55Z</time>
</trkpt>
<trkpt lat="46.178420000" lon="6.871690000">
  <ele>979.415340</ele>
  <time>2012-06-19T15:08:56Z</time>
</trkpt>
<trkpt lat="46.178330000" lon="6.871670000">
  <ele>978.961550</ele>
  <time>2012-06-19T15:08:57Z</time>
</trkpt>
<trkpt lat="46.178220000" lon="6.871660000">
  <ele>978.507690</ele>
  <time>2012-06-19T15:08:58Z</time>
</trkpt>
<trkpt lat="46.178130000" lon="6.871640000">
  <ele>978.053830</ele>
  <time>2012-06-19T15:08:59Z</time>
</trkpt>
<trkpt lat="46.178040000" lon="6.871620000">
  <ele>977.599980</ele>
  <time>2012-06-19T15:09:00Z</time>
</trkpt>
<trkpt lat="46.177780000" lon="6.871570000">
  <ele>977.599980</ele>
  <time>2012-06-19T15:09:03Z</time>
</trkpt>
<trkpt lat="46.177430000" lon="6.871400000">
  <ele>979.037480</ele>
  <time>2012-06-19T15:09:08Z</time>
</trkpt>
<trkpt lat="46.177330000" lon="6.871310000">
  <ele>979.612490</ele>
  <time>2012-06-19T15:09:10Z</time>
</trkpt>
<trkpt lat="46.177280000" lon="6.871270000">
  <ele>979.900020</ele>
  <time>2012-06-19T15:09:11Z</time>
</trkpt>
<trkpt lat="46.177240000" lon="6.871240000">
  <ele>980.187500</ele>
  <time>2012-06-19T15:09:12Z</time>
</trkpt>
<trkpt lat="46.177200000" lon="6.871190000">
  <ele>980.474980</ele>
  <time>2012-06-19T15:09:13Z</time>
</trkpt>
<trkpt lat="46.177160000" lon="6.871150000">
  <ele>980.762510</ele>
  <time>2012-06-19T15:09:14Z</time>
</trkpt>
<trkpt lat="46.177120000" lon="6.871120000">
  <ele>981.049990</ele>
  <time>2012-06-19T15:09:15Z</time>
</trkpt>
<trkpt lat="46.177070000" lon="6.871090000">
  <ele>981.337520</ele>
  <time>2012-06-19T15:09:16Z</time>
</trkpt>
<trkpt lat="46.177030000" lon="6.871070000">
  <ele>981.625000</ele>
  <time>2012-06-19T15:09:17Z</time>
</trkpt>
<trkpt lat="46.176980000" lon="6.871040000">
  <ele>981.912540</ele>
  <time>2012-06-19T15:09:18Z</time>
</trkpt>
<trkpt lat="46.176940000" lon="6.871010000">
  <ele>982.200010</ele>
  <time>2012-06-19T15:09:19Z</time>
</trkpt>
<trkpt lat="46.176850000" lon="6.870960000">
  <ele>982.200010</ele>
  <time>2012-06-19T15:09:21Z</time>
</trkpt>
<trkpt lat="46.176800000" lon="6.870940000">
  <ele>982.295650</ele>
  <time>2012-06-19T15:09:22Z</time>
</trkpt>
<trkpt lat="46.176690000" lon="6.870910000">
  <ele>982.487000</ele>
  <time>2012-06-19T15:09:24Z</time>
</trkpt>
<trkpt lat="46.176590000" lon="6.870880000">
  <ele>982.678280</ele>
  <time>2012-06-19T15:09:26Z</time>
</trkpt>
<trkpt lat="46.176410000" lon="6.870840000">
  <ele>982.965210</ele>
  <time>2012-06-19T15:09:29Z</time>
</trkpt>
<trkpt lat="46.176290000" lon="6.870820000">
  <ele>983.156560</ele>
  <time>2012-06-19T15:09:31Z</time>
</trkpt>
<trkpt lat="46.175960000" lon="6.870720000">
  <ele>983.730470</ele>
  <time>2012-06-19T15:09:37Z</time>
</trkpt>
<trkpt lat="46.175760000" lon="6.870630000">
  <ele>984.113040</ele>
  <time>2012-06-19T15:09:41Z</time>
</trkpt>
<trkpt lat="46.175710000" lon="6.870610000">
  <ele>984.208740</ele>
  <time>2012-06-19T15:09:42Z</time>
</trkpt>
<trkpt lat="46.175660000" lon="6.870580000">
  <ele>984.304380</ele>
  <time>2012-06-19T15:09:43Z</time>
</trkpt>
<trkpt lat="46.175610000" lon="6.870560000">
  <ele>984.400020</ele>
  <time>2012-06-19T15:09:44Z</time>
</trkpt>
<trkpt lat="46.175510000" lon="6.870520000">
  <ele>984.400020</ele>
  <time>2012-06-19T15:09:46Z</time>
</trkpt>
<trkpt lat="46.175220000" lon="6.870410000">
  <ele>983.534420</ele>
  <time>2012-06-19T15:09:52Z</time>
</trkpt>
<trkpt lat="46.174990000" lon="6.870290000">
  <ele>982.813110</ele>
  <time>2012-06-19T15:09:57Z</time>
</trkpt>
<trkpt lat="46.174660000" lon="6.870140000">
  <ele>981.803280</ele>
  <time>2012-06-19T15:10:04Z</time>
</trkpt>
<trkpt lat="46.174220000" lon="6.869960000">
  <ele>980.504940</ele>
  <time>2012-06-19T15:10:13Z</time>
</trkpt>
<trkpt lat="46.173870000" lon="6.869810000">
  <ele>979.495060</ele>
  <time>2012-06-19T15:10:20Z</time>
</trkpt>
<trkpt lat="46.173580000" lon="6.869680000">
  <ele>978.773740</ele>
  <time>2012-06-19T15:10:25Z</time>
</trkpt>
<trkpt lat="46.173520000" lon="6.869650000">
  <ele>978.629520</ele>
  <time>2012-06-19T15:10:26Z</time>
</trkpt>
<trkpt lat="46.173450000" lon="6.869630000">
  <ele>978.485230</ele>
  <time>2012-06-19T15:10:27Z</time>
</trkpt>
<trkpt lat="46.173390000" lon="6.869600000">
  <ele>978.341000</ele>
  <time>2012-06-19T15:10:28Z</time>
</trkpt>
<trkpt lat="46.173320000" lon="6.869570000">
  <ele>978.196720</ele>
  <time>2012-06-19T15:10:29Z</time>
</trkpt>
<trkpt lat="46.173240000" lon="6.869540000">
  <ele>978.052430</ele>
  <time>2012-06-19T15:10:30Z</time>
</trkpt>
<trkpt lat="46.173180000" lon="6.869500000">
  <ele>977.908200</ele>
  <time>2012-06-19T15:10:31Z</time>
</trkpt>
<trkpt lat="46.173100000" lon="6.869470000">
  <ele>977.763920</ele>
  <time>2012-06-19T15:10:32Z</time>
</trkpt>
<trkpt lat="46.173030000" lon="6.869440000">
  <ele>977.619630</ele>
  <time>2012-06-19T15:10:33Z</time>
</trkpt>
<trkpt lat="46.172960000" lon="6.869410000">
  <ele>977.475400</ele>
  <time>2012-06-19T15:10:34Z</time>
</trkpt>
<trkpt lat="46.172820000" lon="6.869340000">
  <ele>977.186890</ele>
  <time>2012-06-19T15:10:36Z</time>
</trkpt>
<trkpt lat="46.172750000" lon="6.869310000">
  <ele>977.042600</ele>
  <time>2012-06-19T15:10:37Z</time>
</trkpt>
<trkpt lat="46.172680000" lon="6.869280000">
  <ele>976.898320</ele>
  <time>2012-06-19T15:10:38Z</time>
</trkpt>
<trkpt lat="46.172600000" lon="6.869240000">
  <ele>976.754090</ele>
  <time>2012-06-19T15:10:39Z</time>
</trkpt>
<trkpt lat="46.172530000" lon="6.869200000">
  <ele>976.609800</ele>
  <time>2012-06-19T15:10:40Z</time>
</trkpt>
<trkpt lat="46.172330000" lon="6.869060000">
  <ele>976.177000</ele>
  <time>2012-06-19T15:10:43Z</time>
</trkpt>
<trkpt lat="46.172260000" lon="6.869010000">
  <ele>976.032780</ele>
  <time>2012-06-19T15:10:44Z</time>
</trkpt>
<trkpt lat="46.172190000" lon="6.868960000">
  <ele>975.888490</ele>
  <time>2012-06-19T15:10:45Z</time>
</trkpt>
<trkpt lat="46.172130000" lon="6.868900000">
  <ele>975.744260</ele>
  <time>2012-06-19T15:10:46Z</time>
</trkpt>
<trkpt lat="46.172060000" lon="6.868850000">
  <ele>975.599980</ele>
  <time>2012-06-19T15:10:47Z</time>
</trkpt>
<trkpt lat="46.172000000" lon="6.868790000">
  <ele>975.599980</ele>
  <time>2012-06-19T15:10:48Z</time>
</trkpt>
<trkpt lat="46.171940000" lon="6.868730000">
  <ele>975.377750</ele>
  <time>2012-06-19T15:10:49Z</time>
</trkpt>
<trkpt lat="46.171880000" lon="6.868670000">
  <ele>975.155520</ele>
  <time>2012-06-19T15:10:50Z</time>
</trkpt>
<trkpt lat="46.171770000" lon="6.868530000">
  <ele>974.711060</ele>
  <time>2012-06-19T15:10:52Z</time>
</trkpt>
<trkpt lat="46.171670000" lon="6.868380000">
  <ele>974.266660</ele>
  <time>2012-06-19T15:10:54Z</time>
</trkpt>
<trkpt lat="46.171620000" lon="6.868310000">
  <ele>974.044430</ele>
  <time>2012-06-19T15:10:55Z</time>
</trkpt>
<trkpt lat="46.171570000" lon="6.868240000">
  <ele>973.822200</ele>
  <time>2012-06-19T15:10:56Z</time>
</trkpt>
<trkpt lat="46.171520000" lon="6.868170000">
  <ele>973.599980</ele>
  <time>2012-06-19T15:10:57Z</time>
</trkpt>
<trkpt lat="46.171430000" lon="6.868040000">
  <ele>973.599980</ele>
  <time>2012-06-19T15:10:59Z</time>
</trkpt>
<trkpt lat="46.171380000" lon="6.867970000">
  <ele>973.494690</ele>
  <time>2012-06-19T15:11:00Z</time>
</trkpt>
<trkpt lat="46.171330000" lon="6.867910000">
  <ele>973.389470</ele>
  <time>2012-06-19T15:11:01Z</time>
</trkpt>
<trkpt lat="46.171160000" lon="6.867670000">
  <ele>972.968380</ele>
  <time>2012-06-19T15:11:05Z</time>
</trkpt>
<trkpt lat="46.171110000" lon="6.867610000">
  <ele>972.863160</ele>
  <time>2012-06-19T15:11:06Z</time>
</trkpt>
<trkpt lat="46.171070000" lon="6.867550000">
  <ele>972.757870</ele>
  <time>2012-06-19T15:11:07Z</time>
</trkpt>
<trkpt lat="46.170880000" lon="6.867320000">
  <ele>972.336790</ele>
  <time>2012-06-19T15:11:11Z</time>
</trkpt>
<trkpt lat="46.170740000" lon="6.867160000">
  <ele>972.021060</ele>
  <time>2012-06-19T15:11:14Z</time>
</trkpt>
<trkpt lat="46.170690000" lon="6.867110000">
  <ele>971.915770</ele>
  <time>2012-06-19T15:11:15Z</time>
</trkpt>
<trkpt lat="46.170640000" lon="6.867050000">
  <ele>971.810490</ele>
  <time>2012-06-19T15:11:16Z</time>
</trkpt>
<trkpt lat="46.170600000" lon="6.867000000">
  <ele>971.705260</ele>
  <time>2012-06-19T15:11:17Z</time>
</trkpt>
<trkpt lat="46.170550000" lon="6.866950000">
  <ele>971.599980</ele>
  <time>2012-06-19T15:11:18Z</time>
</trkpt>
<trkpt lat="46.170280000" lon="6.866630000">
  <ele>971.599980</ele>
  <time>2012-06-19T15:11:24Z</time>
</trkpt>
<trkpt lat="46.170190000" lon="6.866530000">
  <ele>971.426090</ele>
  <time>2012-06-19T15:11:26Z</time>
</trkpt>
<trkpt lat="46.170010000" lon="6.866310000">
  <ele>971.078250</ele>
  <time>2012-06-19T15:11:30Z</time>
</trkpt>
<trkpt lat="46.169960000" lon="6.866260000">
  <ele>970.991270</ele>
  <time>2012-06-19T15:11:31Z</time>
</trkpt>
<trkpt lat="46.169810000" lon="6.866090000">
  <ele>970.730410</ele>
  <time>2012-06-19T15:11:34Z</time>
</trkpt>
<trkpt lat="46.169630000" lon="6.865870000">
  <ele>970.382570</ele>
  <time>2012-06-19T15:11:38Z</time>
</trkpt>
<trkpt lat="46.169490000" lon="6.865680000">
  <ele>970.121700</ele>
  <time>2012-06-19T15:11:41Z</time>
</trkpt>
<trkpt lat="46.169360000" lon="6.865470000">
  <ele>969.860840</ele>
  <time>2012-06-19T15:11:44Z</time>
</trkpt>
<trkpt lat="46.169320000" lon="6.865400000">
  <ele>969.773860</ele>
  <time>2012-06-19T15:11:45Z</time>
</trkpt>
<trkpt lat="46.169270000" lon="6.865330000">
  <ele>969.686950</ele>
  <time>2012-06-19T15:11:46Z</time>
</trkpt>
<trkpt lat="46.169230000" lon="6.865250000">
  <ele>969.599980</ele>
  <time>2012-06-19T15:11:47Z</time>
</trkpt>
<trkpt lat="46.169000000" lon="6.864800000">
  <ele>969.599980</ele>
  <time>2012-06-19T15:11:53Z</time>
</trkpt>
<trkpt lat="46.168770000" lon="6.864190000">
  <ele>970.333310</ele>
  <time>2012-06-19T15:12:01Z</time>
</trkpt>
<trkpt lat="46.168630000" lon="6.863800000">
  <ele>970.883300</ele>
  <time>2012-06-19T15:12:07Z</time>
</trkpt>
<trkpt lat="46.168620000" lon="6.863740000">
  <ele>970.974980</ele>
  <time>2012-06-19T15:12:08Z</time>
</trkpt>
<trkpt lat="46.168550000" lon="6.863490000">
  <ele>971.341670</ele>
  <time>2012-06-19T15:12:12Z</time>
</trkpt>
<trkpt lat="46.168530000" lon="6.863430000">
  <ele>971.433350</ele>
  <time>2012-06-19T15:12:13Z</time>
</trkpt>
<trkpt lat="46.168520000" lon="6.863370000">
  <ele>971.524960</ele>
  <time>2012-06-19T15:12:14Z</time>
</trkpt>
<trkpt lat="46.168500000" lon="6.863310000">
  <ele>971.616640</ele>
  <time>2012-06-19T15:12:15Z</time>
</trkpt>
<trkpt lat="46.168480000" lon="6.863250000">
  <ele>971.708310</ele>
  <time>2012-06-19T15:12:16Z</time>
</trkpt>
<trkpt lat="46.168460000" lon="6.863190000">
  <ele>971.799990</ele>
  <time>2012-06-19T15:12:17Z</time>
</trkpt>
<trkpt lat="46.168440000" lon="6.863130000">
  <ele>971.799990</ele>
  <time>2012-06-19T15:12:18Z</time>
</trkpt>
<trkpt lat="46.168420000" lon="6.863080000">
  <ele>972.135990</ele>
  <time>2012-06-19T15:12:19Z</time>
</trkpt>
<trkpt lat="46.168400000" lon="6.863020000">
  <ele>972.471980</ele>
  <time>2012-06-19T15:12:20Z</time>
</trkpt>
<trkpt lat="46.168380000" lon="6.862970000">
  <ele>972.807980</ele>
  <time>2012-06-19T15:12:21Z</time>
</trkpt>
<trkpt lat="46.168360000" lon="6.862930000">
  <ele>973.143980</ele>
  <time>2012-06-19T15:12:22Z</time>
</trkpt>
<trkpt lat="46.168340000" lon="6.862890000">
  <ele>973.479980</ele>
  <time>2012-06-19T15:12:23Z</time>
</trkpt>
<trkpt lat="46.168320000" lon="6.862850000">
  <ele>973.815980</ele>
  <time>2012-06-19T15:12:24Z</time>
</trkpt>
<trkpt lat="46.168270000" lon="6.862760000">
  <ele>974.487980</ele>
  <time>2012-06-19T15:12:26Z</time>
</trkpt>
<trkpt lat="46.168250000" lon="6.862730000">
  <ele>974.823970</ele>
  <time>2012-06-19T15:12:27Z</time>
</trkpt>
<trkpt lat="46.168230000" lon="6.862700000">
  <ele>975.159970</ele>
  <time>2012-06-19T15:12:28Z</time>
</trkpt>
<trkpt lat="46.168200000" lon="6.862670000">
  <ele>975.495970</ele>
  <time>2012-06-19T15:12:29Z</time>
</trkpt>
<trkpt lat="46.168180000" lon="6.862630000">
  <ele>975.831970</ele>
  <time>2012-06-19T15:12:30Z</time>
</trkpt>
<trkpt lat="46.168090000" lon="6.862540000">
  <ele>976.840030</ele>
  <time>2012-06-19T15:12:33Z</time>
</trkpt>
<trkpt lat="46.168070000" lon="6.862510000">
  <ele>977.176030</ele>
  <time>2012-06-19T15:12:34Z</time>
</trkpt>
<trkpt lat="46.168050000" lon="6.862490000">
  <ele>977.512020</ele>
  <time>2012-06-19T15:12:35Z</time>
</trkpt>
<trkpt lat="46.168020000" lon="6.862470000">
  <ele>977.848020</ele>
  <time>2012-06-19T15:12:36Z</time>
</trkpt>
<trkpt lat="46.167950000" lon="6.862420000">
  <ele>978.856020</ele>
  <time>2012-06-19T15:12:39Z</time>
</trkpt>
<trkpt lat="46.167930000" lon="6.862400000">
  <ele>979.192020</ele>
  <time>2012-06-19T15:12:40Z</time>
</trkpt>
<trkpt lat="46.167910000" lon="6.862370000">
  <ele>979.528020</ele>
  <time>2012-06-19T15:12:41Z</time>
</trkpt>
<trkpt lat="46.167880000" lon="6.862360000">
  <ele>979.864010</ele>
  <time>2012-06-19T15:12:42Z</time>
</trkpt>
<trkpt lat="46.167860000" lon="6.862350000">
  <ele>980.200010</ele>
  <time>2012-06-19T15:12:43Z</time>
</trkpt>
<trkpt lat="46.167770000" lon="6.862290000">
  <ele>980.200010</ele>
  <time>2012-06-19T15:12:47Z</time>
</trkpt>
<trkpt lat="46.167760000" lon="6.862280000">
  <ele>980.640010</ele>
  <time>2012-06-19T15:12:48Z</time>
</trkpt>
<trkpt lat="46.167740000" lon="6.862260000">
  <ele>981.080020</ele>
  <time>2012-06-19T15:12:49Z</time>
</trkpt>
<trkpt lat="46.167720000" lon="6.862250000">
  <ele>981.520020</ele>
  <time>2012-06-19T15:12:50Z</time>
</trkpt>
<trkpt lat="46.167710000" lon="6.862240000">
  <ele>981.960020</ele>
  <time>2012-06-19T15:12:51Z</time>
</trkpt>
<trkpt lat="46.167690000" lon="6.862240000">
  <ele>982.400020</ele>
  <time>2012-06-19T15:12:52Z</time>
</trkpt>
<trkpt lat="46.167650000" lon="6.862210000">
  <ele>982.400020</ele>
  <time>2012-06-19T15:12:54Z</time>
</trkpt>
<trkpt lat="46.167580000" lon="6.862160000">
  <ele>983.542910</ele>
  <time>2012-06-19T15:12:58Z</time>
</trkpt>
<trkpt lat="46.167560000" lon="6.862150000">
  <ele>983.828610</ele>
  <time>2012-06-19T15:12:59Z</time>
</trkpt>
<trkpt lat="46.167550000" lon="6.862140000">
  <ele>984.114320</ele>
  <time>2012-06-19T15:13:00Z</time>
</trkpt>
<trkpt lat="46.167530000" lon="6.862130000">
  <ele>984.400020</ele>
  <time>2012-06-19T15:13:01Z</time>
</trkpt>
<trkpt lat="46.167470000" lon="6.862080000">
  <ele>984.400020</ele>
  <time>2012-06-19T15:13:05Z</time>
</trkpt>
<trkpt lat="46.167450000" lon="6.862070000">
  <ele>984.733340</ele>
  <time>2012-06-19T15:13:06Z</time>
</trkpt>
<trkpt lat="46.167440000" lon="6.862050000">
  <ele>985.066710</ele>
  <time>2012-06-19T15:13:07Z</time>
</trkpt>
<trkpt lat="46.167430000" lon="6.862040000">
  <ele>985.400020</ele>
  <time>2012-06-19T15:13:08Z</time>
</trkpt>
<trkpt lat="46.167430000" lon="6.862020000">
  <ele>985.733340</ele>
  <time>2012-06-19T15:13:09Z</time>
</trkpt>
<trkpt lat="46.167420000" lon="6.862010000">
  <ele>986.066710</ele>
  <time>2012-06-19T15:13:10Z</time>
</trkpt>
<trkpt lat="46.167410000" lon="6.861990000">
  <ele>986.400020</ele>
  <time>2012-06-19T15:13:11Z</time>
</trkpt>
<trkpt lat="46.167400000" lon="6.861970000">
  <ele>986.400020</ele>
  <time>2012-06-19T15:13:12Z</time>
</trkpt>
<trkpt lat="46.167340000" lon="6.861890000">
  <ele>987.622190</ele>
  <time>2012-06-19T15:13:17Z</time>
</trkpt>
<trkpt lat="46.167310000" lon="6.861870000">
  <ele>987.866640</ele>
  <time>2012-06-19T15:13:18Z</time>
</trkpt>
<trkpt lat="46.167290000" lon="6.861850000">
  <ele>988.111080</ele>
  <time>2012-06-19T15:13:19Z</time>
</trkpt>
<trkpt lat="46.167260000" lon="6.861830000">
  <ele>988.355530</ele>
  <time>2012-06-19T15:13:20Z</time>
</trkpt>
<trkpt lat="46.167230000" lon="6.861810000">
  <ele>988.599980</ele>
  <time>2012-06-19T15:13:21Z</time>
</trkpt>
<trkpt lat="46.167130000" lon="6.861770000">
  <ele>988.599980</ele>
  <time>2012-06-19T15:13:24Z</time>
</trkpt>
<trkpt lat="46.167030000" lon="6.861710000">
  <ele>989.457090</ele>
  <time>2012-06-19T15:13:27Z</time>
</trkpt>
<trkpt lat="46.167020000" lon="6.861680000">
  <ele>989.742860</ele>
  <time>2012-06-19T15:13:28Z</time>
</trkpt>
<trkpt lat="46.167000000" lon="6.861650000">
  <ele>990.028560</ele>
  <time>2012-06-19T15:13:29Z</time>
</trkpt>
<trkpt lat="46.166980000" lon="6.861630000">
  <ele>990.314270</ele>
  <time>2012-06-19T15:13:30Z</time>
</trkpt>
<trkpt lat="46.166960000" lon="6.861610000">
  <ele>990.599980</ele>
  <time>2012-06-19T15:13:31Z</time>
</trkpt>
<trkpt lat="46.166900000" lon="6.861550000">
  <ele>990.599980</ele>
  <time>2012-06-19T15:13:34Z</time>
</trkpt>
<trkpt lat="46.166850000" lon="6.861470000">
  <ele>991.457090</ele>
  <time>2012-06-19T15:13:37Z</time>
</trkpt>
<trkpt lat="46.166840000" lon="6.861450000">
  <ele>991.742860</ele>
  <time>2012-06-19T15:13:38Z</time>
</trkpt>
<trkpt lat="46.166830000" lon="6.861410000">
  <ele>992.028560</ele>
  <time>2012-06-19T15:13:39Z</time>
</trkpt>
<trkpt lat="46.166820000" lon="6.861380000">
  <ele>992.314270</ele>
  <time>2012-06-19T15:13:40Z</time>
</trkpt>
<trkpt lat="46.166820000" lon="6.861350000">
  <ele>992.599980</ele>
  <time>2012-06-19T15:13:41Z</time>
</trkpt>
<trkpt lat="46.166810000" lon="6.861310000">
  <ele>992.599980</ele>
  <time>2012-06-19T15:13:42Z</time>
</trkpt>
<trkpt lat="46.166750000" lon="6.861140000">
  <ele>993.599980</ele>
  <time>2012-06-19T15:13:47Z</time>
</trkpt>
<trkpt lat="46.166720000" lon="6.861080000">
  <ele>994.000000</ele>
  <time>2012-06-19T15:13:49Z</time>
</trkpt>
<trkpt lat="46.166710000" lon="6.861040000">
  <ele>994.199950</ele>
  <time>2012-06-19T15:13:50Z</time>
</trkpt>
<trkpt lat="46.166700000" lon="6.861010000">
  <ele>994.399960</ele>
  <time>2012-06-19T15:13:51Z</time>
</trkpt>
<trkpt lat="46.166690000" lon="6.860980000">
  <ele>994.599980</ele>
  <time>2012-06-19T15:13:52Z</time>
</trkpt>
<trkpt lat="46.166600000" lon="6.861000000">
  <ele>994.599980</ele>
  <time>2012-06-19T15:13:56Z</time>
</trkpt>
<trkpt lat="46.166550000" lon="6.861070000">
  <ele>994.893310</ele>
  <time>2012-06-19T15:13:58Z</time>
</trkpt>
<trkpt lat="46.166450000" lon="6.861180000">
  <ele>995.479980</ele>
  <time>2012-06-19T15:14:02Z</time>
</trkpt>
<trkpt lat="46.166360000" lon="6.861240000">
  <ele>996.213320</ele>
  <time>2012-06-19T15:14:07Z</time>
</trkpt>
<trkpt lat="46.166330000" lon="6.861260000">
  <ele>996.359990</ele>
  <time>2012-06-19T15:14:08Z</time>
</trkpt>
<trkpt lat="46.166310000" lon="6.861270000">
  <ele>996.506650</ele>
  <time>2012-06-19T15:14:09Z</time>
</trkpt>
<trkpt lat="46.166290000" lon="6.861280000">
  <ele>996.653320</ele>
  <time>2012-06-19T15:14:10Z</time>
</trkpt>
<trkpt lat="46.166260000" lon="6.861290000">
  <ele>996.799990</ele>
  <time>2012-06-19T15:14:11Z</time>
</trkpt>
<trkpt lat="46.166210000" lon="6.861300000">
  <ele>996.799990</ele>
  <time>2012-06-19T15:14:13Z</time>
</trkpt>
<trkpt lat="46.166160000" lon="6.861310000">
  <ele>997.500000</ele>
  <time>2012-06-19T15:14:15Z</time>
</trkpt>
<trkpt lat="46.166140000" lon="6.861310000">
  <ele>997.849980</ele>
  <time>2012-06-19T15:14:16Z</time>
</trkpt>
<trkpt lat="46.166110000" lon="6.861310000">
  <ele>998.200010</ele>
  <time>2012-06-19T15:14:17Z</time>
</trkpt>
<trkpt lat="46.166100000" lon="6.861300000">
  <ele>998.549990</ele>
  <time>2012-06-19T15:14:18Z</time>
</trkpt>
<trkpt lat="46.166030000" lon="6.861240000">
  <ele>999.599980</ele>
  <time>2012-06-19T15:14:21Z</time>
</trkpt>
<trkpt lat="46.166020000" lon="6.861210000">
  <ele>999.950010</ele>
  <time>2012-06-19T15:14:22Z</time>
</trkpt>
<trkpt lat="46.165990000" lon="6.861190000">
  <ele>1000.299990</ele>
  <time>2012-06-19T15:14:23Z</time>
</trkpt>
<trkpt lat="46.165970000" lon="6.861170000">
  <ele>1000.650020</ele>
  <time>2012-06-19T15:14:24Z</time>
</trkpt>
<trkpt lat="46.165950000" lon="6.861140000">
  <ele>1001.000000</ele>
  <time>2012-06-19T15:14:25Z</time>
</trkpt>
<trkpt lat="46.165860000" lon="6.861040000">
  <ele>1001.000000</ele>
  <time>2012-06-19T15:14:29Z</time>
</trkpt>
<trkpt lat="46.165840000" lon="6.861020000">
  <ele>1000.884220</ele>
  <time>2012-06-19T15:14:30Z</time>
</trkpt>
<trkpt lat="46.165710000" lon="6.860950000">
  <ele>1000.305240</ele>
  <time>2012-06-19T15:14:35Z</time>
</trkpt>
<trkpt lat="46.165670000" lon="6.860940000">
  <ele>1000.189450</ele>
  <time>2012-06-19T15:14:36Z</time>
</trkpt>
<trkpt lat="46.165620000" lon="6.860940000">
  <ele>1000.073670</ele>
  <time>2012-06-19T15:14:37Z</time>
</trkpt>
<trkpt lat="46.165470000" lon="6.860970000">
  <ele>999.726320</ele>
  <time>2012-06-19T15:14:40Z</time>
</trkpt>
<trkpt lat="46.165360000" lon="6.860960000">
  <ele>999.494750</ele>
  <time>2012-06-19T15:14:42Z</time>
</trkpt>
<trkpt lat="46.165260000" lon="6.860910000">
  <ele>999.263120</ele>
  <time>2012-06-19T15:14:44Z</time>
</trkpt>
<trkpt lat="46.165220000" lon="6.860880000">
  <ele>999.147340</ele>
  <time>2012-06-19T15:14:45Z</time>
</trkpt>
<trkpt lat="46.165180000" lon="6.860860000">
  <ele>999.031560</ele>
  <time>2012-06-19T15:14:46Z</time>
</trkpt>
<trkpt lat="46.165140000" lon="6.860840000">
  <ele>998.915770</ele>
  <time>2012-06-19T15:14:47Z</time>
</trkpt>
<trkpt lat="46.165100000" lon="6.860820000">
  <ele>998.799990</ele>
  <time>2012-06-19T15:14:48Z</time>
</trkpt>
<trkpt lat="46.164960000" lon="6.860720000">
  <ele>998.799990</ele>
  <time>2012-06-19T15:14:52Z</time>
</trkpt>
<trkpt lat="46.164890000" lon="6.860690000">
  <ele>999.000000</ele>
  <time>2012-06-19T15:14:54Z</time>
</trkpt>
<trkpt lat="46.164670000" lon="6.860700000">
  <ele>999.599980</ele>
  <time>2012-06-19T15:15:00Z</time>
</trkpt>
<trkpt lat="46.164480000" lon="6.860730000">
  <ele>1000.099980</ele>
  <time>2012-06-19T15:15:05Z</time>
</trkpt>
<trkpt lat="46.164300000" lon="6.860770000">
  <ele>1000.599980</ele>
  <time>2012-06-19T15:15:10Z</time>
</trkpt>
<trkpt lat="46.164250000" lon="6.860780000">
  <ele>1000.700010</ele>
  <time>2012-06-19T15:15:11Z</time>
</trkpt>
<trkpt lat="46.164210000" lon="6.860790000">
  <ele>1000.799990</ele>
  <time>2012-06-19T15:15:12Z</time>
</trkpt>
<trkpt lat="46.164170000" lon="6.860790000">
  <ele>1000.900020</ele>
  <time>2012-06-19T15:15:13Z</time>
</trkpt>
<trkpt lat="46.164130000" lon="6.860790000">
  <ele>1001.000000</ele>
  <time>2012-06-19T15:15:14Z</time>
</trkpt>
<trkpt lat="46.164020000" lon="6.860810000">
  <ele>1001.000000</ele>
  <time>2012-06-19T15:15:17Z</time>
</trkpt>
<trkpt lat="46.163900000" lon="6.860890000">
  <ele>1002.000000</ele>
  <time>2012-06-19T15:15:21Z</time>
</trkpt>
<trkpt lat="46.163870000" lon="6.860910000">
  <ele>1002.250000</ele>
  <time>2012-06-19T15:15:22Z</time>
</trkpt>
<trkpt lat="46.163840000" lon="6.860930000">
  <ele>1002.500000</ele>
  <time>2012-06-19T15:15:23Z</time>
</trkpt>
<trkpt lat="46.163810000" lon="6.860950000">
  <ele>1002.750000</ele>
  <time>2012-06-19T15:15:24Z</time>
</trkpt>
<trkpt lat="46.163770000" lon="6.860980000">
  <ele>1003.000000</ele>
  <time>2012-06-19T15:15:25Z</time>
</trkpt>
<trkpt lat="46.163670000" lon="6.861040000">
  <ele>1003.000000</ele>
  <time>2012-06-19T15:15:28Z</time>
</trkpt>
<trkpt lat="46.163530000" lon="6.861040000">
  <ele>1003.000000</ele>
  <time>2012-06-19T15:15:32Z</time>
</trkpt>
<trkpt lat="46.163490000" lon="6.861050000">
  <ele>1003.000000</ele>
  <time>2012-06-19T15:15:33Z</time>
</trkpt>
<trkpt lat="46.163420000" lon="6.861060000">
  <ele>1003.000000</ele>
  <time>2012-06-19T15:15:35Z</time>
</trkpt>
<trkpt lat="46.163320000" lon="6.861050000">
  <ele>1003.000000</ele>
  <time>2012-06-19T15:15:38Z</time>
</trkpt>
<trkpt lat="46.163290000" lon="6.861020000">
  <ele>1003.000000</ele>
  <time>2012-06-19T15:15:39Z</time>
</trkpt>
<trkpt lat="46.163260000" lon="6.860940000">
  <ele>1003.000000</ele>
  <time>2012-06-19T15:15:41Z</time>
</trkpt>
<trkpt lat="46.163270000" lon="6.860890000">
  <ele>1003.000000</ele>
  <time>2012-06-19T15:15:42Z</time>
</trkpt>
<trkpt lat="46.163290000" lon="6.860780000">
  <ele>1003.000000</ele>
  <time>2012-06-19T15:15:44Z</time>
</trkpt>
<trkpt lat="46.163350000" lon="6.860630000">
  <ele>1003.000000</ele>
  <time>2012-06-19T15:15:47Z</time>
</trkpt>
<trkpt lat="46.163410000" lon="6.860470000">
  <ele>1003.000000</ele>
  <time>2012-06-19T15:15:50Z</time>
</trkpt>
<trkpt lat="46.163450000" lon="6.860370000">
  <ele>1003.000000</ele>
  <time>2012-06-19T15:15:52Z</time>
</trkpt>
<trkpt lat="46.163540000" lon="6.860150000">
  <ele>1003.000000</ele>
  <time>2012-06-19T15:15:57Z</time>
</trkpt>
<trkpt lat="46.163610000" lon="6.860030000">
  <ele>1003.000000</ele>
  <time>2012-06-19T15:16:00Z</time>
</trkpt>
<trkpt lat="46.163650000" lon="6.859900000">
  <ele>1003.000000</ele>
  <time>2012-06-19T15:16:03Z</time>
</trkpt>
</trkseg>
</trk>
</gpx>
